<?xml version="1.0" encoding="UTF-8" standalone="no" ?>
<gpx xmlns="http://www.topografix.com/GPX/1/1" xmlns:xsi="http://www.w3.org/2001/XMLSchema-instance" xsi:schemaLocation="http://www.topografix.com/GPX/1/1 http://www.topografix.com/GPX/1/1/gpx.xsd" version="1.1" creator="VisuGPX - https://www.visugpx.com">
  <metadata>
    <name>Crêtes de Morettet par la combe d'Oyans et la cathédrale</name>
    <desc><![CDATA[randonnée "avec les mains", plusieurs passages exposés ...
d'après Pascal Sombardier "Vercors secret"]]></desc>
  </metadata>
  <trk>
    <name><![CDATA[03-JUIL-16 15:37:35]]></name>
    <trkseg>
      <trkpt lat="44.97253" lon="5.16784">
        <ele>452.44</ele>
        <time>2016-07-03T07:12:36Z</time>
      </trkpt>
      <trkpt lat="44.97252" lon="5.16782">
        <ele>452.92</ele>
        <time>2016-07-03T07:12:54Z</time>
      </trkpt>
      <trkpt lat="44.97249" lon="5.16782">
        <ele>453.4</ele>
        <time>2016-07-03T07:12:56Z</time>
      </trkpt>
      <trkpt lat="44.97233" lon="5.1679">
        <ele>453.4</ele>
        <time>2016-07-03T07:13:11Z</time>
      </trkpt>
      <trkpt lat="44.97234" lon="5.16803">
        <ele>452.92</ele>
        <time>2016-07-03T07:13:25Z</time>
      </trkpt>
      <trkpt lat="44.97234" lon="5.16807">
        <ele>452.92</ele>
        <time>2016-07-03T07:13:33Z</time>
      </trkpt>
      <trkpt lat="44.9724" lon="5.16825">
        <ele>453.88</ele>
        <time>2016-07-03T07:13:48Z</time>
      </trkpt>
      <trkpt lat="44.97247" lon="5.16847">
        <ele>454.36</ele>
        <time>2016-07-03T07:14:02Z</time>
      </trkpt>
      <trkpt lat="44.97256" lon="5.16866">
        <ele>454.84</ele>
        <time>2016-07-03T07:14:14Z</time>
      </trkpt>
      <trkpt lat="44.97259" lon="5.16871">
        <ele>454.36</ele>
        <time>2016-07-03T07:14:18Z</time>
      </trkpt>
      <trkpt lat="44.97265" lon="5.16891">
        <ele>453.4</ele>
        <time>2016-07-03T07:14:36Z</time>
      </trkpt>
      <trkpt lat="44.97263" lon="5.16898">
        <ele>453.88</ele>
        <time>2016-07-03T07:14:46Z</time>
      </trkpt>
      <trkpt lat="44.97255" lon="5.16907">
        <ele>452.92</ele>
        <time>2016-07-03T07:15:03Z</time>
      </trkpt>
      <trkpt lat="44.97254" lon="5.16907">
        <ele>452.92</ele>
        <time>2016-07-03T07:15:17Z</time>
      </trkpt>
      <trkpt lat="44.97246" lon="5.16917">
        <ele>451.48</ele>
        <time>2016-07-03T07:15:34Z</time>
      </trkpt>
      <trkpt lat="44.97235" lon="5.16932">
        <ele>451</ele>
        <time>2016-07-03T07:15:51Z</time>
      </trkpt>
      <trkpt lat="44.9722" lon="5.16955">
        <ele>448.59</ele>
        <time>2016-07-03T07:16:07Z</time>
      </trkpt>
      <trkpt lat="44.97207" lon="5.16983">
        <ele>447.15</ele>
        <time>2016-07-03T07:16:24Z</time>
      </trkpt>
      <trkpt lat="44.97199" lon="5.17012">
        <ele>444.75</ele>
        <time>2016-07-03T07:16:40Z</time>
      </trkpt>
      <trkpt lat="44.97199" lon="5.17025">
        <ele>443.79</ele>
        <time>2016-07-03T07:16:48Z</time>
      </trkpt>
      <trkpt lat="44.97199" lon="5.1705">
        <ele>442.34</ele>
        <time>2016-07-03T07:17:01Z</time>
      </trkpt>
      <trkpt lat="44.97211" lon="5.1708">
        <ele>439.94</ele>
        <time>2016-07-03T07:17:18Z</time>
      </trkpt>
      <trkpt lat="44.97222" lon="5.17104">
        <ele>438.02</ele>
        <time>2016-07-03T07:17:35Z</time>
      </trkpt>
      <trkpt lat="44.97221" lon="5.17133">
        <ele>437.06</ele>
        <time>2016-07-03T07:17:52Z</time>
      </trkpt>
      <trkpt lat="44.97219" lon="5.17159">
        <ele>435.13</ele>
        <time>2016-07-03T07:18:07Z</time>
      </trkpt>
      <trkpt lat="44.97218" lon="5.17168">
        <ele>434.65</ele>
        <time>2016-07-03T07:18:12Z</time>
      </trkpt>
      <trkpt lat="44.97218" lon="5.17177">
        <ele>434.65</ele>
        <time>2016-07-03T07:18:16Z</time>
      </trkpt>
      <trkpt lat="44.97215" lon="5.17205">
        <ele>433.21</ele>
        <time>2016-07-03T07:18:33Z</time>
      </trkpt>
      <trkpt lat="44.97215" lon="5.17232">
        <ele>431.29</ele>
        <time>2016-07-03T07:18:50Z</time>
      </trkpt>
      <trkpt lat="44.97208" lon="5.17254">
        <ele>428.4</ele>
        <time>2016-07-03T07:19:05Z</time>
      </trkpt>
      <trkpt lat="44.9721" lon="5.17263">
        <ele>425.04</ele>
        <time>2016-07-03T07:19:19Z</time>
      </trkpt>
      <trkpt lat="44.97208" lon="5.17283">
        <ele>426</ele>
        <time>2016-07-03T07:19:32Z</time>
      </trkpt>
      <trkpt lat="44.97205" lon="5.17289">
        <ele>426</ele>
        <time>2016-07-03T07:19:47Z</time>
      </trkpt>
      <trkpt lat="44.97203" lon="5.17294">
        <ele>426</ele>
        <time>2016-07-03T07:20:05Z</time>
      </trkpt>
      <trkpt lat="44.97199" lon="5.17297">
        <ele>426</ele>
        <time>2016-07-03T07:20:10Z</time>
      </trkpt>
      <trkpt lat="44.97191" lon="5.17313">
        <ele>426.96</ele>
        <time>2016-07-03T07:20:25Z</time>
      </trkpt>
      <trkpt lat="44.97186" lon="5.17317">
        <ele>427.44</ele>
        <time>2016-07-03T07:20:32Z</time>
      </trkpt>
      <trkpt lat="44.97175" lon="5.17322">
        <ele>428.4</ele>
        <time>2016-07-03T07:20:45Z</time>
      </trkpt>
      <trkpt lat="44.97169" lon="5.17331">
        <ele>428.4</ele>
        <time>2016-07-03T07:20:58Z</time>
      </trkpt>
      <trkpt lat="44.97164" lon="5.17347">
        <ele>431.29</ele>
        <time>2016-07-03T07:21:11Z</time>
      </trkpt>
      <trkpt lat="44.97156" lon="5.17356">
        <ele>432.73</ele>
        <time>2016-07-03T07:21:23Z</time>
      </trkpt>
      <trkpt lat="44.97152" lon="5.17358">
        <ele>432.73</ele>
        <time>2016-07-03T07:21:38Z</time>
      </trkpt>
      <trkpt lat="44.97149" lon="5.17363">
        <ele>432.25</ele>
        <time>2016-07-03T07:21:53Z</time>
      </trkpt>
      <trkpt lat="44.97147" lon="5.17366">
        <ele>432.25</ele>
        <time>2016-07-03T07:22:08Z</time>
      </trkpt>
      <trkpt lat="44.97144" lon="5.17369">
        <ele>432.73</ele>
        <time>2016-07-03T07:22:22Z</time>
      </trkpt>
      <trkpt lat="44.97142" lon="5.17368">
        <ele>432.25</ele>
        <time>2016-07-03T07:22:36Z</time>
      </trkpt>
      <trkpt lat="44.97135" lon="5.1737">
        <ele>433.69</ele>
        <time>2016-07-03T07:22:49Z</time>
      </trkpt>
      <trkpt lat="44.97131" lon="5.17366">
        <ele>433.21</ele>
        <time>2016-07-03T07:23:06Z</time>
      </trkpt>
      <trkpt lat="44.97129" lon="5.17366">
        <ele>433.21</ele>
        <time>2016-07-03T07:23:16Z</time>
      </trkpt>
      <trkpt lat="44.97128" lon="5.17379">
        <ele>434.17</ele>
        <time>2016-07-03T07:23:30Z</time>
      </trkpt>
      <trkpt lat="44.97124" lon="5.17383">
        <ele>435.13</ele>
        <time>2016-07-03T07:23:47Z</time>
      </trkpt>
      <trkpt lat="44.9712" lon="5.1738">
        <ele>436.58</ele>
        <time>2016-07-03T07:24:02Z</time>
      </trkpt>
      <trkpt lat="44.97116" lon="5.17381">
        <ele>437.06</ele>
        <time>2016-07-03T07:24:17Z</time>
      </trkpt>
      <trkpt lat="44.97113" lon="5.17381">
        <ele>437.54</ele>
        <time>2016-07-03T07:24:35Z</time>
      </trkpt>
      <trkpt lat="44.97111" lon="5.17382">
        <ele>436.58</ele>
        <time>2016-07-03T07:24:51Z</time>
      </trkpt>
      <trkpt lat="44.97105" lon="5.17378">
        <ele>438.5</ele>
        <time>2016-07-03T07:25:06Z</time>
      </trkpt>
      <trkpt lat="44.9711" lon="5.17377">
        <ele>439.46</ele>
        <time>2016-07-03T07:25:16Z</time>
      </trkpt>
      <trkpt lat="44.97111" lon="5.17379">
        <ele>437.06</ele>
        <time>2016-07-03T07:25:34Z</time>
      </trkpt>
      <trkpt lat="44.97104" lon="5.17387">
        <ele>436.58</ele>
        <time>2016-07-03T07:25:50Z</time>
      </trkpt>
      <trkpt lat="44.97103" lon="5.1739">
        <ele>437.54</ele>
        <time>2016-07-03T07:26:11Z</time>
      </trkpt>
      <trkpt lat="44.97102" lon="5.17384">
        <ele>437.54</ele>
        <time>2016-07-03T07:26:33Z</time>
      </trkpt>
      <trkpt lat="44.97101" lon="5.17387">
        <ele>439.46</ele>
        <time>2016-07-03T07:26:53Z</time>
      </trkpt>
      <trkpt lat="44.97097" lon="5.17386">
        <ele>440.42</ele>
        <time>2016-07-03T07:27:15Z</time>
      </trkpt>
      <trkpt lat="44.97095" lon="5.17387">
        <ele>440.9</ele>
        <time>2016-07-03T07:27:34Z</time>
      </trkpt>
      <trkpt lat="44.97093" lon="5.17381">
        <ele>442.34</ele>
        <time>2016-07-03T07:27:52Z</time>
      </trkpt>
      <trkpt lat="44.97091" lon="5.17382">
        <ele>442.82</ele>
        <time>2016-07-03T07:28:07Z</time>
      </trkpt>
      <trkpt lat="44.97087" lon="5.17372">
        <ele>443.79</ele>
        <time>2016-07-03T07:28:28Z</time>
      </trkpt>
      <trkpt lat="44.9709" lon="5.17378">
        <ele>443.31</ele>
        <time>2016-07-03T07:28:52Z</time>
      </trkpt>
      <trkpt lat="44.97088" lon="5.17371">
        <ele>444.75</ele>
        <time>2016-07-03T07:29:10Z</time>
      </trkpt>
      <trkpt lat="44.97083" lon="5.17371">
        <ele>444.27</ele>
        <time>2016-07-03T07:29:26Z</time>
      </trkpt>
      <trkpt lat="44.97078" lon="5.17364">
        <ele>446.19</ele>
        <time>2016-07-03T07:29:39Z</time>
      </trkpt>
      <trkpt lat="44.97065" lon="5.1735">
        <ele>445.71</ele>
        <time>2016-07-03T07:29:53Z</time>
      </trkpt>
      <trkpt lat="44.97063" lon="5.17349">
        <ele>445.71</ele>
        <time>2016-07-03T07:30:12Z</time>
      </trkpt>
      <trkpt lat="44.9706" lon="5.1735">
        <ele>444.27</ele>
        <time>2016-07-03T07:30:36Z</time>
      </trkpt>
      <trkpt lat="44.97058" lon="5.17354">
        <ele>444.27</ele>
        <time>2016-07-03T07:30:53Z</time>
      </trkpt>
      <trkpt lat="44.97056" lon="5.17345">
        <ele>445.71</ele>
        <time>2016-07-03T07:31:12Z</time>
      </trkpt>
      <trkpt lat="44.97054" lon="5.17353">
        <ele>444.75</ele>
        <time>2016-07-03T07:31:33Z</time>
      </trkpt>
      <trkpt lat="44.97055" lon="5.17359">
        <ele>443.79</ele>
        <time>2016-07-03T07:31:50Z</time>
      </trkpt>
      <trkpt lat="44.97052" lon="5.17362">
        <ele>444.27</ele>
        <time>2016-07-03T07:32:13Z</time>
      </trkpt>
      <trkpt lat="44.97049" lon="5.17361">
        <ele>445.23</ele>
        <time>2016-07-03T07:32:37Z</time>
      </trkpt>
      <trkpt lat="44.97047" lon="5.17361">
        <ele>446.67</ele>
        <time>2016-07-03T07:32:56Z</time>
      </trkpt>
      <trkpt lat="44.97047" lon="5.17358">
        <ele>444.75</ele>
        <time>2016-07-03T07:33:18Z</time>
      </trkpt>
      <trkpt lat="44.97039" lon="5.17354">
        <ele>445.71</ele>
        <time>2016-07-03T07:33:42Z</time>
      </trkpt>
      <trkpt lat="44.97042" lon="5.17348">
        <ele>446.67</ele>
        <time>2016-07-03T07:33:58Z</time>
      </trkpt>
      <trkpt lat="44.97039" lon="5.17347">
        <ele>448.59</ele>
        <time>2016-07-03T07:34:26Z</time>
      </trkpt>
      <trkpt lat="44.97037" lon="5.17349">
        <ele>450.52</ele>
        <time>2016-07-03T07:34:34Z</time>
      </trkpt>
      <trkpt lat="44.97035" lon="5.17351">
        <ele>452.44</ele>
        <time>2016-07-03T07:34:50Z</time>
      </trkpt>
      <trkpt lat="44.97032" lon="5.17341">
        <ele>454.84</ele>
        <time>2016-07-03T07:35:12Z</time>
      </trkpt>
      <trkpt lat="44.97034" lon="5.17346">
        <ele>456.28</ele>
        <time>2016-07-03T07:35:35Z</time>
      </trkpt>
      <trkpt lat="44.97031" lon="5.17339">
        <ele>458.21</ele>
        <time>2016-07-03T07:35:57Z</time>
      </trkpt>
      <trkpt lat="44.9703" lon="5.17341">
        <ele>460.13</ele>
        <time>2016-07-03T07:36:12Z</time>
      </trkpt>
      <trkpt lat="44.97029" lon="5.1734">
        <ele>461.09</ele>
        <time>2016-07-03T07:36:30Z</time>
      </trkpt>
      <trkpt lat="44.97027" lon="5.1734">
        <ele>461.57</ele>
        <time>2016-07-03T07:36:46Z</time>
      </trkpt>
      <trkpt lat="44.97025" lon="5.1733">
        <ele>460.61</ele>
        <time>2016-07-03T07:37:04Z</time>
      </trkpt>
      <trkpt lat="44.97027" lon="5.17332">
        <ele>460.61</ele>
        <time>2016-07-03T07:37:35Z</time>
      </trkpt>
      <trkpt lat="44.97024" lon="5.17339">
        <ele>460.61</ele>
        <time>2016-07-03T07:37:56Z</time>
      </trkpt>
      <trkpt lat="44.97026" lon="5.17327">
        <ele>460.13</ele>
        <time>2016-07-03T07:38:17Z</time>
      </trkpt>
      <trkpt lat="44.97027" lon="5.17328">
        <ele>460.13</ele>
        <time>2016-07-03T07:38:33Z</time>
      </trkpt>
      <trkpt lat="44.97023" lon="5.17336">
        <ele>460.13</ele>
        <time>2016-07-03T07:38:51Z</time>
      </trkpt>
      <trkpt lat="44.9702" lon="5.17331">
        <ele>461.09</ele>
        <time>2016-07-03T07:39:17Z</time>
      </trkpt>
      <trkpt lat="44.9702" lon="5.17338">
        <ele>462.53</ele>
        <time>2016-07-03T07:39:28Z</time>
      </trkpt>
      <trkpt lat="44.97018" lon="5.17329">
        <ele>464.45</ele>
        <time>2016-07-03T07:39:40Z</time>
      </trkpt>
      <trkpt lat="44.97018" lon="5.1734">
        <ele>466.38</ele>
        <time>2016-07-03T07:39:53Z</time>
      </trkpt>
      <trkpt lat="44.97017" lon="5.17325">
        <ele>467.34</ele>
        <time>2016-07-03T07:40:10Z</time>
      </trkpt>
      <trkpt lat="44.97015" lon="5.1732">
        <ele>468.3</ele>
        <time>2016-07-03T07:40:27Z</time>
      </trkpt>
      <trkpt lat="44.97014" lon="5.17328">
        <ele>468.3</ele>
        <time>2016-07-03T07:40:37Z</time>
      </trkpt>
      <trkpt lat="44.97012" lon="5.1733">
        <ele>469.26</ele>
        <time>2016-07-03T07:40:49Z</time>
      </trkpt>
      <trkpt lat="44.97011" lon="5.1733">
        <ele>470.22</ele>
        <time>2016-07-03T07:41:06Z</time>
      </trkpt>
      <trkpt lat="44.97012" lon="5.17332">
        <ele>471.18</ele>
        <time>2016-07-03T07:41:23Z</time>
      </trkpt>
      <trkpt lat="44.9701" lon="5.17339">
        <ele>471.66</ele>
        <time>2016-07-03T07:41:37Z</time>
      </trkpt>
      <trkpt lat="44.97012" lon="5.17331">
        <ele>471.66</ele>
        <time>2016-07-03T07:41:53Z</time>
      </trkpt>
      <trkpt lat="44.97009" lon="5.17334">
        <ele>473.11</ele>
        <time>2016-07-03T07:42:06Z</time>
      </trkpt>
      <trkpt lat="44.97009" lon="5.1734">
        <ele>472.63</ele>
        <time>2016-07-03T07:42:22Z</time>
      </trkpt>
      <trkpt lat="44.97009" lon="5.1734">
        <ele>472.63</ele>
        <time>2016-07-03T07:42:43Z</time>
      </trkpt>
      <trkpt lat="44.97007" lon="5.17343">
        <ele>472.14</ele>
        <time>2016-07-03T07:43:02Z</time>
      </trkpt>
      <trkpt lat="44.97006" lon="5.17335">
        <ele>473.11</ele>
        <time>2016-07-03T07:43:27Z</time>
      </trkpt>
      <trkpt lat="44.97007" lon="5.17343">
        <ele>474.55</ele>
        <time>2016-07-03T07:43:53Z</time>
      </trkpt>
      <trkpt lat="44.97007" lon="5.17337">
        <ele>474.07</ele>
        <time>2016-07-03T07:44:13Z</time>
      </trkpt>
      <trkpt lat="44.97005" lon="5.17347">
        <ele>474.07</ele>
        <time>2016-07-03T07:44:32Z</time>
      </trkpt>
      <trkpt lat="44.97006" lon="5.17344">
        <ele>474.07</ele>
        <time>2016-07-03T07:44:37Z</time>
      </trkpt>
      <trkpt lat="44.97007" lon="5.17335">
        <ele>474.07</ele>
        <time>2016-07-03T07:45:01Z</time>
      </trkpt>
      <trkpt lat="44.97003" lon="5.17337">
        <ele>474.55</ele>
        <time>2016-07-03T07:45:27Z</time>
      </trkpt>
      <trkpt lat="44.97001" lon="5.17333">
        <ele>475.03</ele>
        <time>2016-07-03T07:45:43Z</time>
      </trkpt>
      <trkpt lat="44.96999" lon="5.1734">
        <ele>475.51</ele>
        <time>2016-07-03T07:46:02Z</time>
      </trkpt>
      <trkpt lat="44.96998" lon="5.17344">
        <ele>475.99</ele>
        <time>2016-07-03T07:46:23Z</time>
      </trkpt>
      <trkpt lat="44.96999" lon="5.17348">
        <ele>476.95</ele>
        <time>2016-07-03T07:46:40Z</time>
      </trkpt>
      <trkpt lat="44.96997" lon="5.17353">
        <ele>477.43</ele>
        <time>2016-07-03T07:46:57Z</time>
      </trkpt>
      <trkpt lat="44.97001" lon="5.17348">
        <ele>477.43</ele>
        <time>2016-07-03T07:47:12Z</time>
      </trkpt>
      <trkpt lat="44.97" lon="5.17351">
        <ele>477.43</ele>
        <time>2016-07-03T07:47:30Z</time>
      </trkpt>
      <trkpt lat="44.96998" lon="5.1735">
        <ele>477.91</ele>
        <time>2016-07-03T07:47:44Z</time>
      </trkpt>
      <trkpt lat="44.96999" lon="5.17351">
        <ele>477.91</ele>
        <time>2016-07-03T07:48:06Z</time>
      </trkpt>
      <trkpt lat="44.97003" lon="5.17335">
        <ele>478.39</ele>
        <time>2016-07-03T07:48:23Z</time>
      </trkpt>
      <trkpt lat="44.97002" lon="5.17333">
        <ele>478.39</ele>
        <time>2016-07-03T07:48:44Z</time>
      </trkpt>
      <trkpt lat="44.97003" lon="5.17337">
        <ele>478.87</ele>
        <time>2016-07-03T07:48:59Z</time>
      </trkpt>
      <trkpt lat="44.97005" lon="5.17337">
        <ele>479.35</ele>
        <time>2016-07-03T07:49:22Z</time>
      </trkpt>
      <trkpt lat="44.97001" lon="5.17339">
        <ele>478.39</ele>
        <time>2016-07-03T07:49:41Z</time>
      </trkpt>
      <trkpt lat="44.97005" lon="5.17338">
        <ele>478.87</ele>
        <time>2016-07-03T07:50:03Z</time>
      </trkpt>
      <trkpt lat="44.97015" lon="5.1733">
        <ele>478.39</ele>
        <time>2016-07-03T07:50:36Z</time>
      </trkpt>
      <trkpt lat="44.97008" lon="5.17335">
        <ele>479.35</ele>
        <time>2016-07-03T07:51:04Z</time>
      </trkpt>
      <trkpt lat="44.97016" lon="5.17328">
        <ele>479.84</ele>
        <time>2016-07-03T07:51:42Z</time>
      </trkpt>
      <trkpt lat="44.97015" lon="5.17326">
        <ele>480.32</ele>
        <time>2016-07-03T07:52:07Z</time>
      </trkpt>
      <trkpt lat="44.97015" lon="5.1733">
        <ele>481.28</ele>
        <time>2016-07-03T07:52:35Z</time>
      </trkpt>
      <trkpt lat="44.9701" lon="5.17333">
        <ele>481.76</ele>
        <time>2016-07-03T07:53:07Z</time>
      </trkpt>
      <trkpt lat="44.97007" lon="5.17334">
        <ele>482.72</ele>
        <time>2016-07-03T07:53:38Z</time>
      </trkpt>
      <trkpt lat="44.97002" lon="5.1734">
        <ele>484.16</ele>
        <time>2016-07-03T07:54:02Z</time>
      </trkpt>
      <trkpt lat="44.97001" lon="5.1734">
        <ele>484.16</ele>
        <time>2016-07-03T07:54:17Z</time>
      </trkpt>
      <trkpt lat="44.97003" lon="5.17339">
        <ele>485.6</ele>
        <time>2016-07-03T07:54:31Z</time>
      </trkpt>
      <trkpt lat="44.97003" lon="5.17341">
        <ele>486.08</ele>
        <time>2016-07-03T07:54:52Z</time>
      </trkpt>
      <trkpt lat="44.97003" lon="5.1734">
        <ele>487.05</ele>
        <time>2016-07-03T07:55:06Z</time>
      </trkpt>
      <trkpt lat="44.97006" lon="5.17339">
        <ele>486.56</ele>
        <time>2016-07-03T07:55:26Z</time>
      </trkpt>
      <trkpt lat="44.97002" lon="5.1734">
        <ele>488.01</ele>
        <time>2016-07-03T07:55:39Z</time>
      </trkpt>
      <trkpt lat="44.97001" lon="5.17341">
        <ele>488.49</ele>
        <time>2016-07-03T07:55:59Z</time>
      </trkpt>
      <trkpt lat="44.96997" lon="5.17343">
        <ele>488.01</ele>
        <time>2016-07-03T07:56:16Z</time>
      </trkpt>
      <trkpt lat="44.97" lon="5.1734">
        <ele>487.53</ele>
        <time>2016-07-03T07:56:29Z</time>
      </trkpt>
      <trkpt lat="44.97005" lon="5.1733">
        <ele>487.05</ele>
        <time>2016-07-03T07:56:58Z</time>
      </trkpt>
      <trkpt lat="44.97005" lon="5.1733">
        <ele>486.56</ele>
        <time>2016-07-03T07:57:27Z</time>
      </trkpt>
      <trkpt lat="44.97004" lon="5.17338">
        <ele>487.53</ele>
        <time>2016-07-03T07:58:00Z</time>
      </trkpt>
      <trkpt lat="44.97" lon="5.17335">
        <ele>488.01</ele>
        <time>2016-07-03T07:58:17Z</time>
      </trkpt>
      <trkpt lat="44.96999" lon="5.17334">
        <ele>488.49</ele>
        <time>2016-07-03T07:58:51Z</time>
      </trkpt>
      <trkpt lat="44.97001" lon="5.17337">
        <ele>488.49</ele>
        <time>2016-07-03T07:59:28Z</time>
      </trkpt>
      <trkpt lat="44.97001" lon="5.17338">
        <ele>488.97</ele>
        <time>2016-07-03T07:59:57Z</time>
      </trkpt>
      <trkpt lat="44.97005" lon="5.17334">
        <ele>488.01</ele>
        <time>2016-07-03T08:00:25Z</time>
      </trkpt>
      <trkpt lat="44.97007" lon="5.17331">
        <ele>488.49</ele>
        <time>2016-07-03T08:00:52Z</time>
      </trkpt>
      <trkpt lat="44.96997" lon="5.17347">
        <ele>490.41</ele>
        <time>2016-07-03T08:01:22Z</time>
      </trkpt>
      <trkpt lat="44.97" lon="5.17351">
        <ele>489.93</ele>
        <time>2016-07-03T08:01:44Z</time>
      </trkpt>
      <trkpt lat="44.96999" lon="5.17356">
        <ele>490.89</ele>
        <time>2016-07-03T08:02:14Z</time>
      </trkpt>
      <trkpt lat="44.97001" lon="5.17357">
        <ele>490.89</ele>
        <time>2016-07-03T08:02:38Z</time>
      </trkpt>
      <trkpt lat="44.97003" lon="5.17359">
        <ele>493.29</ele>
        <time>2016-07-03T08:02:52Z</time>
      </trkpt>
      <trkpt lat="44.97004" lon="5.17361">
        <ele>495.7</ele>
        <time>2016-07-03T08:03:06Z</time>
      </trkpt>
      <trkpt lat="44.97005" lon="5.17367">
        <ele>498.58</ele>
        <time>2016-07-03T08:03:23Z</time>
      </trkpt>
      <trkpt lat="44.97007" lon="5.17369">
        <ele>499.06</ele>
        <time>2016-07-03T08:03:34Z</time>
      </trkpt>
      <trkpt lat="44.97004" lon="5.17378">
        <ele>501.46</ele>
        <time>2016-07-03T08:03:54Z</time>
      </trkpt>
      <trkpt lat="44.97003" lon="5.17388">
        <ele>502.91</ele>
        <time>2016-07-03T08:04:07Z</time>
      </trkpt>
      <trkpt lat="44.97003" lon="5.17387">
        <ele>501.95</ele>
        <time>2016-07-03T08:04:23Z</time>
      </trkpt>
      <trkpt lat="44.97004" lon="5.17384">
        <ele>502.43</ele>
        <time>2016-07-03T08:04:46Z</time>
      </trkpt>
      <trkpt lat="44.97005" lon="5.17377">
        <ele>501.46</ele>
        <time>2016-07-03T08:05:10Z</time>
      </trkpt>
      <trkpt lat="44.97004" lon="5.17378">
        <ele>501.95</ele>
        <time>2016-07-03T08:05:25Z</time>
      </trkpt>
      <trkpt lat="44.97006" lon="5.17385">
        <ele>504.35</ele>
        <time>2016-07-03T08:05:37Z</time>
      </trkpt>
      <trkpt lat="44.97009" lon="5.17384">
        <ele>503.87</ele>
        <time>2016-07-03T08:05:54Z</time>
      </trkpt>
      <trkpt lat="44.97018" lon="5.17389">
        <ele>507.71</ele>
        <time>2016-07-03T08:06:11Z</time>
      </trkpt>
      <trkpt lat="44.9702" lon="5.17393">
        <ele>510.6</ele>
        <time>2016-07-03T08:06:22Z</time>
      </trkpt>
      <trkpt lat="44.97024" lon="5.17396">
        <ele>513.96</ele>
        <time>2016-07-03T08:06:35Z</time>
      </trkpt>
      <trkpt lat="44.97025" lon="5.17396">
        <ele>514.44</ele>
        <time>2016-07-03T08:06:36Z</time>
      </trkpt>
      <trkpt lat="44.97034" lon="5.17393">
        <ele>515.88</ele>
        <time>2016-07-03T08:06:51Z</time>
      </trkpt>
      <trkpt lat="44.97046" lon="5.17395">
        <ele>519.25</ele>
        <time>2016-07-03T08:07:08Z</time>
      </trkpt>
      <trkpt lat="44.97048" lon="5.17403">
        <ele>519.25</ele>
        <time>2016-07-03T08:07:25Z</time>
      </trkpt>
      <trkpt lat="44.97049" lon="5.17397">
        <ele>518.77</ele>
        <time>2016-07-03T08:07:39Z</time>
      </trkpt>
      <trkpt lat="44.97051" lon="5.17396">
        <ele>518.77</ele>
        <time>2016-07-03T08:07:55Z</time>
      </trkpt>
      <trkpt lat="44.97049" lon="5.17398">
        <ele>517.81</ele>
        <time>2016-07-03T08:08:12Z</time>
      </trkpt>
      <trkpt lat="44.97049" lon="5.17399">
        <ele>517.81</ele>
        <time>2016-07-03T08:08:26Z</time>
      </trkpt>
      <trkpt lat="44.97048" lon="5.17397">
        <ele>517.81</ele>
        <time>2016-07-03T08:08:42Z</time>
      </trkpt>
      <trkpt lat="44.97047" lon="5.17394">
        <ele>517.81</ele>
        <time>2016-07-03T08:08:55Z</time>
      </trkpt>
      <trkpt lat="44.97049" lon="5.17394">
        <ele>518.29</ele>
        <time>2016-07-03T08:09:09Z</time>
      </trkpt>
      <trkpt lat="44.97048" lon="5.17398">
        <ele>517.81</ele>
        <time>2016-07-03T08:09:33Z</time>
      </trkpt>
      <trkpt lat="44.97048" lon="5.17396">
        <ele>516.85</ele>
        <time>2016-07-03T08:09:59Z</time>
      </trkpt>
      <trkpt lat="44.97048" lon="5.17396">
        <ele>516.37</ele>
        <time>2016-07-03T08:10:10Z</time>
      </trkpt>
      <trkpt lat="44.97047" lon="5.17401">
        <ele>514.92</ele>
        <time>2016-07-03T08:10:24Z</time>
      </trkpt>
      <trkpt lat="44.9705" lon="5.17408">
        <ele>513.96</ele>
        <time>2016-07-03T08:10:50Z</time>
      </trkpt>
      <trkpt lat="44.97052" lon="5.17408">
        <ele>513.48</ele>
        <time>2016-07-03T08:11:07Z</time>
      </trkpt>
      <trkpt lat="44.97052" lon="5.1741">
        <ele>513.48</ele>
        <time>2016-07-03T08:11:08Z</time>
      </trkpt>
      <trkpt lat="44.97053" lon="5.17412">
        <ele>509.64</ele>
        <time>2016-07-03T08:11:16Z</time>
      </trkpt>
      <trkpt lat="44.97055" lon="5.17413">
        <ele>507.71</ele>
        <time>2016-07-03T08:11:38Z</time>
      </trkpt>
      <trkpt lat="44.97058" lon="5.17415">
        <ele>507.71</ele>
        <time>2016-07-03T08:11:56Z</time>
      </trkpt>
      <trkpt lat="44.97061" lon="5.17416">
        <ele>510.6</ele>
        <time>2016-07-03T08:12:08Z</time>
      </trkpt>
      <trkpt lat="44.97061" lon="5.17417">
        <ele>511.08</ele>
        <time>2016-07-03T08:12:26Z</time>
      </trkpt>
      <trkpt lat="44.97061" lon="5.17418">
        <ele>509.64</ele>
        <time>2016-07-03T08:12:53Z</time>
      </trkpt>
      <trkpt lat="44.97062" lon="5.1742">
        <ele>510.12</ele>
        <time>2016-07-03T08:13:13Z</time>
      </trkpt>
      <trkpt lat="44.97064" lon="5.17423">
        <ele>507.23</ele>
        <time>2016-07-03T08:13:31Z</time>
      </trkpt>
      <trkpt lat="44.97066" lon="5.17425">
        <ele>508.67</ele>
        <time>2016-07-03T08:13:35Z</time>
      </trkpt>
      <trkpt lat="44.97067" lon="5.17428">
        <ele>511.08</ele>
        <time>2016-07-03T08:13:55Z</time>
      </trkpt>
      <trkpt lat="44.97068" lon="5.17432">
        <ele>512.52</ele>
        <time>2016-07-03T08:14:14Z</time>
      </trkpt>
      <trkpt lat="44.97066" lon="5.17441">
        <ele>515.4</ele>
        <time>2016-07-03T08:14:33Z</time>
      </trkpt>
      <trkpt lat="44.97067" lon="5.17446">
        <ele>517.33</ele>
        <time>2016-07-03T08:14:51Z</time>
      </trkpt>
      <trkpt lat="44.97062" lon="5.17451">
        <ele>518.29</ele>
        <time>2016-07-03T08:15:06Z</time>
      </trkpt>
      <trkpt lat="44.97065" lon="5.17457">
        <ele>520.21</ele>
        <time>2016-07-03T08:15:23Z</time>
      </trkpt>
      <trkpt lat="44.97066" lon="5.17456">
        <ele>521.65</ele>
        <time>2016-07-03T08:15:40Z</time>
      </trkpt>
      <trkpt lat="44.97063" lon="5.17461">
        <ele>521.65</ele>
        <time>2016-07-03T08:16:03Z</time>
      </trkpt>
      <trkpt lat="44.97058" lon="5.17461">
        <ele>522.61</ele>
        <time>2016-07-03T08:16:18Z</time>
      </trkpt>
      <trkpt lat="44.97054" lon="5.17468">
        <ele>523.58</ele>
        <time>2016-07-03T08:16:36Z</time>
      </trkpt>
      <trkpt lat="44.97048" lon="5.1747">
        <ele>525.02</ele>
        <time>2016-07-03T08:17:00Z</time>
      </trkpt>
      <trkpt lat="44.97057" lon="5.1748">
        <ele>525.98</ele>
        <time>2016-07-03T08:17:19Z</time>
      </trkpt>
      <trkpt lat="44.97055" lon="5.17484">
        <ele>528.86</ele>
        <time>2016-07-03T08:17:40Z</time>
      </trkpt>
      <trkpt lat="44.9705" lon="5.17489">
        <ele>530.79</ele>
        <time>2016-07-03T08:17:56Z</time>
      </trkpt>
      <trkpt lat="44.97049" lon="5.17494">
        <ele>533.19</ele>
        <time>2016-07-03T08:18:10Z</time>
      </trkpt>
      <trkpt lat="44.97054" lon="5.17499">
        <ele>535.59</ele>
        <time>2016-07-03T08:18:28Z</time>
      </trkpt>
      <trkpt lat="44.97055" lon="5.17505">
        <ele>537.99</ele>
        <time>2016-07-03T08:18:50Z</time>
      </trkpt>
      <trkpt lat="44.97057" lon="5.17502">
        <ele>539.44</ele>
        <time>2016-07-03T08:19:07Z</time>
      </trkpt>
      <trkpt lat="44.97047" lon="5.17507">
        <ele>539.92</ele>
        <time>2016-07-03T08:19:28Z</time>
      </trkpt>
      <trkpt lat="44.9705" lon="5.17514">
        <ele>541.84</ele>
        <time>2016-07-03T08:19:42Z</time>
      </trkpt>
      <trkpt lat="44.9706" lon="5.17517">
        <ele>544.24</ele>
        <time>2016-07-03T08:19:59Z</time>
      </trkpt>
      <trkpt lat="44.97065" lon="5.17521">
        <ele>547.61</ele>
        <time>2016-07-03T08:20:16Z</time>
      </trkpt>
      <trkpt lat="44.97064" lon="5.17526">
        <ele>549.53</ele>
        <time>2016-07-03T08:20:35Z</time>
      </trkpt>
      <trkpt lat="44.97066" lon="5.17527">
        <ele>550.49</ele>
        <time>2016-07-03T08:20:48Z</time>
      </trkpt>
      <trkpt lat="44.97065" lon="5.17529">
        <ele>550.49</ele>
        <time>2016-07-03T08:21:17Z</time>
      </trkpt>
      <trkpt lat="44.97063" lon="5.17532">
        <ele>549.53</ele>
        <time>2016-07-03T08:21:47Z</time>
      </trkpt>
      <trkpt lat="44.97069" lon="5.1753">
        <ele>549.53</ele>
        <time>2016-07-03T08:22:14Z</time>
      </trkpt>
      <trkpt lat="44.97067" lon="5.17532">
        <ele>549.53</ele>
        <time>2016-07-03T08:22:38Z</time>
      </trkpt>
      <trkpt lat="44.9707" lon="5.17531">
        <ele>550.49</ele>
        <time>2016-07-03T08:22:58Z</time>
      </trkpt>
      <trkpt lat="44.97071" lon="5.17533">
        <ele>553.38</ele>
        <time>2016-07-03T08:23:09Z</time>
      </trkpt>
      <trkpt lat="44.97065" lon="5.17535">
        <ele>556.74</ele>
        <time>2016-07-03T08:23:21Z</time>
      </trkpt>
      <trkpt lat="44.97065" lon="5.17536">
        <ele>556.74</ele>
        <time>2016-07-03T08:23:22Z</time>
      </trkpt>
      <trkpt lat="44.97071" lon="5.17542">
        <ele>558.18</ele>
        <time>2016-07-03T08:23:38Z</time>
      </trkpt>
      <trkpt lat="44.97071" lon="5.17546">
        <ele>559.62</ele>
        <time>2016-07-03T08:23:51Z</time>
      </trkpt>
      <trkpt lat="44.97073" lon="5.17543">
        <ele>559.62</ele>
        <time>2016-07-03T08:24:16Z</time>
      </trkpt>
      <trkpt lat="44.97072" lon="5.17546">
        <ele>558.66</ele>
        <time>2016-07-03T08:24:42Z</time>
      </trkpt>
      <trkpt lat="44.97073" lon="5.17545">
        <ele>558.18</ele>
        <time>2016-07-03T08:25:14Z</time>
      </trkpt>
      <trkpt lat="44.97074" lon="5.17544">
        <ele>558.66</ele>
        <time>2016-07-03T08:25:35Z</time>
      </trkpt>
      <trkpt lat="44.97074" lon="5.17544">
        <ele>558.66</ele>
        <time>2016-07-03T08:26:00Z</time>
      </trkpt>
      <trkpt lat="44.97072" lon="5.17549">
        <ele>558.18</ele>
        <time>2016-07-03T08:26:28Z</time>
      </trkpt>
      <trkpt lat="44.97073" lon="5.17551">
        <ele>560.11</ele>
        <time>2016-07-03T08:26:48Z</time>
      </trkpt>
      <trkpt lat="44.9707" lon="5.17552">
        <ele>562.51</ele>
        <time>2016-07-03T08:27:01Z</time>
      </trkpt>
      <trkpt lat="44.97071" lon="5.17554">
        <ele>564.43</ele>
        <time>2016-07-03T08:27:14Z</time>
      </trkpt>
      <trkpt lat="44.97074" lon="5.1756">
        <ele>567.8</ele>
        <time>2016-07-03T08:27:29Z</time>
      </trkpt>
      <trkpt lat="44.9708" lon="5.17563">
        <ele>569.24</ele>
        <time>2016-07-03T08:27:47Z</time>
      </trkpt>
      <trkpt lat="44.97079" lon="5.17569">
        <ele>571.64</ele>
        <time>2016-07-03T08:28:04Z</time>
      </trkpt>
      <trkpt lat="44.97084" lon="5.17573">
        <ele>573.08</ele>
        <time>2016-07-03T08:28:20Z</time>
      </trkpt>
      <trkpt lat="44.97094" lon="5.17573">
        <ele>573.08</ele>
        <time>2016-07-03T08:28:50Z</time>
      </trkpt>
      <trkpt lat="44.97099" lon="5.17571">
        <ele>575.97</ele>
        <time>2016-07-03T08:29:10Z</time>
      </trkpt>
      <trkpt lat="44.97096" lon="5.17574">
        <ele>575.49</ele>
        <time>2016-07-03T08:29:39Z</time>
      </trkpt>
      <trkpt lat="44.971" lon="5.17568">
        <ele>575.01</ele>
        <time>2016-07-03T08:30:02Z</time>
      </trkpt>
      <trkpt lat="44.97104" lon="5.17567">
        <ele>574.53</ele>
        <time>2016-07-03T08:30:27Z</time>
      </trkpt>
      <trkpt lat="44.97107" lon="5.17567">
        <ele>573.56</ele>
        <time>2016-07-03T08:30:56Z</time>
      </trkpt>
      <trkpt lat="44.97108" lon="5.17563">
        <ele>572.12</ele>
        <time>2016-07-03T08:31:13Z</time>
      </trkpt>
      <trkpt lat="44.97106" lon="5.17561">
        <ele>572.12</ele>
        <time>2016-07-03T08:31:28Z</time>
      </trkpt>
      <trkpt lat="44.97106" lon="5.17558">
        <ele>571.64</ele>
        <time>2016-07-03T08:31:48Z</time>
      </trkpt>
      <trkpt lat="44.97106" lon="5.17554">
        <ele>570.2</ele>
        <time>2016-07-03T08:32:02Z</time>
      </trkpt>
      <trkpt lat="44.97103" lon="5.17558">
        <ele>570.2</ele>
        <time>2016-07-03T08:32:21Z</time>
      </trkpt>
      <trkpt lat="44.97103" lon="5.17556">
        <ele>571.64</ele>
        <time>2016-07-03T08:32:37Z</time>
      </trkpt>
      <trkpt lat="44.97103" lon="5.17551">
        <ele>572.6</ele>
        <time>2016-07-03T08:32:54Z</time>
      </trkpt>
      <trkpt lat="44.97106" lon="5.17546">
        <ele>574.53</ele>
        <time>2016-07-03T08:33:04Z</time>
      </trkpt>
      <trkpt lat="44.97107" lon="5.17541">
        <ele>574.53</ele>
        <time>2016-07-03T08:33:23Z</time>
      </trkpt>
      <trkpt lat="44.97108" lon="5.17536">
        <ele>575.49</ele>
        <time>2016-07-03T08:33:38Z</time>
      </trkpt>
      <trkpt lat="44.97109" lon="5.17531">
        <ele>577.89</ele>
        <time>2016-07-03T08:33:54Z</time>
      </trkpt>
      <trkpt lat="44.9711" lon="5.17524">
        <ele>579.33</ele>
        <time>2016-07-03T08:34:09Z</time>
      </trkpt>
      <trkpt lat="44.97112" lon="5.17526">
        <ele>580.77</ele>
        <time>2016-07-03T08:34:24Z</time>
      </trkpt>
      <trkpt lat="44.97111" lon="5.17519">
        <ele>581.73</ele>
        <time>2016-07-03T08:34:39Z</time>
      </trkpt>
      <trkpt lat="44.97114" lon="5.17517">
        <ele>584.62</ele>
        <time>2016-07-03T08:34:49Z</time>
      </trkpt>
      <trkpt lat="44.97114" lon="5.17516">
        <ele>585.58</ele>
        <time>2016-07-03T08:34:52Z</time>
      </trkpt>
      <trkpt lat="44.97114" lon="5.17512">
        <ele>587.02</ele>
        <time>2016-07-03T08:35:04Z</time>
      </trkpt>
      <trkpt lat="44.97116" lon="5.1751">
        <ele>589.91</ele>
        <time>2016-07-03T08:35:22Z</time>
      </trkpt>
      <trkpt lat="44.97116" lon="5.17506">
        <ele>591.35</ele>
        <time>2016-07-03T08:35:33Z</time>
      </trkpt>
      <trkpt lat="44.97115" lon="5.17502">
        <ele>594.23</ele>
        <time>2016-07-03T08:35:48Z</time>
      </trkpt>
      <trkpt lat="44.97117" lon="5.175">
        <ele>595.67</ele>
        <time>2016-07-03T08:36:01Z</time>
      </trkpt>
      <trkpt lat="44.97116" lon="5.17499">
        <ele>596.64</ele>
        <time>2016-07-03T08:36:05Z</time>
      </trkpt>
      <trkpt lat="44.97115" lon="5.17494">
        <ele>598.56</ele>
        <time>2016-07-03T08:36:19Z</time>
      </trkpt>
      <trkpt lat="44.97113" lon="5.17486">
        <ele>600.96</ele>
        <time>2016-07-03T08:36:35Z</time>
      </trkpt>
      <trkpt lat="44.97102" lon="5.17479">
        <ele>604.33</ele>
        <time>2016-07-03T08:36:51Z</time>
      </trkpt>
      <trkpt lat="44.97104" lon="5.17473">
        <ele>604.81</ele>
        <time>2016-07-03T08:37:09Z</time>
      </trkpt>
      <trkpt lat="44.97104" lon="5.17472">
        <ele>605.77</ele>
        <time>2016-07-03T08:37:23Z</time>
      </trkpt>
      <trkpt lat="44.97101" lon="5.17477">
        <ele>605.29</ele>
        <time>2016-07-03T08:37:46Z</time>
      </trkpt>
      <trkpt lat="44.971" lon="5.17475">
        <ele>605.29</ele>
        <time>2016-07-03T08:38:14Z</time>
      </trkpt>
      <trkpt lat="44.971" lon="5.17479">
        <ele>605.29</ele>
        <time>2016-07-03T08:38:47Z</time>
      </trkpt>
      <trkpt lat="44.971" lon="5.17484">
        <ele>604.81</ele>
        <time>2016-07-03T08:39:16Z</time>
      </trkpt>
      <trkpt lat="44.97105" lon="5.17486">
        <ele>605.29</ele>
        <time>2016-07-03T08:39:34Z</time>
      </trkpt>
      <trkpt lat="44.97108" lon="5.17479">
        <ele>604.33</ele>
        <time>2016-07-03T08:39:55Z</time>
      </trkpt>
      <trkpt lat="44.97107" lon="5.17484">
        <ele>604.81</ele>
        <time>2016-07-03T08:40:20Z</time>
      </trkpt>
      <trkpt lat="44.97104" lon="5.1748">
        <ele>604.33</ele>
        <time>2016-07-03T08:40:41Z</time>
      </trkpt>
      <trkpt lat="44.97109" lon="5.1748">
        <ele>604.33</ele>
        <time>2016-07-03T08:41:14Z</time>
      </trkpt>
      <trkpt lat="44.97109" lon="5.17478">
        <ele>603.85</ele>
        <time>2016-07-03T08:41:36Z</time>
      </trkpt>
      <trkpt lat="44.97109" lon="5.17478">
        <ele>605.29</ele>
        <time>2016-07-03T08:42:07Z</time>
      </trkpt>
      <trkpt lat="44.97101" lon="5.17481">
        <ele>605.29</ele>
        <time>2016-07-03T08:42:13Z</time>
      </trkpt>
      <trkpt lat="44.97107" lon="5.17473">
        <ele>605.29</ele>
        <time>2016-07-03T08:42:41Z</time>
      </trkpt>
      <trkpt lat="44.97108" lon="5.17472">
        <ele>605.77</ele>
        <time>2016-07-03T08:43:00Z</time>
      </trkpt>
      <trkpt lat="44.97112" lon="5.17474">
        <ele>605.77</ele>
        <time>2016-07-03T08:43:33Z</time>
      </trkpt>
      <trkpt lat="44.97113" lon="5.17477">
        <ele>606.73</ele>
        <time>2016-07-03T08:43:54Z</time>
      </trkpt>
      <trkpt lat="44.9712" lon="5.1748">
        <ele>605.77</ele>
        <time>2016-07-03T08:44:11Z</time>
      </trkpt>
      <trkpt lat="44.97125" lon="5.17481">
        <ele>605.29</ele>
        <time>2016-07-03T08:44:28Z</time>
      </trkpt>
      <trkpt lat="44.97126" lon="5.17477">
        <ele>605.77</ele>
        <time>2016-07-03T08:45:01Z</time>
      </trkpt>
      <trkpt lat="44.97127" lon="5.17478">
        <ele>605.29</ele>
        <time>2016-07-03T08:45:28Z</time>
      </trkpt>
      <trkpt lat="44.97133" lon="5.17479">
        <ele>605.29</ele>
        <time>2016-07-03T08:45:45Z</time>
      </trkpt>
      <trkpt lat="44.97141" lon="5.1748">
        <ele>607.69</ele>
        <time>2016-07-03T08:46:02Z</time>
      </trkpt>
      <trkpt lat="44.97147" lon="5.17472">
        <ele>607.21</ele>
        <time>2016-07-03T08:46:30Z</time>
      </trkpt>
      <trkpt lat="44.97146" lon="5.17475">
        <ele>606.73</ele>
        <time>2016-07-03T08:46:58Z</time>
      </trkpt>
      <trkpt lat="44.97144" lon="5.17467">
        <ele>603.36</ele>
        <time>2016-07-03T08:47:21Z</time>
      </trkpt>
      <trkpt lat="44.97147" lon="5.17461">
        <ele>600.48</ele>
        <time>2016-07-03T08:47:37Z</time>
      </trkpt>
      <trkpt lat="44.97151" lon="5.17459">
        <ele>598.08</ele>
        <time>2016-07-03T08:47:54Z</time>
      </trkpt>
      <trkpt lat="44.97154" lon="5.17459">
        <ele>600</ele>
        <time>2016-07-03T08:48:18Z</time>
      </trkpt>
      <trkpt lat="44.97153" lon="5.17461">
        <ele>601.44</ele>
        <time>2016-07-03T08:48:42Z</time>
      </trkpt>
      <trkpt lat="44.97152" lon="5.1746">
        <ele>602.88</ele>
        <time>2016-07-03T08:49:03Z</time>
      </trkpt>
      <trkpt lat="44.97154" lon="5.17462">
        <ele>602.88</ele>
        <time>2016-07-03T08:49:22Z</time>
      </trkpt>
      <trkpt lat="44.9715" lon="5.17457">
        <ele>603.36</ele>
        <time>2016-07-03T08:49:48Z</time>
      </trkpt>
      <trkpt lat="44.9715" lon="5.17463">
        <ele>601.92</ele>
        <time>2016-07-03T08:50:23Z</time>
      </trkpt>
      <trkpt lat="44.97152" lon="5.17458">
        <ele>604.81</ele>
        <time>2016-07-03T08:50:45Z</time>
      </trkpt>
      <trkpt lat="44.97152" lon="5.17459">
        <ele>607.21</ele>
        <time>2016-07-03T08:51:02Z</time>
      </trkpt>
      <trkpt lat="44.97148" lon="5.17452">
        <ele>608.17</ele>
        <time>2016-07-03T08:51:22Z</time>
      </trkpt>
      <trkpt lat="44.97152" lon="5.17457">
        <ele>609.13</ele>
        <time>2016-07-03T08:51:40Z</time>
      </trkpt>
      <trkpt lat="44.97146" lon="5.17454">
        <ele>610.09</ele>
        <time>2016-07-03T08:52:03Z</time>
      </trkpt>
      <trkpt lat="44.97149" lon="5.17457">
        <ele>609.13</ele>
        <time>2016-07-03T08:52:34Z</time>
      </trkpt>
      <trkpt lat="44.97148" lon="5.17459">
        <ele>609.61</ele>
        <time>2016-07-03T08:52:57Z</time>
      </trkpt>
      <trkpt lat="44.97145" lon="5.17456">
        <ele>608.17</ele>
        <time>2016-07-03T08:53:16Z</time>
      </trkpt>
      <trkpt lat="44.97149" lon="5.17455">
        <ele>610.09</ele>
        <time>2016-07-03T08:53:37Z</time>
      </trkpt>
      <trkpt lat="44.97153" lon="5.17454">
        <ele>612.98</ele>
        <time>2016-07-03T08:53:56Z</time>
      </trkpt>
      <trkpt lat="44.97164" lon="5.17475">
        <ele>614.42</ele>
        <time>2016-07-03T08:54:19Z</time>
      </trkpt>
      <trkpt lat="44.97166" lon="5.17472">
        <ele>614.9</ele>
        <time>2016-07-03T08:54:38Z</time>
      </trkpt>
      <trkpt lat="44.97166" lon="5.17475">
        <ele>613.94</ele>
        <time>2016-07-03T08:55:04Z</time>
      </trkpt>
      <trkpt lat="44.97167" lon="5.17476">
        <ele>616.82</ele>
        <time>2016-07-03T08:55:30Z</time>
      </trkpt>
      <trkpt lat="44.97171" lon="5.17474">
        <ele>617.78</ele>
        <time>2016-07-03T08:55:49Z</time>
      </trkpt>
      <trkpt lat="44.9717" lon="5.1748">
        <ele>618.75</ele>
        <time>2016-07-03T08:56:09Z</time>
      </trkpt>
      <trkpt lat="44.97165" lon="5.17477">
        <ele>619.23</ele>
        <time>2016-07-03T08:56:37Z</time>
      </trkpt>
      <trkpt lat="44.97173" lon="5.17472">
        <ele>619.23</ele>
        <time>2016-07-03T08:57:01Z</time>
      </trkpt>
      <trkpt lat="44.9717" lon="5.17476">
        <ele>618.75</ele>
        <time>2016-07-03T08:57:23Z</time>
      </trkpt>
      <trkpt lat="44.97173" lon="5.1747">
        <ele>619.23</ele>
        <time>2016-07-03T08:57:44Z</time>
      </trkpt>
      <trkpt lat="44.97174" lon="5.17475">
        <ele>620.19</ele>
        <time>2016-07-03T08:58:04Z</time>
      </trkpt>
      <trkpt lat="44.97174" lon="5.1748">
        <ele>622.59</ele>
        <time>2016-07-03T08:58:26Z</time>
      </trkpt>
      <trkpt lat="44.97173" lon="5.17479">
        <ele>623.07</ele>
        <time>2016-07-03T08:58:50Z</time>
      </trkpt>
      <trkpt lat="44.97177" lon="5.17477">
        <ele>624.99</ele>
        <time>2016-07-03T08:59:04Z</time>
      </trkpt>
      <trkpt lat="44.97178" lon="5.17476">
        <ele>624.03</ele>
        <time>2016-07-03T08:59:22Z</time>
      </trkpt>
      <trkpt lat="44.97178" lon="5.17476">
        <ele>624.03</ele>
        <time>2016-07-03T08:59:41Z</time>
      </trkpt>
      <trkpt lat="44.9718" lon="5.17476">
        <ele>624.03</ele>
        <time>2016-07-03T09:00:05Z</time>
      </trkpt>
      <trkpt lat="44.97181" lon="5.17476">
        <ele>623.55</ele>
        <time>2016-07-03T09:00:27Z</time>
      </trkpt>
      <trkpt lat="44.97181" lon="5.17471">
        <ele>624.51</ele>
        <time>2016-07-03T09:00:53Z</time>
      </trkpt>
      <trkpt lat="44.97181" lon="5.17468">
        <ele>625.47</ele>
        <time>2016-07-03T09:01:06Z</time>
      </trkpt>
      <trkpt lat="44.97178" lon="5.17464">
        <ele>624.99</ele>
        <time>2016-07-03T09:01:20Z</time>
      </trkpt>
      <trkpt lat="44.97173" lon="5.17462">
        <ele>626.92</ele>
        <time>2016-07-03T09:01:37Z</time>
      </trkpt>
      <trkpt lat="44.97167" lon="5.17466">
        <ele>627.4</ele>
        <time>2016-07-03T09:01:53Z</time>
      </trkpt>
      <trkpt lat="44.97166" lon="5.17466">
        <ele>630.76</ele>
        <time>2016-07-03T09:02:07Z</time>
      </trkpt>
      <trkpt lat="44.97164" lon="5.1747">
        <ele>632.68</ele>
        <time>2016-07-03T09:02:24Z</time>
      </trkpt>
      <trkpt lat="44.97166" lon="5.17473">
        <ele>632.2</ele>
        <time>2016-07-03T09:02:42Z</time>
      </trkpt>
      <trkpt lat="44.97166" lon="5.17466">
        <ele>632.2</ele>
        <time>2016-07-03T09:03:01Z</time>
      </trkpt>
      <trkpt lat="44.97166" lon="5.17466">
        <ele>632.68</ele>
        <time>2016-07-03T09:03:26Z</time>
      </trkpt>
      <trkpt lat="44.97166" lon="5.17472">
        <ele>632.2</ele>
        <time>2016-07-03T09:03:44Z</time>
      </trkpt>
      <trkpt lat="44.97166" lon="5.17474">
        <ele>631.72</ele>
        <time>2016-07-03T09:04:08Z</time>
      </trkpt>
      <trkpt lat="44.97164" lon="5.1748">
        <ele>632.2</ele>
        <time>2016-07-03T09:04:25Z</time>
      </trkpt>
      <trkpt lat="44.9716" lon="5.17479">
        <ele>635.57</ele>
        <time>2016-07-03T09:04:45Z</time>
      </trkpt>
      <trkpt lat="44.97157" lon="5.17482">
        <ele>638.45</ele>
        <time>2016-07-03T09:05:03Z</time>
      </trkpt>
      <trkpt lat="44.97156" lon="5.17477">
        <ele>639.41</ele>
        <time>2016-07-03T09:05:14Z</time>
      </trkpt>
      <trkpt lat="44.97159" lon="5.17479">
        <ele>639.41</ele>
        <time>2016-07-03T09:05:32Z</time>
      </trkpt>
      <trkpt lat="44.97157" lon="5.17478">
        <ele>640.38</ele>
        <time>2016-07-03T09:05:55Z</time>
      </trkpt>
      <trkpt lat="44.97156" lon="5.17477">
        <ele>639.89</ele>
        <time>2016-07-03T09:06:13Z</time>
      </trkpt>
      <trkpt lat="44.97157" lon="5.17477">
        <ele>640.38</ele>
        <time>2016-07-03T09:06:41Z</time>
      </trkpt>
      <trkpt lat="44.97154" lon="5.17479">
        <ele>639.41</ele>
        <time>2016-07-03T09:07:01Z</time>
      </trkpt>
      <trkpt lat="44.97152" lon="5.17483">
        <ele>639.89</ele>
        <time>2016-07-03T09:07:22Z</time>
      </trkpt>
      <trkpt lat="44.97153" lon="5.17481">
        <ele>640.38</ele>
        <time>2016-07-03T09:07:44Z</time>
      </trkpt>
      <trkpt lat="44.97148" lon="5.17484">
        <ele>638.45</ele>
        <time>2016-07-03T09:08:05Z</time>
      </trkpt>
      <trkpt lat="44.97147" lon="5.17486">
        <ele>638.45</ele>
        <time>2016-07-03T09:08:24Z</time>
      </trkpt>
      <trkpt lat="44.97146" lon="5.17491">
        <ele>637.49</ele>
        <time>2016-07-03T09:08:40Z</time>
      </trkpt>
      <trkpt lat="44.97149" lon="5.17486">
        <ele>637.97</ele>
        <time>2016-07-03T09:08:54Z</time>
      </trkpt>
      <trkpt lat="44.97154" lon="5.17488">
        <ele>640.38</ele>
        <time>2016-07-03T09:09:07Z</time>
      </trkpt>
      <trkpt lat="44.97153" lon="5.17495">
        <ele>642.3</ele>
        <time>2016-07-03T09:09:20Z</time>
      </trkpt>
      <trkpt lat="44.97153" lon="5.17501">
        <ele>642.3</ele>
        <time>2016-07-03T09:09:35Z</time>
      </trkpt>
      <trkpt lat="44.97153" lon="5.17507">
        <ele>643.26</ele>
        <time>2016-07-03T09:09:47Z</time>
      </trkpt>
      <trkpt lat="44.97154" lon="5.17515">
        <ele>642.3</ele>
        <time>2016-07-03T09:10:00Z</time>
      </trkpt>
      <trkpt lat="44.97156" lon="5.1752">
        <ele>642.78</ele>
        <time>2016-07-03T09:10:15Z</time>
      </trkpt>
      <trkpt lat="44.97157" lon="5.17521">
        <ele>642.78</ele>
        <time>2016-07-03T09:10:32Z</time>
      </trkpt>
      <trkpt lat="44.97153" lon="5.17522">
        <ele>642.3</ele>
        <time>2016-07-03T09:11:08Z</time>
      </trkpt>
      <trkpt lat="44.97154" lon="5.17526">
        <ele>643.26</ele>
        <time>2016-07-03T09:11:35Z</time>
      </trkpt>
      <trkpt lat="44.97152" lon="5.17524">
        <ele>646.62</ele>
        <time>2016-07-03T09:11:49Z</time>
      </trkpt>
      <trkpt lat="44.97148" lon="5.17526">
        <ele>649.03</ele>
        <time>2016-07-03T09:12:00Z</time>
      </trkpt>
      <trkpt lat="44.97147" lon="5.17529">
        <ele>649.99</ele>
        <time>2016-07-03T09:12:05Z</time>
      </trkpt>
      <trkpt lat="44.97145" lon="5.17536">
        <ele>652.87</ele>
        <time>2016-07-03T09:12:15Z</time>
      </trkpt>
      <trkpt lat="44.97144" lon="5.17545">
        <ele>654.31</ele>
        <time>2016-07-03T09:12:33Z</time>
      </trkpt>
      <trkpt lat="44.97147" lon="5.17553">
        <ele>652.39</ele>
        <time>2016-07-03T09:12:53Z</time>
      </trkpt>
      <trkpt lat="44.97146" lon="5.17557">
        <ele>652.39</ele>
        <time>2016-07-03T09:13:08Z</time>
      </trkpt>
      <trkpt lat="44.97149" lon="5.17562">
        <ele>650.95</ele>
        <time>2016-07-03T09:13:20Z</time>
      </trkpt>
      <trkpt lat="44.97152" lon="5.17569">
        <ele>648.55</ele>
        <time>2016-07-03T09:13:34Z</time>
      </trkpt>
      <trkpt lat="44.97155" lon="5.17576">
        <ele>647.59</ele>
        <time>2016-07-03T09:13:48Z</time>
      </trkpt>
      <trkpt lat="44.97159" lon="5.17585">
        <ele>646.14</ele>
        <time>2016-07-03T09:14:01Z</time>
      </trkpt>
      <trkpt lat="44.97161" lon="5.17578">
        <ele>646.14</ele>
        <time>2016-07-03T09:14:16Z</time>
      </trkpt>
      <trkpt lat="44.9716" lon="5.17575">
        <ele>646.14</ele>
        <time>2016-07-03T09:14:36Z</time>
      </trkpt>
      <trkpt lat="44.97158" lon="5.17578">
        <ele>645.66</ele>
        <time>2016-07-03T09:14:50Z</time>
      </trkpt>
      <trkpt lat="44.97159" lon="5.17575">
        <ele>645.18</ele>
        <time>2016-07-03T09:15:19Z</time>
      </trkpt>
      <trkpt lat="44.97162" lon="5.17579">
        <ele>645.18</ele>
        <time>2016-07-03T09:15:35Z</time>
      </trkpt>
      <trkpt lat="44.97162" lon="5.17579">
        <ele>645.18</ele>
        <time>2016-07-03T09:15:54Z</time>
      </trkpt>
      <trkpt lat="44.9716" lon="5.17584">
        <ele>645.18</ele>
        <time>2016-07-03T09:16:15Z</time>
      </trkpt>
      <trkpt lat="44.97161" lon="5.17579">
        <ele>645.18</ele>
        <time>2016-07-03T09:16:31Z</time>
      </trkpt>
      <trkpt lat="44.97163" lon="5.17579">
        <ele>645.66</ele>
        <time>2016-07-03T09:16:56Z</time>
      </trkpt>
      <trkpt lat="44.97166" lon="5.17582">
        <ele>645.66</ele>
        <time>2016-07-03T09:17:12Z</time>
      </trkpt>
      <trkpt lat="44.97161" lon="5.17587">
        <ele>645.18</ele>
        <time>2016-07-03T09:17:37Z</time>
      </trkpt>
      <trkpt lat="44.97157" lon="5.17583">
        <ele>645.66</ele>
        <time>2016-07-03T09:17:58Z</time>
      </trkpt>
      <trkpt lat="44.97162" lon="5.17581">
        <ele>644.7</ele>
        <time>2016-07-03T09:18:13Z</time>
      </trkpt>
      <trkpt lat="44.97162" lon="5.17588">
        <ele>646.14</ele>
        <time>2016-07-03T09:18:28Z</time>
      </trkpt>
      <trkpt lat="44.97166" lon="5.17587">
        <ele>647.1</ele>
        <time>2016-07-03T09:18:41Z</time>
      </trkpt>
      <trkpt lat="44.97166" lon="5.17597">
        <ele>648.07</ele>
        <time>2016-07-03T09:18:55Z</time>
      </trkpt>
      <trkpt lat="44.97166" lon="5.17609">
        <ele>649.51</ele>
        <time>2016-07-03T09:19:08Z</time>
      </trkpt>
      <trkpt lat="44.97171" lon="5.17615">
        <ele>651.91</ele>
        <time>2016-07-03T09:19:20Z</time>
      </trkpt>
      <trkpt lat="44.97173" lon="5.17624">
        <ele>653.35</ele>
        <time>2016-07-03T09:19:34Z</time>
      </trkpt>
      <trkpt lat="44.97177" lon="5.17629">
        <ele>653.83</ele>
        <time>2016-07-03T09:19:53Z</time>
      </trkpt>
      <trkpt lat="44.9718" lon="5.17628">
        <ele>653.83</ele>
        <time>2016-07-03T09:20:07Z</time>
      </trkpt>
      <trkpt lat="44.97182" lon="5.1763">
        <ele>656.24</ele>
        <time>2016-07-03T09:20:22Z</time>
      </trkpt>
      <trkpt lat="44.97186" lon="5.17635">
        <ele>658.16</ele>
        <time>2016-07-03T09:20:36Z</time>
      </trkpt>
      <trkpt lat="44.97189" lon="5.1763">
        <ele>658.64</ele>
        <time>2016-07-03T09:20:55Z</time>
      </trkpt>
      <trkpt lat="44.97187" lon="5.17629">
        <ele>658.64</ele>
        <time>2016-07-03T09:21:12Z</time>
      </trkpt>
      <trkpt lat="44.97186" lon="5.17624">
        <ele>658.16</ele>
        <time>2016-07-03T09:21:32Z</time>
      </trkpt>
      <trkpt lat="44.97187" lon="5.17627">
        <ele>658.64</ele>
        <time>2016-07-03T09:21:47Z</time>
      </trkpt>
      <trkpt lat="44.97187" lon="5.17627">
        <ele>658.64</ele>
        <time>2016-07-03T09:22:05Z</time>
      </trkpt>
      <trkpt lat="44.97187" lon="5.17625">
        <ele>658.64</ele>
        <time>2016-07-03T09:22:18Z</time>
      </trkpt>
      <trkpt lat="44.97187" lon="5.17627">
        <ele>658.64</ele>
        <time>2016-07-03T09:22:40Z</time>
      </trkpt>
      <trkpt lat="44.97188" lon="5.17627">
        <ele>658.16</ele>
        <time>2016-07-03T09:22:55Z</time>
      </trkpt>
      <trkpt lat="44.97187" lon="5.1763">
        <ele>658.16</ele>
        <time>2016-07-03T09:23:17Z</time>
      </trkpt>
      <trkpt lat="44.97189" lon="5.17642">
        <ele>658.64</ele>
        <time>2016-07-03T09:23:33Z</time>
      </trkpt>
      <trkpt lat="44.97194" lon="5.17647">
        <ele>661.04</ele>
        <time>2016-07-03T09:23:48Z</time>
      </trkpt>
      <trkpt lat="44.97202" lon="5.17647">
        <ele>662.49</ele>
        <time>2016-07-03T09:24:08Z</time>
      </trkpt>
      <trkpt lat="44.9721" lon="5.17648">
        <ele>662.49</ele>
        <time>2016-07-03T09:24:23Z</time>
      </trkpt>
      <trkpt lat="44.97222" lon="5.17645">
        <ele>663.93</ele>
        <time>2016-07-03T09:24:39Z</time>
      </trkpt>
      <trkpt lat="44.97235" lon="5.17644">
        <ele>664.89</ele>
        <time>2016-07-03T09:24:54Z</time>
      </trkpt>
      <trkpt lat="44.97241" lon="5.17648">
        <ele>666.33</ele>
        <time>2016-07-03T09:25:07Z</time>
      </trkpt>
      <trkpt lat="44.97242" lon="5.17651">
        <ele>664.41</ele>
        <time>2016-07-03T09:25:21Z</time>
      </trkpt>
      <trkpt lat="44.97241" lon="5.17651">
        <ele>664.89</ele>
        <time>2016-07-03T09:25:56Z</time>
      </trkpt>
      <trkpt lat="44.9724" lon="5.17651">
        <ele>663.93</ele>
        <time>2016-07-03T09:26:33Z</time>
      </trkpt>
      <trkpt lat="44.97239" lon="5.1765">
        <ele>664.89</ele>
        <time>2016-07-03T09:27:10Z</time>
      </trkpt>
      <trkpt lat="44.9724" lon="5.17648">
        <ele>664.89</ele>
        <time>2016-07-03T09:27:45Z</time>
      </trkpt>
      <trkpt lat="44.9724" lon="5.17652">
        <ele>665.37</ele>
        <time>2016-07-03T09:28:22Z</time>
      </trkpt>
      <trkpt lat="44.97239" lon="5.17653">
        <ele>665.37</ele>
        <time>2016-07-03T09:28:57Z</time>
      </trkpt>
      <trkpt lat="44.97242" lon="5.17651">
        <ele>665.85</ele>
        <time>2016-07-03T09:29:22Z</time>
      </trkpt>
      <trkpt lat="44.97244" lon="5.1765">
        <ele>665.85</ele>
        <time>2016-07-03T09:29:37Z</time>
      </trkpt>
      <trkpt lat="44.97247" lon="5.17669">
        <ele>667.77</ele>
        <time>2016-07-03T09:29:51Z</time>
      </trkpt>
      <trkpt lat="44.97256" lon="5.17676">
        <ele>669.22</ele>
        <time>2016-07-03T09:30:04Z</time>
      </trkpt>
      <trkpt lat="44.97265" lon="5.17685">
        <ele>670.18</ele>
        <time>2016-07-03T09:30:19Z</time>
      </trkpt>
      <trkpt lat="44.97265" lon="5.17684">
        <ele>670.66</ele>
        <time>2016-07-03T09:30:37Z</time>
      </trkpt>
      <trkpt lat="44.97272" lon="5.1769">
        <ele>670.18</ele>
        <time>2016-07-03T09:31:00Z</time>
      </trkpt>
      <trkpt lat="44.97289" lon="5.17696">
        <ele>669.7</ele>
        <time>2016-07-03T09:31:17Z</time>
      </trkpt>
      <trkpt lat="44.97302" lon="5.17706">
        <ele>670.66</ele>
        <time>2016-07-03T09:31:31Z</time>
      </trkpt>
      <trkpt lat="44.97306" lon="5.17707">
        <ele>672.1</ele>
        <time>2016-07-03T09:31:48Z</time>
      </trkpt>
      <trkpt lat="44.97296" lon="5.1771">
        <ele>674.02</ele>
        <time>2016-07-03T09:32:03Z</time>
      </trkpt>
      <trkpt lat="44.97288" lon="5.17712">
        <ele>676.42</ele>
        <time>2016-07-03T09:32:17Z</time>
      </trkpt>
      <trkpt lat="44.97283" lon="5.1772">
        <ele>679.31</ele>
        <time>2016-07-03T09:32:34Z</time>
      </trkpt>
      <trkpt lat="44.97275" lon="5.17722">
        <ele>682.67</ele>
        <time>2016-07-03T09:32:49Z</time>
      </trkpt>
      <trkpt lat="44.97269" lon="5.17723">
        <ele>685.08</ele>
        <time>2016-07-03T09:33:06Z</time>
      </trkpt>
      <trkpt lat="44.97263" lon="5.17724">
        <ele>687.48</ele>
        <time>2016-07-03T09:33:22Z</time>
      </trkpt>
      <trkpt lat="44.97259" lon="5.17724">
        <ele>688.44</ele>
        <time>2016-07-03T09:33:41Z</time>
      </trkpt>
      <trkpt lat="44.97252" lon="5.17725">
        <ele>690.84</ele>
        <time>2016-07-03T09:34:01Z</time>
      </trkpt>
      <trkpt lat="44.97246" lon="5.17728">
        <ele>693.25</ele>
        <time>2016-07-03T09:34:18Z</time>
      </trkpt>
      <trkpt lat="44.97246" lon="5.1773">
        <ele>695.65</ele>
        <time>2016-07-03T09:34:28Z</time>
      </trkpt>
      <trkpt lat="44.97246" lon="5.17728">
        <ele>695.17</ele>
        <time>2016-07-03T09:34:50Z</time>
      </trkpt>
      <trkpt lat="44.97246" lon="5.17729">
        <ele>692.77</ele>
        <time>2016-07-03T09:34:59Z</time>
      </trkpt>
      <trkpt lat="44.97245" lon="5.17727">
        <ele>688.44</ele>
        <time>2016-07-03T09:35:39Z</time>
      </trkpt>
      <trkpt lat="44.97249" lon="5.17728">
        <ele>687.96</ele>
        <time>2016-07-03T09:35:41Z</time>
      </trkpt>
      <trkpt lat="44.9725" lon="5.1772">
        <ele>689.88</ele>
        <time>2016-07-03T09:35:59Z</time>
      </trkpt>
      <trkpt lat="44.97245" lon="5.17716">
        <ele>693.25</ele>
        <time>2016-07-03T09:36:13Z</time>
      </trkpt>
      <trkpt lat="44.97229" lon="5.17719">
        <ele>694.21</ele>
        <time>2016-07-03T09:36:27Z</time>
      </trkpt>
      <trkpt lat="44.97217" lon="5.17721">
        <ele>695.65</ele>
        <time>2016-07-03T09:36:42Z</time>
      </trkpt>
      <trkpt lat="44.97208" lon="5.17713">
        <ele>694.21</ele>
        <time>2016-07-03T09:36:57Z</time>
      </trkpt>
      <trkpt lat="44.97207" lon="5.17715">
        <ele>694.69</ele>
        <time>2016-07-03T09:37:20Z</time>
      </trkpt>
      <trkpt lat="44.97208" lon="5.17719">
        <ele>694.69</ele>
        <time>2016-07-03T09:37:36Z</time>
      </trkpt>
      <trkpt lat="44.97207" lon="5.17716">
        <ele>695.65</ele>
        <time>2016-07-03T09:37:52Z</time>
      </trkpt>
      <trkpt lat="44.97203" lon="5.17717">
        <ele>695.65</ele>
        <time>2016-07-03T09:38:04Z</time>
      </trkpt>
      <trkpt lat="44.97196" lon="5.17721">
        <ele>697.09</ele>
        <time>2016-07-03T09:38:18Z</time>
      </trkpt>
      <trkpt lat="44.97186" lon="5.17725">
        <ele>699.98</ele>
        <time>2016-07-03T09:38:33Z</time>
      </trkpt>
      <trkpt lat="44.97174" lon="5.17726">
        <ele>701.9</ele>
        <time>2016-07-03T09:38:47Z</time>
      </trkpt>
      <trkpt lat="44.97167" lon="5.17732">
        <ele>705.26</ele>
        <time>2016-07-03T09:39:00Z</time>
      </trkpt>
      <trkpt lat="44.97158" lon="5.17737">
        <ele>708.15</ele>
        <time>2016-07-03T09:39:15Z</time>
      </trkpt>
      <trkpt lat="44.97147" lon="5.17742">
        <ele>711.03</ele>
        <time>2016-07-03T09:39:32Z</time>
      </trkpt>
      <trkpt lat="44.97139" lon="5.17751">
        <ele>714.4</ele>
        <time>2016-07-03T09:39:48Z</time>
      </trkpt>
      <trkpt lat="44.97136" lon="5.17755">
        <ele>715.36</ele>
        <time>2016-07-03T09:39:55Z</time>
      </trkpt>
      <trkpt lat="44.97133" lon="5.17759">
        <ele>716.8</ele>
        <time>2016-07-03T09:40:16Z</time>
      </trkpt>
      <trkpt lat="44.97134" lon="5.17761">
        <ele>717.28</ele>
        <time>2016-07-03T09:40:43Z</time>
      </trkpt>
      <trkpt lat="44.97137" lon="5.17765">
        <ele>719.68</ele>
        <time>2016-07-03T09:40:55Z</time>
      </trkpt>
      <trkpt lat="44.9714" lon="5.17767">
        <ele>722.57</ele>
        <time>2016-07-03T09:41:07Z</time>
      </trkpt>
      <trkpt lat="44.97145" lon="5.17775">
        <ele>725.93</ele>
        <time>2016-07-03T09:41:21Z</time>
      </trkpt>
      <trkpt lat="44.97147" lon="5.17778">
        <ele>727.37</ele>
        <time>2016-07-03T09:41:29Z</time>
      </trkpt>
      <trkpt lat="44.97154" lon="5.17789">
        <ele>728.82</ele>
        <time>2016-07-03T09:41:43Z</time>
      </trkpt>
      <trkpt lat="44.9716" lon="5.17791">
        <ele>731.22</ele>
        <time>2016-07-03T09:41:56Z</time>
      </trkpt>
      <trkpt lat="44.97166" lon="5.17796">
        <ele>733.62</ele>
        <time>2016-07-03T09:42:10Z</time>
      </trkpt>
      <trkpt lat="44.97172" lon="5.17798">
        <ele>736.03</ele>
        <time>2016-07-03T09:42:22Z</time>
      </trkpt>
      <trkpt lat="44.97176" lon="5.17797">
        <ele>737.95</ele>
        <time>2016-07-03T09:42:35Z</time>
      </trkpt>
      <trkpt lat="44.97177" lon="5.17796">
        <ele>736.99</ele>
        <time>2016-07-03T09:42:53Z</time>
      </trkpt>
      <trkpt lat="44.97178" lon="5.178">
        <ele>737.95</ele>
        <time>2016-07-03T09:43:21Z</time>
      </trkpt>
      <trkpt lat="44.97184" lon="5.17799">
        <ele>739.39</ele>
        <time>2016-07-03T09:43:33Z</time>
      </trkpt>
      <trkpt lat="44.97186" lon="5.17795">
        <ele>741.31</ele>
        <time>2016-07-03T09:43:45Z</time>
      </trkpt>
      <trkpt lat="44.97189" lon="5.17793">
        <ele>743.72</ele>
        <time>2016-07-03T09:43:57Z</time>
      </trkpt>
      <trkpt lat="44.97195" lon="5.17793">
        <ele>744.68</ele>
        <time>2016-07-03T09:44:13Z</time>
      </trkpt>
      <trkpt lat="44.97194" lon="5.17791">
        <ele>746.6</ele>
        <time>2016-07-03T09:44:29Z</time>
      </trkpt>
      <trkpt lat="44.97194" lon="5.1779">
        <ele>745.64</ele>
        <time>2016-07-03T09:44:54Z</time>
      </trkpt>
      <trkpt lat="44.97192" lon="5.17792">
        <ele>745.16</ele>
        <time>2016-07-03T09:45:23Z</time>
      </trkpt>
      <trkpt lat="44.97195" lon="5.17791">
        <ele>744.2</ele>
        <time>2016-07-03T09:45:49Z</time>
      </trkpt>
      <trkpt lat="44.97194" lon="5.17788">
        <ele>745.16</ele>
        <time>2016-07-03T09:46:24Z</time>
      </trkpt>
      <trkpt lat="44.97194" lon="5.17787">
        <ele>744.68</ele>
        <time>2016-07-03T09:47:04Z</time>
      </trkpt>
      <trkpt lat="44.97197" lon="5.17794">
        <ele>745.64</ele>
        <time>2016-07-03T09:47:37Z</time>
      </trkpt>
      <trkpt lat="44.97195" lon="5.17793">
        <ele>745.64</ele>
        <time>2016-07-03T09:47:57Z</time>
      </trkpt>
      <trkpt lat="44.97196" lon="5.17792">
        <ele>745.16</ele>
        <time>2016-07-03T09:48:22Z</time>
      </trkpt>
      <trkpt lat="44.97194" lon="5.1779">
        <ele>745.16</ele>
        <time>2016-07-03T09:48:47Z</time>
      </trkpt>
      <trkpt lat="44.97195" lon="5.17791">
        <ele>745.16</ele>
        <time>2016-07-03T09:49:07Z</time>
      </trkpt>
      <trkpt lat="44.97195" lon="5.17791">
        <ele>745.64</ele>
        <time>2016-07-03T09:49:31Z</time>
      </trkpt>
      <trkpt lat="44.97196" lon="5.17791">
        <ele>745.16</ele>
        <time>2016-07-03T09:49:52Z</time>
      </trkpt>
      <trkpt lat="44.97198" lon="5.17799">
        <ele>745.64</ele>
        <time>2016-07-03T09:50:05Z</time>
      </trkpt>
      <trkpt lat="44.97207" lon="5.17804">
        <ele>747.08</ele>
        <time>2016-07-03T09:50:19Z</time>
      </trkpt>
      <trkpt lat="44.97218" lon="5.17809">
        <ele>749.97</ele>
        <time>2016-07-03T09:50:38Z</time>
      </trkpt>
      <trkpt lat="44.97225" lon="5.1781">
        <ele>751.41</ele>
        <time>2016-07-03T09:50:53Z</time>
      </trkpt>
      <trkpt lat="44.97232" lon="5.17812">
        <ele>753.33</ele>
        <time>2016-07-03T09:51:07Z</time>
      </trkpt>
      <trkpt lat="44.97238" lon="5.17817">
        <ele>755.25</ele>
        <time>2016-07-03T09:51:25Z</time>
      </trkpt>
      <trkpt lat="44.97243" lon="5.17819">
        <ele>756.21</ele>
        <time>2016-07-03T09:51:33Z</time>
      </trkpt>
      <trkpt lat="44.97251" lon="5.17827">
        <ele>758.14</ele>
        <time>2016-07-03T09:51:48Z</time>
      </trkpt>
      <trkpt lat="44.97254" lon="5.17835">
        <ele>760.06</ele>
        <time>2016-07-03T09:52:03Z</time>
      </trkpt>
      <trkpt lat="44.97259" lon="5.1784">
        <ele>762.46</ele>
        <time>2016-07-03T09:52:16Z</time>
      </trkpt>
      <trkpt lat="44.97266" lon="5.1784">
        <ele>765.83</ele>
        <time>2016-07-03T09:52:32Z</time>
      </trkpt>
      <trkpt lat="44.97271" lon="5.17838">
        <ele>767.75</ele>
        <time>2016-07-03T09:52:46Z</time>
      </trkpt>
      <trkpt lat="44.97277" lon="5.17835">
        <ele>770.63</ele>
        <time>2016-07-03T09:53:02Z</time>
      </trkpt>
      <trkpt lat="44.97283" lon="5.17837">
        <ele>773.04</ele>
        <time>2016-07-03T09:53:16Z</time>
      </trkpt>
      <trkpt lat="44.9729" lon="5.17835">
        <ele>773.52</ele>
        <time>2016-07-03T09:53:29Z</time>
      </trkpt>
      <trkpt lat="44.97297" lon="5.17836">
        <ele>776.88</ele>
        <time>2016-07-03T09:53:43Z</time>
      </trkpt>
      <trkpt lat="44.97299" lon="5.17835">
        <ele>776.4</ele>
        <time>2016-07-03T09:54:00Z</time>
      </trkpt>
      <trkpt lat="44.97301" lon="5.17835">
        <ele>777.36</ele>
        <time>2016-07-03T09:54:20Z</time>
      </trkpt>
      <trkpt lat="44.97301" lon="5.17836">
        <ele>776.88</ele>
        <time>2016-07-03T09:54:53Z</time>
      </trkpt>
      <trkpt lat="44.973" lon="5.17835">
        <ele>777.36</ele>
        <time>2016-07-03T09:55:19Z</time>
      </trkpt>
      <trkpt lat="44.97301" lon="5.17835">
        <ele>777.36</ele>
        <time>2016-07-03T09:55:51Z</time>
      </trkpt>
      <trkpt lat="44.97306" lon="5.17838">
        <ele>778.32</ele>
        <time>2016-07-03T09:56:13Z</time>
      </trkpt>
      <trkpt lat="44.97311" lon="5.17844">
        <ele>781.69</ele>
        <time>2016-07-03T09:56:25Z</time>
      </trkpt>
      <trkpt lat="44.97316" lon="5.17855">
        <ele>784.09</ele>
        <time>2016-07-03T09:56:41Z</time>
      </trkpt>
      <trkpt lat="44.97323" lon="5.17868">
        <ele>785.53</ele>
        <time>2016-07-03T09:56:56Z</time>
      </trkpt>
      <trkpt lat="44.9733" lon="5.17879">
        <ele>787.46</ele>
        <time>2016-07-03T09:57:11Z</time>
      </trkpt>
      <trkpt lat="44.97339" lon="5.17886">
        <ele>789.38</ele>
        <time>2016-07-03T09:57:28Z</time>
      </trkpt>
      <trkpt lat="44.97348" lon="5.179">
        <ele>791.3</ele>
        <time>2016-07-03T09:57:45Z</time>
      </trkpt>
      <trkpt lat="44.97357" lon="5.17913">
        <ele>791.78</ele>
        <time>2016-07-03T09:58:02Z</time>
      </trkpt>
      <trkpt lat="44.97365" lon="5.17921">
        <ele>793.22</ele>
        <time>2016-07-03T09:58:18Z</time>
      </trkpt>
      <trkpt lat="44.97365" lon="5.17922">
        <ele>793.22</ele>
        <time>2016-07-03T09:58:38Z</time>
      </trkpt>
      <trkpt lat="44.97372" lon="5.17924">
        <ele>794.19</ele>
        <time>2016-07-03T09:58:52Z</time>
      </trkpt>
      <trkpt lat="44.97374" lon="5.17924">
        <ele>794.19</ele>
        <time>2016-07-03T09:59:08Z</time>
      </trkpt>
      <trkpt lat="44.97381" lon="5.17927">
        <ele>797.07</ele>
        <time>2016-07-03T09:59:19Z</time>
      </trkpt>
      <trkpt lat="44.97389" lon="5.17928">
        <ele>798.51</ele>
        <time>2016-07-03T09:59:32Z</time>
      </trkpt>
      <trkpt lat="44.97396" lon="5.17926">
        <ele>799.95</ele>
        <time>2016-07-03T09:59:45Z</time>
      </trkpt>
      <trkpt lat="44.97404" lon="5.17929">
        <ele>802.84</ele>
        <time>2016-07-03T10:00:00Z</time>
      </trkpt>
      <trkpt lat="44.97412" lon="5.17937">
        <ele>804.28</ele>
        <time>2016-07-03T10:00:15Z</time>
      </trkpt>
      <trkpt lat="44.97418" lon="5.17944">
        <ele>804.28</ele>
        <time>2016-07-03T10:00:30Z</time>
      </trkpt>
      <trkpt lat="44.9742" lon="5.17949">
        <ele>804.76</ele>
        <time>2016-07-03T10:00:45Z</time>
      </trkpt>
      <trkpt lat="44.97427" lon="5.17951">
        <ele>804.28</ele>
        <time>2016-07-03T10:00:58Z</time>
      </trkpt>
      <trkpt lat="44.97434" lon="5.17959">
        <ele>804.28</ele>
        <time>2016-07-03T10:01:11Z</time>
      </trkpt>
      <trkpt lat="44.9744" lon="5.17965">
        <ele>806.68</ele>
        <time>2016-07-03T10:01:22Z</time>
      </trkpt>
      <trkpt lat="44.97444" lon="5.1797">
        <ele>808.13</ele>
        <time>2016-07-03T10:01:32Z</time>
      </trkpt>
      <trkpt lat="44.97443" lon="5.1797">
        <ele>807.64</ele>
        <time>2016-07-03T10:01:49Z</time>
      </trkpt>
      <trkpt lat="44.97452" lon="5.17971">
        <ele>809.09</ele>
        <time>2016-07-03T10:02:01Z</time>
      </trkpt>
      <trkpt lat="44.97453" lon="5.1797">
        <ele>809.57</ele>
        <time>2016-07-03T10:02:14Z</time>
      </trkpt>
      <trkpt lat="44.97453" lon="5.17971">
        <ele>807.64</ele>
        <time>2016-07-03T10:02:21Z</time>
      </trkpt>
      <trkpt lat="44.97453" lon="5.1797">
        <ele>804.28</ele>
        <time>2016-07-03T10:25:29Z</time>
      </trkpt>
      <trkpt lat="44.97452" lon="5.1797">
        <ele>807.16</ele>
        <time>2016-07-03T10:25:39Z</time>
      </trkpt>
      <trkpt lat="44.97452" lon="5.17971">
        <ele>807.16</ele>
        <time>2016-07-03T10:25:40Z</time>
      </trkpt>
      <trkpt lat="44.97453" lon="5.17973">
        <ele>806.68</ele>
        <time>2016-07-03T10:25:58Z</time>
      </trkpt>
      <trkpt lat="44.97458" lon="5.17979">
        <ele>806.68</ele>
        <time>2016-07-03T10:26:09Z</time>
      </trkpt>
      <trkpt lat="44.97464" lon="5.1799">
        <ele>806.2</ele>
        <time>2016-07-03T10:26:23Z</time>
      </trkpt>
      <trkpt lat="44.97468" lon="5.18003">
        <ele>806.2</ele>
        <time>2016-07-03T10:26:37Z</time>
      </trkpt>
      <trkpt lat="44.9747" lon="5.18007">
        <ele>806.68</ele>
        <time>2016-07-03T10:26:42Z</time>
      </trkpt>
      <trkpt lat="44.97476" lon="5.18015">
        <ele>806.68</ele>
        <time>2016-07-03T10:26:56Z</time>
      </trkpt>
      <trkpt lat="44.97476" lon="5.18016">
        <ele>806.68</ele>
        <time>2016-07-03T10:26:57Z</time>
      </trkpt>
      <trkpt lat="44.97483" lon="5.18027">
        <ele>806.68</ele>
        <time>2016-07-03T10:27:10Z</time>
      </trkpt>
      <trkpt lat="44.97492" lon="5.18035">
        <ele>808.61</ele>
        <time>2016-07-03T10:27:25Z</time>
      </trkpt>
      <trkpt lat="44.97507" lon="5.18035">
        <ele>809.09</ele>
        <time>2016-07-03T10:27:41Z</time>
      </trkpt>
      <trkpt lat="44.97516" lon="5.18043">
        <ele>811.97</ele>
        <time>2016-07-03T10:27:59Z</time>
      </trkpt>
      <trkpt lat="44.97526" lon="5.18045">
        <ele>814.85</ele>
        <time>2016-07-03T10:28:17Z</time>
      </trkpt>
      <trkpt lat="44.97539" lon="5.1804">
        <ele>815.82</ele>
        <time>2016-07-03T10:28:39Z</time>
      </trkpt>
      <trkpt lat="44.97545" lon="5.18037">
        <ele>819.18</ele>
        <time>2016-07-03T10:28:59Z</time>
      </trkpt>
      <trkpt lat="44.97549" lon="5.18045">
        <ele>822.06</ele>
        <time>2016-07-03T10:29:14Z</time>
      </trkpt>
      <trkpt lat="44.97552" lon="5.18032">
        <ele>824.95</ele>
        <time>2016-07-03T10:29:32Z</time>
      </trkpt>
      <trkpt lat="44.97558" lon="5.18032">
        <ele>827.83</ele>
        <time>2016-07-03T10:29:49Z</time>
      </trkpt>
      <trkpt lat="44.97565" lon="5.18032">
        <ele>827.83</ele>
        <time>2016-07-03T10:30:07Z</time>
      </trkpt>
      <trkpt lat="44.9757" lon="5.18037">
        <ele>826.87</ele>
        <time>2016-07-03T10:30:27Z</time>
      </trkpt>
      <trkpt lat="44.97577" lon="5.18045">
        <ele>825.43</ele>
        <time>2016-07-03T10:30:42Z</time>
      </trkpt>
      <trkpt lat="44.97576" lon="5.18049">
        <ele>824.95</ele>
        <time>2016-07-03T10:31:05Z</time>
      </trkpt>
      <trkpt lat="44.97573" lon="5.18047">
        <ele>825.91</ele>
        <time>2016-07-03T10:31:46Z</time>
      </trkpt>
      <trkpt lat="44.97584" lon="5.18055">
        <ele>823.99</ele>
        <time>2016-07-03T10:32:08Z</time>
      </trkpt>
      <trkpt lat="44.97591" lon="5.18065">
        <ele>820.62</ele>
        <time>2016-07-03T10:32:24Z</time>
      </trkpt>
      <trkpt lat="44.97596" lon="5.18084">
        <ele>823.99</ele>
        <time>2016-07-03T10:32:41Z</time>
      </trkpt>
      <trkpt lat="44.97601" lon="5.18092">
        <ele>825.91</ele>
        <time>2016-07-03T10:32:55Z</time>
      </trkpt>
      <trkpt lat="44.97608" lon="5.18101">
        <ele>828.31</ele>
        <time>2016-07-03T10:33:10Z</time>
      </trkpt>
      <trkpt lat="44.97612" lon="5.18105">
        <ele>827.83</ele>
        <time>2016-07-03T10:33:16Z</time>
      </trkpt>
      <trkpt lat="44.9762" lon="5.18112">
        <ele>827.35</ele>
        <time>2016-07-03T10:33:30Z</time>
      </trkpt>
      <trkpt lat="44.97626" lon="5.18119">
        <ele>826.39</ele>
        <time>2016-07-03T10:33:44Z</time>
      </trkpt>
      <trkpt lat="44.97638" lon="5.18124">
        <ele>825.91</ele>
        <time>2016-07-03T10:33:59Z</time>
      </trkpt>
      <trkpt lat="44.97653" lon="5.18139">
        <ele>825.43</ele>
        <time>2016-07-03T10:34:16Z</time>
      </trkpt>
      <trkpt lat="44.97662" lon="5.18141">
        <ele>824.95</ele>
        <time>2016-07-03T10:34:28Z</time>
      </trkpt>
      <trkpt lat="44.97675" lon="5.18144">
        <ele>825.91</ele>
        <time>2016-07-03T10:34:42Z</time>
      </trkpt>
      <trkpt lat="44.97687" lon="5.18147">
        <ele>824.47</ele>
        <time>2016-07-03T10:34:56Z</time>
      </trkpt>
      <trkpt lat="44.977" lon="5.18154">
        <ele>821.1</ele>
        <time>2016-07-03T10:35:11Z</time>
      </trkpt>
      <trkpt lat="44.97713" lon="5.18164">
        <ele>820.14</ele>
        <time>2016-07-03T10:35:25Z</time>
      </trkpt>
      <trkpt lat="44.97727" lon="5.18173">
        <ele>818.22</ele>
        <time>2016-07-03T10:35:39Z</time>
      </trkpt>
      <trkpt lat="44.9774" lon="5.18182">
        <ele>815.34</ele>
        <time>2016-07-03T10:35:55Z</time>
      </trkpt>
      <trkpt lat="44.97752" lon="5.1819">
        <ele>812.93</ele>
        <time>2016-07-03T10:36:13Z</time>
      </trkpt>
      <trkpt lat="44.97759" lon="5.1819">
        <ele>811.97</ele>
        <time>2016-07-03T10:36:28Z</time>
      </trkpt>
      <trkpt lat="44.97771" lon="5.1819">
        <ele>810.53</ele>
        <time>2016-07-03T10:36:41Z</time>
      </trkpt>
      <trkpt lat="44.97785" lon="5.18193">
        <ele>807.16</ele>
        <time>2016-07-03T10:36:56Z</time>
      </trkpt>
      <trkpt lat="44.97805" lon="5.18195">
        <ele>805.24</ele>
        <time>2016-07-03T10:37:15Z</time>
      </trkpt>
      <trkpt lat="44.97822" lon="5.18195">
        <ele>806.2</ele>
        <time>2016-07-03T10:37:31Z</time>
      </trkpt>
      <trkpt lat="44.97842" lon="5.18198">
        <ele>803.8</ele>
        <time>2016-07-03T10:37:51Z</time>
      </trkpt>
      <trkpt lat="44.97856" lon="5.18196">
        <ele>805.24</ele>
        <time>2016-07-03T10:38:06Z</time>
      </trkpt>
      <trkpt lat="44.97869" lon="5.18194">
        <ele>805.72</ele>
        <time>2016-07-03T10:38:19Z</time>
      </trkpt>
      <trkpt lat="44.97872" lon="5.18193">
        <ele>806.2</ele>
        <time>2016-07-03T10:38:21Z</time>
      </trkpt>
      <trkpt lat="44.97891" lon="5.18196">
        <ele>806.68</ele>
        <time>2016-07-03T10:38:40Z</time>
      </trkpt>
      <trkpt lat="44.9791" lon="5.18202">
        <ele>805.72</ele>
        <time>2016-07-03T10:38:58Z</time>
      </trkpt>
      <trkpt lat="44.97925" lon="5.18201">
        <ele>805.24</ele>
        <time>2016-07-03T10:39:15Z</time>
      </trkpt>
      <trkpt lat="44.97945" lon="5.18206">
        <ele>802.84</ele>
        <time>2016-07-03T10:39:33Z</time>
      </trkpt>
      <trkpt lat="44.97956" lon="5.1822">
        <ele>801.88</ele>
        <time>2016-07-03T10:39:47Z</time>
      </trkpt>
      <trkpt lat="44.97967" lon="5.18223">
        <ele>798.99</ele>
        <time>2016-07-03T10:39:58Z</time>
      </trkpt>
      <trkpt lat="44.97974" lon="5.18224">
        <ele>797.55</ele>
        <time>2016-07-03T10:40:08Z</time>
      </trkpt>
      <trkpt lat="44.97982" lon="5.18231">
        <ele>794.19</ele>
        <time>2016-07-03T10:40:19Z</time>
      </trkpt>
      <trkpt lat="44.9799" lon="5.18235">
        <ele>790.82</ele>
        <time>2016-07-03T10:40:29Z</time>
      </trkpt>
      <trkpt lat="44.98" lon="5.18236">
        <ele>787.94</ele>
        <time>2016-07-03T10:40:39Z</time>
      </trkpt>
      <trkpt lat="44.98002" lon="5.18237">
        <ele>786.5</ele>
        <time>2016-07-03T10:40:42Z</time>
      </trkpt>
      <trkpt lat="44.98006" lon="5.18238">
        <ele>785.53</ele>
        <time>2016-07-03T10:40:46Z</time>
      </trkpt>
      <trkpt lat="44.98014" lon="5.1824">
        <ele>782.17</ele>
        <time>2016-07-03T10:40:56Z</time>
      </trkpt>
      <trkpt lat="44.98022" lon="5.1824">
        <ele>780.73</ele>
        <time>2016-07-03T10:41:15Z</time>
      </trkpt>
      <trkpt lat="44.98021" lon="5.18245">
        <ele>781.69</ele>
        <time>2016-07-03T10:41:40Z</time>
      </trkpt>
      <trkpt lat="44.98008" lon="5.18253">
        <ele>780.25</ele>
        <time>2016-07-03T10:41:59Z</time>
      </trkpt>
      <trkpt lat="44.97991" lon="5.18268">
        <ele>781.21</ele>
        <time>2016-07-03T10:42:21Z</time>
      </trkpt>
      <trkpt lat="44.97969" lon="5.18278">
        <ele>783.13</ele>
        <time>2016-07-03T10:42:39Z</time>
      </trkpt>
      <trkpt lat="44.9795" lon="5.18283">
        <ele>784.57</ele>
        <time>2016-07-03T10:42:56Z</time>
      </trkpt>
      <trkpt lat="44.97929" lon="5.18282">
        <ele>782.65</ele>
        <time>2016-07-03T10:43:15Z</time>
      </trkpt>
      <trkpt lat="44.97907" lon="5.18278">
        <ele>780.25</ele>
        <time>2016-07-03T10:43:34Z</time>
      </trkpt>
      <trkpt lat="44.97889" lon="5.18275">
        <ele>777.36</ele>
        <time>2016-07-03T10:43:50Z</time>
      </trkpt>
      <trkpt lat="44.97872" lon="5.18276">
        <ele>773.04</ele>
        <time>2016-07-03T10:44:08Z</time>
      </trkpt>
      <trkpt lat="44.97871" lon="5.18276">
        <ele>776.88</ele>
        <time>2016-07-03T10:44:09Z</time>
      </trkpt>
      <trkpt lat="44.97871" lon="5.18276">
        <ele>773.52</ele>
        <time>2016-07-03T10:44:17Z</time>
      </trkpt>
      <trkpt lat="44.9786" lon="5.18277">
        <ele>773.52</ele>
        <time>2016-07-03T10:44:34Z</time>
      </trkpt>
      <trkpt lat="44.97856" lon="5.18277">
        <ele>773.04</ele>
        <time>2016-07-03T10:45:06Z</time>
      </trkpt>
      <trkpt lat="44.97844" lon="5.18274">
        <ele>772.08</ele>
        <time>2016-07-03T10:45:23Z</time>
      </trkpt>
      <trkpt lat="44.97822" lon="5.18271">
        <ele>771.11</ele>
        <time>2016-07-03T10:45:40Z</time>
      </trkpt>
      <trkpt lat="44.97798" lon="5.18272">
        <ele>771.6</ele>
        <time>2016-07-03T10:46:00Z</time>
      </trkpt>
      <trkpt lat="44.97778" lon="5.18286">
        <ele>771.11</ele>
        <time>2016-07-03T10:46:18Z</time>
      </trkpt>
      <trkpt lat="44.97758" lon="5.18307">
        <ele>771.6</ele>
        <time>2016-07-03T10:46:39Z</time>
      </trkpt>
      <trkpt lat="44.9774" lon="5.18329">
        <ele>772.56</ele>
        <time>2016-07-03T10:47:01Z</time>
      </trkpt>
      <trkpt lat="44.97728" lon="5.18352">
        <ele>771.11</ele>
        <time>2016-07-03T10:47:19Z</time>
      </trkpt>
      <trkpt lat="44.97719" lon="5.18376">
        <ele>773.04</ele>
        <time>2016-07-03T10:47:36Z</time>
      </trkpt>
      <trkpt lat="44.97707" lon="5.18396">
        <ele>775.92</ele>
        <time>2016-07-03T10:47:56Z</time>
      </trkpt>
      <trkpt lat="44.97699" lon="5.18413">
        <ele>777.36</ele>
        <time>2016-07-03T10:48:12Z</time>
      </trkpt>
      <trkpt lat="44.97689" lon="5.1843">
        <ele>778.32</ele>
        <time>2016-07-03T10:48:29Z</time>
      </trkpt>
      <trkpt lat="44.97681" lon="5.18438">
        <ele>777.84</ele>
        <time>2016-07-03T10:48:43Z</time>
      </trkpt>
      <trkpt lat="44.97681" lon="5.18437">
        <ele>776.88</ele>
        <time>2016-07-03T10:49:02Z</time>
      </trkpt>
      <trkpt lat="44.97684" lon="5.18438">
        <ele>776.4</ele>
        <time>2016-07-03T10:49:25Z</time>
      </trkpt>
      <trkpt lat="44.97681" lon="5.18447">
        <ele>777.36</ele>
        <time>2016-07-03T10:49:48Z</time>
      </trkpt>
      <trkpt lat="44.97676" lon="5.18446">
        <ele>776.4</ele>
        <time>2016-07-03T10:50:04Z</time>
      </trkpt>
      <trkpt lat="44.97678" lon="5.18451">
        <ele>776.88</ele>
        <time>2016-07-03T10:50:19Z</time>
      </trkpt>
      <trkpt lat="44.97672" lon="5.18468">
        <ele>776.88</ele>
        <time>2016-07-03T10:50:36Z</time>
      </trkpt>
      <trkpt lat="44.97669" lon="5.18472">
        <ele>776.88</ele>
        <time>2016-07-03T10:50:52Z</time>
      </trkpt>
      <trkpt lat="44.97658" lon="5.18484">
        <ele>777.84</ele>
        <time>2016-07-03T10:51:09Z</time>
      </trkpt>
      <trkpt lat="44.97644" lon="5.18487">
        <ele>780.25</ele>
        <time>2016-07-03T10:51:24Z</time>
      </trkpt>
      <trkpt lat="44.97626" lon="5.18488">
        <ele>780.25</ele>
        <time>2016-07-03T10:51:40Z</time>
      </trkpt>
      <trkpt lat="44.97608" lon="5.18493">
        <ele>781.21</ele>
        <time>2016-07-03T10:51:57Z</time>
      </trkpt>
      <trkpt lat="44.97594" lon="5.18495">
        <ele>781.69</ele>
        <time>2016-07-03T10:52:11Z</time>
      </trkpt>
      <trkpt lat="44.97581" lon="5.18499">
        <ele>782.65</ele>
        <time>2016-07-03T10:52:26Z</time>
      </trkpt>
      <trkpt lat="44.97565" lon="5.18501">
        <ele>783.13</ele>
        <time>2016-07-03T10:52:42Z</time>
      </trkpt>
      <trkpt lat="44.9755" lon="5.18509">
        <ele>782.17</ele>
        <time>2016-07-03T10:52:55Z</time>
      </trkpt>
      <trkpt lat="44.97538" lon="5.18518">
        <ele>783.13</ele>
        <time>2016-07-03T10:53:07Z</time>
      </trkpt>
      <trkpt lat="44.9753" lon="5.18527">
        <ele>783.13</ele>
        <time>2016-07-03T10:53:18Z</time>
      </trkpt>
      <trkpt lat="44.97523" lon="5.1854">
        <ele>783.13</ele>
        <time>2016-07-03T10:53:33Z</time>
      </trkpt>
      <trkpt lat="44.9752" lon="5.18558">
        <ele>784.09</ele>
        <time>2016-07-03T10:53:48Z</time>
      </trkpt>
      <trkpt lat="44.97512" lon="5.18577">
        <ele>785.05</ele>
        <time>2016-07-03T10:54:05Z</time>
      </trkpt>
      <trkpt lat="44.97501" lon="5.18594">
        <ele>785.53</ele>
        <time>2016-07-03T10:54:22Z</time>
      </trkpt>
      <trkpt lat="44.97488" lon="5.1861">
        <ele>786.98</ele>
        <time>2016-07-03T10:54:38Z</time>
      </trkpt>
      <trkpt lat="44.97474" lon="5.18625">
        <ele>788.42</ele>
        <time>2016-07-03T10:54:54Z</time>
      </trkpt>
      <trkpt lat="44.97458" lon="5.18638">
        <ele>787.94</ele>
        <time>2016-07-03T10:55:11Z</time>
      </trkpt>
      <trkpt lat="44.97456" lon="5.1864">
        <ele>787.94</ele>
        <time>2016-07-03T10:55:13Z</time>
      </trkpt>
      <trkpt lat="44.97442" lon="5.18647">
        <ele>789.86</ele>
        <time>2016-07-03T10:55:29Z</time>
      </trkpt>
      <trkpt lat="44.9743" lon="5.18651">
        <ele>791.78</ele>
        <time>2016-07-03T10:55:44Z</time>
      </trkpt>
      <trkpt lat="44.97419" lon="5.18651">
        <ele>795.15</ele>
        <time>2016-07-03T10:55:58Z</time>
      </trkpt>
      <trkpt lat="44.97409" lon="5.18654">
        <ele>796.59</ele>
        <time>2016-07-03T10:56:10Z</time>
      </trkpt>
      <trkpt lat="44.97397" lon="5.18653">
        <ele>798.03</ele>
        <time>2016-07-03T10:56:25Z</time>
      </trkpt>
      <trkpt lat="44.9739" lon="5.1865">
        <ele>798.99</ele>
        <time>2016-07-03T10:56:44Z</time>
      </trkpt>
      <trkpt lat="44.97383" lon="5.18643">
        <ele>800.92</ele>
        <time>2016-07-03T10:56:58Z</time>
      </trkpt>
      <trkpt lat="44.97373" lon="5.18637">
        <ele>801.88</ele>
        <time>2016-07-03T10:57:11Z</time>
      </trkpt>
      <trkpt lat="44.9736" lon="5.18639">
        <ele>802.84</ele>
        <time>2016-07-03T10:57:26Z</time>
      </trkpt>
      <trkpt lat="44.97349" lon="5.18642">
        <ele>805.24</ele>
        <time>2016-07-03T10:57:39Z</time>
      </trkpt>
      <trkpt lat="44.97336" lon="5.18641">
        <ele>808.61</ele>
        <time>2016-07-03T10:57:54Z</time>
      </trkpt>
      <trkpt lat="44.97331" lon="5.18646">
        <ele>809.09</ele>
        <time>2016-07-03T10:58:14Z</time>
      </trkpt>
      <trkpt lat="44.97325" lon="5.18642">
        <ele>809.09</ele>
        <time>2016-07-03T10:58:33Z</time>
      </trkpt>
      <trkpt lat="44.97319" lon="5.18633">
        <ele>807.16</ele>
        <time>2016-07-03T10:58:49Z</time>
      </trkpt>
      <trkpt lat="44.97317" lon="5.18627">
        <ele>806.2</ele>
        <time>2016-07-03T10:59:05Z</time>
      </trkpt>
      <trkpt lat="44.97318" lon="5.18629">
        <ele>806.68</ele>
        <time>2016-07-03T10:59:24Z</time>
      </trkpt>
      <trkpt lat="44.97317" lon="5.1863">
        <ele>805.72</ele>
        <time>2016-07-03T10:59:46Z</time>
      </trkpt>
      <trkpt lat="44.97321" lon="5.1864">
        <ele>807.16</ele>
        <time>2016-07-03T11:00:00Z</time>
      </trkpt>
      <trkpt lat="44.97327" lon="5.18649">
        <ele>809.09</ele>
        <time>2016-07-03T11:00:14Z</time>
      </trkpt>
      <trkpt lat="44.97326" lon="5.18657">
        <ele>807.64</ele>
        <time>2016-07-03T11:00:28Z</time>
      </trkpt>
      <trkpt lat="44.97323" lon="5.18676">
        <ele>805.24</ele>
        <time>2016-07-03T11:00:46Z</time>
      </trkpt>
      <trkpt lat="44.97318" lon="5.18693">
        <ele>801.88</ele>
        <time>2016-07-03T11:01:01Z</time>
      </trkpt>
      <trkpt lat="44.97318" lon="5.18707">
        <ele>800.92</ele>
        <time>2016-07-03T11:01:17Z</time>
      </trkpt>
      <trkpt lat="44.97322" lon="5.18712">
        <ele>804.28</ele>
        <time>2016-07-03T11:01:38Z</time>
      </trkpt>
      <trkpt lat="44.97322" lon="5.18712">
        <ele>804.28</ele>
        <time>2016-07-03T11:01:39Z</time>
      </trkpt>
      <trkpt lat="44.97328" lon="5.18717">
        <ele>807.16</ele>
        <time>2016-07-03T11:01:55Z</time>
      </trkpt>
      <trkpt lat="44.97333" lon="5.18721">
        <ele>810.53</ele>
        <time>2016-07-03T11:02:09Z</time>
      </trkpt>
      <trkpt lat="44.97338" lon="5.18722">
        <ele>813.41</ele>
        <time>2016-07-03T11:02:23Z</time>
      </trkpt>
      <trkpt lat="44.9734" lon="5.18718">
        <ele>815.34</ele>
        <time>2016-07-03T11:02:40Z</time>
      </trkpt>
      <trkpt lat="44.9734" lon="5.18717">
        <ele>815.82</ele>
        <time>2016-07-03T11:02:46Z</time>
      </trkpt>
      <trkpt lat="44.97333" lon="5.18726">
        <ele>814.85</ele>
        <time>2016-07-03T11:03:34Z</time>
      </trkpt>
      <trkpt lat="44.9733" lon="5.18723">
        <ele>814.85</ele>
        <time>2016-07-03T11:04:00Z</time>
      </trkpt>
      <trkpt lat="44.97329" lon="5.1872">
        <ele>814.85</ele>
        <time>2016-07-03T11:04:40Z</time>
      </trkpt>
      <trkpt lat="44.97334" lon="5.18724">
        <ele>814.37</ele>
        <time>2016-07-03T11:04:55Z</time>
      </trkpt>
      <trkpt lat="44.97336" lon="5.1872">
        <ele>811.97</ele>
        <time>2016-07-03T11:05:11Z</time>
      </trkpt>
      <trkpt lat="44.97332" lon="5.18717">
        <ele>809.09</ele>
        <time>2016-07-03T11:05:26Z</time>
      </trkpt>
      <trkpt lat="44.97328" lon="5.18715">
        <ele>805.72</ele>
        <time>2016-07-03T11:05:38Z</time>
      </trkpt>
      <trkpt lat="44.97325" lon="5.18709">
        <ele>802.36</ele>
        <time>2016-07-03T11:05:51Z</time>
      </trkpt>
      <trkpt lat="44.9732" lon="5.18705">
        <ele>798.99</ele>
        <time>2016-07-03T11:06:03Z</time>
      </trkpt>
      <trkpt lat="44.97318" lon="5.18705">
        <ele>797.55</ele>
        <time>2016-07-03T11:06:19Z</time>
      </trkpt>
      <trkpt lat="44.97317" lon="5.18713">
        <ele>798.99</ele>
        <time>2016-07-03T11:06:45Z</time>
      </trkpt>
      <trkpt lat="44.97317" lon="5.18734">
        <ele>798.51</ele>
        <time>2016-07-03T11:07:01Z</time>
      </trkpt>
      <trkpt lat="44.97313" lon="5.18755">
        <ele>796.59</ele>
        <time>2016-07-03T11:07:17Z</time>
      </trkpt>
      <trkpt lat="44.97309" lon="5.18759">
        <ele>794.19</ele>
        <time>2016-07-03T11:07:36Z</time>
      </trkpt>
      <trkpt lat="44.97306" lon="5.18757">
        <ele>791.3</ele>
        <time>2016-07-03T11:07:46Z</time>
      </trkpt>
      <trkpt lat="44.97299" lon="5.18764">
        <ele>787.46</ele>
        <time>2016-07-03T11:07:57Z</time>
      </trkpt>
      <trkpt lat="44.97293" lon="5.18769">
        <ele>785.53</ele>
        <time>2016-07-03T11:08:10Z</time>
      </trkpt>
      <trkpt lat="44.97288" lon="5.18776">
        <ele>782.17</ele>
        <time>2016-07-03T11:08:18Z</time>
      </trkpt>
      <trkpt lat="44.97284" lon="5.18774">
        <ele>779.29</ele>
        <time>2016-07-03T11:08:27Z</time>
      </trkpt>
      <trkpt lat="44.97277" lon="5.18783">
        <ele>776.88</ele>
        <time>2016-07-03T11:08:38Z</time>
      </trkpt>
      <trkpt lat="44.97269" lon="5.18785">
        <ele>775.92</ele>
        <time>2016-07-03T11:08:52Z</time>
      </trkpt>
      <trkpt lat="44.97268" lon="5.18776">
        <ele>773.04</ele>
        <time>2016-07-03T11:09:05Z</time>
      </trkpt>
      <trkpt lat="44.97266" lon="5.18771">
        <ele>770.15</ele>
        <time>2016-07-03T11:09:17Z</time>
      </trkpt>
      <trkpt lat="44.97265" lon="5.18762">
        <ele>768.23</ele>
        <time>2016-07-03T11:09:28Z</time>
      </trkpt>
      <trkpt lat="44.97264" lon="5.18753">
        <ele>764.87</ele>
        <time>2016-07-03T11:09:38Z</time>
      </trkpt>
      <trkpt lat="44.97261" lon="5.18749">
        <ele>761.98</ele>
        <time>2016-07-03T11:09:48Z</time>
      </trkpt>
      <trkpt lat="44.97254" lon="5.18747">
        <ele>758.62</ele>
        <time>2016-07-03T11:10:00Z</time>
      </trkpt>
      <trkpt lat="44.97251" lon="5.18747">
        <ele>757.18</ele>
        <time>2016-07-03T11:10:18Z</time>
      </trkpt>
      <trkpt lat="44.97253" lon="5.1874">
        <ele>755.25</ele>
        <time>2016-07-03T11:10:36Z</time>
      </trkpt>
      <trkpt lat="44.97251" lon="5.1873">
        <ele>751.89</ele>
        <time>2016-07-03T11:10:48Z</time>
      </trkpt>
      <trkpt lat="44.97246" lon="5.18735">
        <ele>749</ele>
        <time>2016-07-03T11:10:58Z</time>
      </trkpt>
      <trkpt lat="44.97238" lon="5.18739">
        <ele>745.64</ele>
        <time>2016-07-03T11:11:11Z</time>
      </trkpt>
      <trkpt lat="44.97231" lon="5.18745">
        <ele>742.28</ele>
        <time>2016-07-03T11:11:22Z</time>
      </trkpt>
      <trkpt lat="44.97231" lon="5.18746">
        <ele>742.28</ele>
        <time>2016-07-03T11:11:23Z</time>
      </trkpt>
      <trkpt lat="44.97228" lon="5.18748">
        <ele>741.31</ele>
        <time>2016-07-03T11:11:26Z</time>
      </trkpt>
      <trkpt lat="44.97221" lon="5.18755">
        <ele>737.95</ele>
        <time>2016-07-03T11:11:38Z</time>
      </trkpt>
      <trkpt lat="44.97214" lon="5.1876">
        <ele>735.07</ele>
        <time>2016-07-03T11:11:47Z</time>
      </trkpt>
      <trkpt lat="44.97208" lon="5.1877">
        <ele>731.7</ele>
        <time>2016-07-03T11:11:58Z</time>
      </trkpt>
      <trkpt lat="44.97204" lon="5.18778">
        <ele>728.82</ele>
        <time>2016-07-03T11:12:09Z</time>
      </trkpt>
      <trkpt lat="44.97201" lon="5.1879">
        <ele>725.45</ele>
        <time>2016-07-03T11:12:22Z</time>
      </trkpt>
      <trkpt lat="44.97195" lon="5.188">
        <ele>722.57</ele>
        <time>2016-07-03T11:12:34Z</time>
      </trkpt>
      <trkpt lat="44.97187" lon="5.18813">
        <ele>719.2</ele>
        <time>2016-07-03T11:12:49Z</time>
      </trkpt>
      <trkpt lat="44.97182" lon="5.1882">
        <ele>716.32</ele>
        <time>2016-07-03T11:13:00Z</time>
      </trkpt>
      <trkpt lat="44.97177" lon="5.18829">
        <ele>712.95</ele>
        <time>2016-07-03T11:13:13Z</time>
      </trkpt>
      <trkpt lat="44.97165" lon="5.1884">
        <ele>711.03</ele>
        <time>2016-07-03T11:13:29Z</time>
      </trkpt>
      <trkpt lat="44.97158" lon="5.18839">
        <ele>709.11</ele>
        <time>2016-07-03T11:13:42Z</time>
      </trkpt>
      <trkpt lat="44.97148" lon="5.18835">
        <ele>706.71</ele>
        <time>2016-07-03T11:13:54Z</time>
      </trkpt>
      <trkpt lat="44.97142" lon="5.18835">
        <ele>705.26</ele>
        <time>2016-07-03T11:13:59Z</time>
      </trkpt>
      <trkpt lat="44.9714" lon="5.18837">
        <ele>704.78</ele>
        <time>2016-07-03T11:14:02Z</time>
      </trkpt>
      <trkpt lat="44.97127" lon="5.18842">
        <ele>703.34</ele>
        <time>2016-07-03T11:14:17Z</time>
      </trkpt>
      <trkpt lat="44.9712" lon="5.18844">
        <ele>703.82</ele>
        <time>2016-07-03T11:14:24Z</time>
      </trkpt>
      <trkpt lat="44.97106" lon="5.18841">
        <ele>700.94</ele>
        <time>2016-07-03T11:14:38Z</time>
      </trkpt>
      <trkpt lat="44.97091" lon="5.18842">
        <ele>698.05</ele>
        <time>2016-07-03T11:14:54Z</time>
      </trkpt>
      <trkpt lat="44.97081" lon="5.18841">
        <ele>694.69</ele>
        <time>2016-07-03T11:15:05Z</time>
      </trkpt>
      <trkpt lat="44.97082" lon="5.18841">
        <ele>698.05</ele>
        <time>2016-07-03T11:15:07Z</time>
      </trkpt>
      <trkpt lat="44.97082" lon="5.1884">
        <ele>694.69</ele>
        <time>2016-07-03T11:15:12Z</time>
      </trkpt>
      <trkpt lat="44.97076" lon="5.1884">
        <ele>694.69</ele>
        <time>2016-07-03T11:15:27Z</time>
      </trkpt>
      <trkpt lat="44.97074" lon="5.1884">
        <ele>694.21</ele>
        <time>2016-07-03T11:15:29Z</time>
      </trkpt>
      <trkpt lat="44.97061" lon="5.18845">
        <ele>691.81</ele>
        <time>2016-07-03T11:15:42Z</time>
      </trkpt>
      <trkpt lat="44.97057" lon="5.18846">
        <ele>691.33</ele>
        <time>2016-07-03T11:15:46Z</time>
      </trkpt>
      <trkpt lat="44.97043" lon="5.18847">
        <ele>688.92</ele>
        <time>2016-07-03T11:16:01Z</time>
      </trkpt>
      <trkpt lat="44.97028" lon="5.18852">
        <ele>686.52</ele>
        <time>2016-07-03T11:16:16Z</time>
      </trkpt>
      <trkpt lat="44.97028" lon="5.18853">
        <ele>686.04</ele>
        <time>2016-07-03T11:16:17Z</time>
      </trkpt>
      <trkpt lat="44.97012" lon="5.18854">
        <ele>683.15</ele>
        <time>2016-07-03T11:16:34Z</time>
      </trkpt>
      <trkpt lat="44.97009" lon="5.18854">
        <ele>682.67</ele>
        <time>2016-07-03T11:16:38Z</time>
      </trkpt>
      <trkpt lat="44.97006" lon="5.18853">
        <ele>681.23</ele>
        <time>2016-07-03T11:16:42Z</time>
      </trkpt>
      <trkpt lat="44.96992" lon="5.18851">
        <ele>677.39</ele>
        <time>2016-07-03T11:16:57Z</time>
      </trkpt>
      <trkpt lat="44.96981" lon="5.18852">
        <ele>674.5</ele>
        <time>2016-07-03T11:17:10Z</time>
      </trkpt>
      <trkpt lat="44.96972" lon="5.18853">
        <ele>671.62</ele>
        <time>2016-07-03T11:17:22Z</time>
      </trkpt>
      <trkpt lat="44.9696" lon="5.18855">
        <ele>668.25</ele>
        <time>2016-07-03T11:17:36Z</time>
      </trkpt>
      <trkpt lat="44.96959" lon="5.18852">
        <ele>667.77</ele>
        <time>2016-07-03T11:17:39Z</time>
      </trkpt>
      <trkpt lat="44.96953" lon="5.18844">
        <ele>665.37</ele>
        <time>2016-07-03T11:17:53Z</time>
      </trkpt>
      <trkpt lat="44.96947" lon="5.18842">
        <ele>663.45</ele>
        <time>2016-07-03T11:18:05Z</time>
      </trkpt>
      <trkpt lat="44.9694" lon="5.18859">
        <ele>664.89</ele>
        <time>2016-07-03T11:18:22Z</time>
      </trkpt>
      <trkpt lat="44.96932" lon="5.18856">
        <ele>662.97</ele>
        <time>2016-07-03T11:18:39Z</time>
      </trkpt>
      <trkpt lat="44.9693" lon="5.18857">
        <ele>662.49</ele>
        <time>2016-07-03T11:18:54Z</time>
      </trkpt>
      <trkpt lat="44.96921" lon="5.18855">
        <ele>662.01</ele>
        <time>2016-07-03T11:19:05Z</time>
      </trkpt>
      <trkpt lat="44.96917" lon="5.18854">
        <ele>661.04</ele>
        <time>2016-07-03T11:19:09Z</time>
      </trkpt>
      <trkpt lat="44.96898" lon="5.18847">
        <ele>659.12</ele>
        <time>2016-07-03T11:19:26Z</time>
      </trkpt>
      <trkpt lat="44.96884" lon="5.18839">
        <ele>656.72</ele>
        <time>2016-07-03T11:19:40Z</time>
      </trkpt>
      <trkpt lat="44.96896" lon="5.18828">
        <ele>655.76</ele>
        <time>2016-07-03T11:19:55Z</time>
      </trkpt>
      <trkpt lat="44.96907" lon="5.18813">
        <ele>652.87</ele>
        <time>2016-07-03T11:20:09Z</time>
      </trkpt>
      <trkpt lat="44.96917" lon="5.18796">
        <ele>651.43</ele>
        <time>2016-07-03T11:20:25Z</time>
      </trkpt>
      <trkpt lat="44.96925" lon="5.18783">
        <ele>649.51</ele>
        <time>2016-07-03T11:20:38Z</time>
      </trkpt>
      <trkpt lat="44.96926" lon="5.18783">
        <ele>649.51</ele>
        <time>2016-07-03T11:20:39Z</time>
      </trkpt>
      <trkpt lat="44.96944" lon="5.18784">
        <ele>646.62</ele>
        <time>2016-07-03T11:20:56Z</time>
      </trkpt>
      <trkpt lat="44.96954" lon="5.18789">
        <ele>643.74</ele>
        <time>2016-07-03T11:21:08Z</time>
      </trkpt>
      <trkpt lat="44.96969" lon="5.18791">
        <ele>642.78</ele>
        <time>2016-07-03T11:21:25Z</time>
      </trkpt>
      <trkpt lat="44.96982" lon="5.18785">
        <ele>640.38</ele>
        <time>2016-07-03T11:21:45Z</time>
      </trkpt>
      <trkpt lat="44.96993" lon="5.18777">
        <ele>638.45</ele>
        <time>2016-07-03T11:22:01Z</time>
      </trkpt>
      <trkpt lat="44.97007" lon="5.18773">
        <ele>636.05</ele>
        <time>2016-07-03T11:22:17Z</time>
      </trkpt>
      <trkpt lat="44.97018" lon="5.18762">
        <ele>634.13</ele>
        <time>2016-07-03T11:22:28Z</time>
      </trkpt>
      <trkpt lat="44.97027" lon="5.18753">
        <ele>631.24</ele>
        <time>2016-07-03T11:22:41Z</time>
      </trkpt>
      <trkpt lat="44.97037" lon="5.18742">
        <ele>627.88</ele>
        <time>2016-07-03T11:22:56Z</time>
      </trkpt>
      <trkpt lat="44.97043" lon="5.18731">
        <ele>624.99</ele>
        <time>2016-07-03T11:23:09Z</time>
      </trkpt>
      <trkpt lat="44.97046" lon="5.1872">
        <ele>624.51</ele>
        <time>2016-07-03T11:23:25Z</time>
      </trkpt>
      <trkpt lat="44.97048" lon="5.18718">
        <ele>624.51</ele>
        <time>2016-07-03T11:23:48Z</time>
      </trkpt>
      <trkpt lat="44.97048" lon="5.18714">
        <ele>624.51</ele>
        <time>2016-07-03T11:24:13Z</time>
      </trkpt>
      <trkpt lat="44.97037" lon="5.18702">
        <ele>624.51</ele>
        <time>2016-07-03T11:24:27Z</time>
      </trkpt>
      <trkpt lat="44.97022" lon="5.18687">
        <ele>622.11</ele>
        <time>2016-07-03T11:24:43Z</time>
      </trkpt>
      <trkpt lat="44.97014" lon="5.18671">
        <ele>620.67</ele>
        <time>2016-07-03T11:24:54Z</time>
      </trkpt>
      <trkpt lat="44.97002" lon="5.18648">
        <ele>618.26</ele>
        <time>2016-07-03T11:25:09Z</time>
      </trkpt>
      <trkpt lat="44.96994" lon="5.1862">
        <ele>614.9</ele>
        <time>2016-07-03T11:25:26Z</time>
      </trkpt>
      <trkpt lat="44.96993" lon="5.18591">
        <ele>613.46</ele>
        <time>2016-07-03T11:25:43Z</time>
      </trkpt>
      <trkpt lat="44.96991" lon="5.18567">
        <ele>612.98</ele>
        <time>2016-07-03T11:25:58Z</time>
      </trkpt>
      <trkpt lat="44.96984" lon="5.18548">
        <ele>612.98</ele>
        <time>2016-07-03T11:26:11Z</time>
      </trkpt>
      <trkpt lat="44.96973" lon="5.18525">
        <ele>613.46</ele>
        <time>2016-07-03T11:26:27Z</time>
      </trkpt>
      <trkpt lat="44.96969" lon="5.18499">
        <ele>611.06</ele>
        <time>2016-07-03T11:26:43Z</time>
      </trkpt>
      <trkpt lat="44.96963" lon="5.18474">
        <ele>609.13</ele>
        <time>2016-07-03T11:27:00Z</time>
      </trkpt>
      <trkpt lat="44.96951" lon="5.18449">
        <ele>609.61</ele>
        <time>2016-07-03T11:27:18Z</time>
      </trkpt>
      <trkpt lat="44.96937" lon="5.1843">
        <ele>608.65</ele>
        <time>2016-07-03T11:27:36Z</time>
      </trkpt>
      <trkpt lat="44.96922" lon="5.18419">
        <ele>608.17</ele>
        <time>2016-07-03T11:27:50Z</time>
      </trkpt>
      <trkpt lat="44.96919" lon="5.18419">
        <ele>607.21</ele>
        <time>2016-07-03T11:27:53Z</time>
      </trkpt>
      <trkpt lat="44.96902" lon="5.18431">
        <ele>605.77</ele>
        <time>2016-07-03T11:28:11Z</time>
      </trkpt>
      <trkpt lat="44.96886" lon="5.18443">
        <ele>602.88</ele>
        <time>2016-07-03T11:28:26Z</time>
      </trkpt>
      <trkpt lat="44.96872" lon="5.18449">
        <ele>599.04</ele>
        <time>2016-07-03T11:28:40Z</time>
      </trkpt>
      <trkpt lat="44.96856" lon="5.18456">
        <ele>596.15</ele>
        <time>2016-07-03T11:28:56Z</time>
      </trkpt>
      <trkpt lat="44.9684" lon="5.18469">
        <ele>593.27</ele>
        <time>2016-07-03T11:29:13Z</time>
      </trkpt>
      <trkpt lat="44.96828" lon="5.18476">
        <ele>589.91</ele>
        <time>2016-07-03T11:29:26Z</time>
      </trkpt>
      <trkpt lat="44.96814" lon="5.1848">
        <ele>587.02</ele>
        <time>2016-07-03T11:29:40Z</time>
      </trkpt>
      <trkpt lat="44.968" lon="5.18474">
        <ele>584.62</ele>
        <time>2016-07-03T11:29:54Z</time>
      </trkpt>
      <trkpt lat="44.96792" lon="5.18467">
        <ele>583.18</ele>
        <time>2016-07-03T11:30:11Z</time>
      </trkpt>
      <trkpt lat="44.96782" lon="5.18462">
        <ele>581.25</ele>
        <time>2016-07-03T11:30:26Z</time>
      </trkpt>
      <trkpt lat="44.9677" lon="5.18452">
        <ele>578.37</ele>
        <time>2016-07-03T11:30:39Z</time>
      </trkpt>
      <trkpt lat="44.96758" lon="5.18442">
        <ele>575.49</ele>
        <time>2016-07-03T11:30:52Z</time>
      </trkpt>
      <trkpt lat="44.9675" lon="5.18441">
        <ele>574.04</ele>
        <time>2016-07-03T11:30:59Z</time>
      </trkpt>
      <trkpt lat="44.9674" lon="5.18434">
        <ele>572.12</ele>
        <time>2016-07-03T11:31:08Z</time>
      </trkpt>
      <trkpt lat="44.96731" lon="5.18415">
        <ele>570.68</ele>
        <time>2016-07-03T11:31:24Z</time>
      </trkpt>
      <trkpt lat="44.9673" lon="5.18412">
        <ele>570.2</ele>
        <time>2016-07-03T11:31:26Z</time>
      </trkpt>
      <trkpt lat="44.96725" lon="5.18387">
        <ele>567.8</ele>
        <time>2016-07-03T11:31:43Z</time>
      </trkpt>
      <trkpt lat="44.96724" lon="5.18378">
        <ele>567.8</ele>
        <time>2016-07-03T11:31:48Z</time>
      </trkpt>
      <trkpt lat="44.96722" lon="5.18373">
        <ele>567.32</ele>
        <time>2016-07-03T11:31:51Z</time>
      </trkpt>
      <trkpt lat="44.96717" lon="5.18361">
        <ele>565.87</ele>
        <time>2016-07-03T11:31:59Z</time>
      </trkpt>
      <trkpt lat="44.96705" lon="5.18337">
        <ele>564.43</ele>
        <time>2016-07-03T11:32:17Z</time>
      </trkpt>
      <trkpt lat="44.96697" lon="5.18322">
        <ele>563.47</ele>
        <time>2016-07-03T11:32:28Z</time>
      </trkpt>
      <trkpt lat="44.96694" lon="5.18317">
        <ele>562.51</ele>
        <time>2016-07-03T11:32:32Z</time>
      </trkpt>
      <trkpt lat="44.96682" lon="5.18297">
        <ele>559.14</ele>
        <time>2016-07-03T11:32:48Z</time>
      </trkpt>
      <trkpt lat="44.96673" lon="5.18283">
        <ele>557.22</ele>
        <time>2016-07-03T11:32:59Z</time>
      </trkpt>
      <trkpt lat="44.96672" lon="5.18281">
        <ele>556.26</ele>
        <time>2016-07-03T11:33:01Z</time>
      </trkpt>
      <trkpt lat="44.96665" lon="5.18264">
        <ele>554.82</ele>
        <time>2016-07-03T11:33:16Z</time>
      </trkpt>
      <trkpt lat="44.9666" lon="5.18262">
        <ele>554.82</ele>
        <time>2016-07-03T11:33:35Z</time>
      </trkpt>
      <trkpt lat="44.96655" lon="5.18258">
        <ele>553.38</ele>
        <time>2016-07-03T11:33:41Z</time>
      </trkpt>
      <trkpt lat="44.96652" lon="5.18257">
        <ele>553.86</ele>
        <time>2016-07-03T11:33:44Z</time>
      </trkpt>
      <trkpt lat="44.96651" lon="5.18254">
        <ele>552.41</ele>
        <time>2016-07-03T11:33:46Z</time>
      </trkpt>
      <trkpt lat="44.9665" lon="5.18245">
        <ele>551.45</ele>
        <time>2016-07-03T11:33:54Z</time>
      </trkpt>
      <trkpt lat="44.9666" lon="5.18238">
        <ele>549.53</ele>
        <time>2016-07-03T11:34:06Z</time>
      </trkpt>
      <trkpt lat="44.96668" lon="5.18221">
        <ele>548.57</ele>
        <time>2016-07-03T11:34:19Z</time>
      </trkpt>
      <trkpt lat="44.96666" lon="5.18211">
        <ele>544.72</ele>
        <time>2016-07-03T11:34:26Z</time>
      </trkpt>
      <trkpt lat="44.96665" lon="5.18209">
        <ele>543.76</ele>
        <time>2016-07-03T11:34:28Z</time>
      </trkpt>
      <trkpt lat="44.96655" lon="5.18197">
        <ele>542.32</ele>
        <time>2016-07-03T11:34:40Z</time>
      </trkpt>
      <trkpt lat="44.96655" lon="5.18196">
        <ele>542.32</ele>
        <time>2016-07-03T11:34:41Z</time>
      </trkpt>
      <trkpt lat="44.96647" lon="5.18181">
        <ele>539.92</ele>
        <time>2016-07-03T11:34:54Z</time>
      </trkpt>
      <trkpt lat="44.96646" lon="5.18179">
        <ele>539.44</ele>
        <time>2016-07-03T11:34:55Z</time>
      </trkpt>
      <trkpt lat="44.96643" lon="5.18167">
        <ele>537.51</ele>
        <time>2016-07-03T11:35:04Z</time>
      </trkpt>
      <trkpt lat="44.9664" lon="5.18153">
        <ele>534.63</ele>
        <time>2016-07-03T11:35:14Z</time>
      </trkpt>
      <trkpt lat="44.96639" lon="5.18152">
        <ele>534.63</ele>
        <time>2016-07-03T11:35:15Z</time>
      </trkpt>
      <trkpt lat="44.96637" lon="5.18149">
        <ele>534.15</ele>
        <time>2016-07-03T11:35:18Z</time>
      </trkpt>
      <trkpt lat="44.96631" lon="5.18127">
        <ele>530.79</ele>
        <time>2016-07-03T11:35:34Z</time>
      </trkpt>
      <trkpt lat="44.96631" lon="5.18124">
        <ele>529.82</ele>
        <time>2016-07-03T11:35:36Z</time>
      </trkpt>
      <trkpt lat="44.96627" lon="5.18117">
        <ele>527.9</ele>
        <time>2016-07-03T11:35:42Z</time>
      </trkpt>
      <trkpt lat="44.96624" lon="5.18101">
        <ele>525.5</ele>
        <time>2016-07-03T11:35:52Z</time>
      </trkpt>
      <trkpt lat="44.96621" lon="5.18078">
        <ele>522.13</ele>
        <time>2016-07-03T11:36:07Z</time>
      </trkpt>
      <trkpt lat="44.96613" lon="5.18056">
        <ele>519.25</ele>
        <time>2016-07-03T11:36:22Z</time>
      </trkpt>
      <trkpt lat="44.96609" lon="5.18052">
        <ele>518.29</ele>
        <time>2016-07-03T11:36:26Z</time>
      </trkpt>
      <trkpt lat="44.96605" lon="5.18052">
        <ele>517.81</ele>
        <time>2016-07-03T11:36:29Z</time>
      </trkpt>
      <trkpt lat="44.96599" lon="5.18066">
        <ele>516.85</ele>
        <time>2016-07-03T11:36:38Z</time>
      </trkpt>
      <trkpt lat="44.96596" lon="5.18073">
        <ele>516.85</ele>
        <time>2016-07-03T11:36:43Z</time>
      </trkpt>
      <trkpt lat="44.96589" lon="5.18061">
        <ele>514.44</ele>
        <time>2016-07-03T11:36:55Z</time>
      </trkpt>
      <trkpt lat="44.96589" lon="5.18056">
        <ele>514.44</ele>
        <time>2016-07-03T11:36:58Z</time>
      </trkpt>
      <trkpt lat="44.9658" lon="5.18037">
        <ele>512.04</ele>
        <time>2016-07-03T11:37:10Z</time>
      </trkpt>
      <trkpt lat="44.96569" lon="5.18019">
        <ele>509.64</ele>
        <time>2016-07-03T11:37:25Z</time>
      </trkpt>
      <trkpt lat="44.96555" lon="5.18003">
        <ele>506.27</ele>
        <time>2016-07-03T11:37:40Z</time>
      </trkpt>
      <trkpt lat="44.96553" lon="5.17999">
        <ele>504.83</ele>
        <time>2016-07-03T11:37:43Z</time>
      </trkpt>
      <trkpt lat="44.96552" lon="5.17995">
        <ele>504.83</ele>
        <time>2016-07-03T11:37:46Z</time>
      </trkpt>
      <trkpt lat="44.96552" lon="5.17986">
        <ele>503.39</ele>
        <time>2016-07-03T11:37:52Z</time>
      </trkpt>
      <trkpt lat="44.96565" lon="5.17983">
        <ele>501.46</ele>
        <time>2016-07-03T11:38:04Z</time>
      </trkpt>
      <trkpt lat="44.96582" lon="5.17984">
        <ele>500.02</ele>
        <time>2016-07-03T11:38:20Z</time>
      </trkpt>
      <trkpt lat="44.96587" lon="5.17978">
        <ele>500.02</ele>
        <time>2016-07-03T11:38:34Z</time>
      </trkpt>
      <trkpt lat="44.96588" lon="5.17973">
        <ele>499.54</ele>
        <time>2016-07-03T11:38:38Z</time>
      </trkpt>
      <trkpt lat="44.96589" lon="5.17961">
        <ele>499.06</ele>
        <time>2016-07-03T11:38:44Z</time>
      </trkpt>
      <trkpt lat="44.96589" lon="5.1793">
        <ele>498.1</ele>
        <time>2016-07-03T11:39:03Z</time>
      </trkpt>
      <trkpt lat="44.96585" lon="5.17897">
        <ele>497.14</ele>
        <time>2016-07-03T11:39:21Z</time>
      </trkpt>
      <trkpt lat="44.96585" lon="5.17868">
        <ele>494.74</ele>
        <time>2016-07-03T11:39:38Z</time>
      </trkpt>
      <trkpt lat="44.96585" lon="5.17856">
        <ele>493.29</ele>
        <time>2016-07-03T11:39:45Z</time>
      </trkpt>
      <trkpt lat="44.96581" lon="5.17832">
        <ele>490.41</ele>
        <time>2016-07-03T11:39:59Z</time>
      </trkpt>
      <trkpt lat="44.96572" lon="5.17813">
        <ele>487.05</ele>
        <time>2016-07-03T11:40:14Z</time>
      </trkpt>
      <trkpt lat="44.96567" lon="5.17788">
        <ele>484.16</ele>
        <time>2016-07-03T11:40:30Z</time>
      </trkpt>
      <trkpt lat="44.96564" lon="5.17777">
        <ele>483.2</ele>
        <time>2016-07-03T11:40:45Z</time>
      </trkpt>
      <trkpt lat="44.96564" lon="5.17779">
        <ele>483.2</ele>
        <time>2016-07-03T11:41:05Z</time>
      </trkpt>
      <trkpt lat="44.96563" lon="5.17781">
        <ele>482.72</ele>
        <time>2016-07-03T11:41:27Z</time>
      </trkpt>
      <trkpt lat="44.96564" lon="5.17782">
        <ele>482.72</ele>
        <time>2016-07-03T11:41:53Z</time>
      </trkpt>
      <trkpt lat="44.96563" lon="5.1777">
        <ele>482.24</ele>
        <time>2016-07-03T11:42:08Z</time>
      </trkpt>
      <trkpt lat="44.96568" lon="5.17755">
        <ele>479.35</ele>
        <time>2016-07-03T11:42:21Z</time>
      </trkpt>
      <trkpt lat="44.96578" lon="5.17742">
        <ele>477.43</ele>
        <time>2016-07-03T11:42:38Z</time>
      </trkpt>
      <trkpt lat="44.96597" lon="5.17732">
        <ele>476.95</ele>
        <time>2016-07-03T11:42:55Z</time>
      </trkpt>
      <trkpt lat="44.9661" lon="5.17714">
        <ele>476.47</ele>
        <time>2016-07-03T11:43:12Z</time>
      </trkpt>
      <trkpt lat="44.96619" lon="5.17695">
        <ele>475.51</ele>
        <time>2016-07-03T11:43:25Z</time>
      </trkpt>
      <trkpt lat="44.96621" lon="5.17683">
        <ele>475.51</ele>
        <time>2016-07-03T11:43:40Z</time>
      </trkpt>
      <trkpt lat="44.9662" lon="5.17657">
        <ele>476.47</ele>
        <time>2016-07-03T11:43:57Z</time>
      </trkpt>
      <trkpt lat="44.96628" lon="5.17647">
        <ele>477.91</ele>
        <time>2016-07-03T11:44:09Z</time>
      </trkpt>
      <trkpt lat="44.96638" lon="5.17639">
        <ele>480.32</ele>
        <time>2016-07-03T11:44:22Z</time>
      </trkpt>
      <trkpt lat="44.96643" lon="5.1763">
        <ele>482.24</ele>
        <time>2016-07-03T11:44:32Z</time>
      </trkpt>
      <trkpt lat="44.96647" lon="5.17628">
        <ele>482.72</ele>
        <time>2016-07-03T11:44:47Z</time>
      </trkpt>
      <trkpt lat="44.96657" lon="5.17614">
        <ele>485.12</ele>
        <time>2016-07-03T11:45:00Z</time>
      </trkpt>
      <trkpt lat="44.9666" lon="5.17598">
        <ele>484.64</ele>
        <time>2016-07-03T11:45:13Z</time>
      </trkpt>
      <trkpt lat="44.96667" lon="5.17585">
        <ele>486.56</ele>
        <time>2016-07-03T11:45:26Z</time>
      </trkpt>
      <trkpt lat="44.96673" lon="5.17566">
        <ele>488.01</ele>
        <time>2016-07-03T11:45:41Z</time>
      </trkpt>
      <trkpt lat="44.9668" lon="5.17551">
        <ele>488.97</ele>
        <time>2016-07-03T11:45:53Z</time>
      </trkpt>
      <trkpt lat="44.96688" lon="5.1753">
        <ele>489.93</ele>
        <time>2016-07-03T11:46:10Z</time>
      </trkpt>
      <trkpt lat="44.96695" lon="5.1751">
        <ele>490.41</ele>
        <time>2016-07-03T11:46:24Z</time>
      </trkpt>
      <trkpt lat="44.967" lon="5.17491">
        <ele>490.89</ele>
        <time>2016-07-03T11:46:40Z</time>
      </trkpt>
      <trkpt lat="44.96703" lon="5.17483">
        <ele>491.85</ele>
        <time>2016-07-03T11:47:02Z</time>
      </trkpt>
      <trkpt lat="44.96708" lon="5.1747">
        <ele>493.29</ele>
        <time>2016-07-03T11:47:12Z</time>
      </trkpt>
      <trkpt lat="44.96715" lon="5.1746">
        <ele>494.26</ele>
        <time>2016-07-03T11:47:21Z</time>
      </trkpt>
      <trkpt lat="44.96721" lon="5.17439">
        <ele>494.74</ele>
        <time>2016-07-03T11:47:36Z</time>
      </trkpt>
      <trkpt lat="44.96726" lon="5.1743">
        <ele>495.22</ele>
        <time>2016-07-03T11:47:53Z</time>
      </trkpt>
      <trkpt lat="44.96727" lon="5.17432">
        <ele>495.7</ele>
        <time>2016-07-03T11:48:15Z</time>
      </trkpt>
      <trkpt lat="44.96733" lon="5.17437">
        <ele>495.7</ele>
        <time>2016-07-03T11:48:42Z</time>
      </trkpt>
      <trkpt lat="44.96735" lon="5.17435">
        <ele>495.22</ele>
        <time>2016-07-03T11:49:19Z</time>
      </trkpt>
      <trkpt lat="44.96741" lon="5.17429">
        <ele>495.7</ele>
        <time>2016-07-03T11:49:39Z</time>
      </trkpt>
      <trkpt lat="44.96742" lon="5.17416">
        <ele>496.18</ele>
        <time>2016-07-03T11:49:52Z</time>
      </trkpt>
      <trkpt lat="44.96741" lon="5.17412">
        <ele>496.18</ele>
        <time>2016-07-03T11:50:10Z</time>
      </trkpt>
      <trkpt lat="44.96739" lon="5.17386">
        <ele>497.62</ele>
        <time>2016-07-03T11:50:24Z</time>
      </trkpt>
      <trkpt lat="44.96737" lon="5.17378">
        <ele>498.1</ele>
        <time>2016-07-03T11:50:29Z</time>
      </trkpt>
      <trkpt lat="44.9673" lon="5.17351">
        <ele>500.02</ele>
        <time>2016-07-03T11:50:47Z</time>
      </trkpt>
      <trkpt lat="44.96716" lon="5.17331">
        <ele>500.98</ele>
        <time>2016-07-03T11:51:03Z</time>
      </trkpt>
      <trkpt lat="44.96704" lon="5.17311">
        <ele>501.95</ele>
        <time>2016-07-03T11:51:22Z</time>
      </trkpt>
      <trkpt lat="44.9669" lon="5.17288">
        <ele>503.39</ele>
        <time>2016-07-03T11:51:41Z</time>
      </trkpt>
      <trkpt lat="44.96688" lon="5.17265">
        <ele>505.31</ele>
        <time>2016-07-03T11:51:57Z</time>
      </trkpt>
      <trkpt lat="44.96697" lon="5.17242">
        <ele>506.75</ele>
        <time>2016-07-03T11:52:14Z</time>
      </trkpt>
      <trkpt lat="44.96699" lon="5.17215">
        <ele>507.71</ele>
        <time>2016-07-03T11:52:30Z</time>
      </trkpt>
      <trkpt lat="44.96702" lon="5.17192">
        <ele>509.64</ele>
        <time>2016-07-03T11:52:46Z</time>
      </trkpt>
      <trkpt lat="44.96711" lon="5.17187">
        <ele>509.64</ele>
        <time>2016-07-03T11:52:54Z</time>
      </trkpt>
      <trkpt lat="44.9673" lon="5.172">
        <ele>510.6</ele>
        <time>2016-07-03T11:53:08Z</time>
      </trkpt>
      <trkpt lat="44.96743" lon="5.17216">
        <ele>513</ele>
        <time>2016-07-03T11:53:24Z</time>
      </trkpt>
      <trkpt lat="44.96752" lon="5.17216">
        <ele>513.48</ele>
        <time>2016-07-03T11:53:34Z</time>
      </trkpt>
      <trkpt lat="44.96768" lon="5.17192">
        <ele>514.92</ele>
        <time>2016-07-03T11:53:52Z</time>
      </trkpt>
      <trkpt lat="44.96778" lon="5.17176">
        <ele>516.85</ele>
        <time>2016-07-03T11:54:07Z</time>
      </trkpt>
      <trkpt lat="44.96785" lon="5.17166">
        <ele>518.29</ele>
        <time>2016-07-03T11:54:19Z</time>
      </trkpt>
      <trkpt lat="44.96795" lon="5.17161">
        <ele>519.25</ele>
        <time>2016-07-03T11:54:34Z</time>
      </trkpt>
      <trkpt lat="44.9681" lon="5.1716">
        <ele>521.17</ele>
        <time>2016-07-03T11:54:49Z</time>
      </trkpt>
      <trkpt lat="44.96818" lon="5.17158">
        <ele>522.61</ele>
        <time>2016-07-03T11:55:05Z</time>
      </trkpt>
      <trkpt lat="44.96821" lon="5.17157">
        <ele>520.69</ele>
        <time>2016-07-03T11:55:32Z</time>
      </trkpt>
      <trkpt lat="44.96826" lon="5.17155">
        <ele>522.13</ele>
        <time>2016-07-03T11:55:56Z</time>
      </trkpt>
      <trkpt lat="44.96841" lon="5.17142">
        <ele>524.54</ele>
        <time>2016-07-03T11:56:12Z</time>
      </trkpt>
      <trkpt lat="44.96859" lon="5.17131">
        <ele>526.46</ele>
        <time>2016-07-03T11:56:28Z</time>
      </trkpt>
      <trkpt lat="44.96876" lon="5.17125">
        <ele>527.42</ele>
        <time>2016-07-03T11:56:42Z</time>
      </trkpt>
      <trkpt lat="44.96892" lon="5.17124">
        <ele>527.9</ele>
        <time>2016-07-03T11:56:56Z</time>
      </trkpt>
      <trkpt lat="44.96908" lon="5.17126">
        <ele>530.3</ele>
        <time>2016-07-03T11:57:11Z</time>
      </trkpt>
      <trkpt lat="44.96926" lon="5.17129">
        <ele>531.27</ele>
        <time>2016-07-03T11:57:26Z</time>
      </trkpt>
      <trkpt lat="44.96933" lon="5.17131">
        <ele>531.75</ele>
        <time>2016-07-03T11:57:42Z</time>
      </trkpt>
      <trkpt lat="44.96939" lon="5.17133">
        <ele>532.23</ele>
        <time>2016-07-03T11:57:57Z</time>
      </trkpt>
      <trkpt lat="44.96954" lon="5.17136">
        <ele>533.19</ele>
        <time>2016-07-03T11:58:13Z</time>
      </trkpt>
      <trkpt lat="44.96955" lon="5.17136">
        <ele>532.71</ele>
        <time>2016-07-03T11:58:31Z</time>
      </trkpt>
      <trkpt lat="44.9696" lon="5.17139">
        <ele>533.19</ele>
        <time>2016-07-03T11:58:49Z</time>
      </trkpt>
      <trkpt lat="44.96977" lon="5.17144">
        <ele>534.63</ele>
        <time>2016-07-03T11:59:04Z</time>
      </trkpt>
      <trkpt lat="44.96977" lon="5.17136">
        <ele>534.63</ele>
        <time>2016-07-03T11:59:16Z</time>
      </trkpt>
      <trkpt lat="44.96961" lon="5.17127">
        <ele>535.59</ele>
        <time>2016-07-03T11:59:32Z</time>
      </trkpt>
      <trkpt lat="44.96943" lon="5.17122">
        <ele>536.07</ele>
        <time>2016-07-03T11:59:48Z</time>
      </trkpt>
      <trkpt lat="44.9693" lon="5.17116">
        <ele>537.51</ele>
        <time>2016-07-03T12:00:02Z</time>
      </trkpt>
      <trkpt lat="44.9692" lon="5.17103">
        <ele>539.44</ele>
        <time>2016-07-03T12:00:17Z</time>
      </trkpt>
      <trkpt lat="44.96903" lon="5.17093">
        <ele>540.88</ele>
        <time>2016-07-03T12:00:34Z</time>
      </trkpt>
      <trkpt lat="44.96889" lon="5.17082">
        <ele>544.72</ele>
        <time>2016-07-03T12:00:50Z</time>
      </trkpt>
      <trkpt lat="44.96882" lon="5.17083">
        <ele>545.69</ele>
        <time>2016-07-03T12:01:04Z</time>
      </trkpt>
      <trkpt lat="44.9688" lon="5.17085">
        <ele>544.72</ele>
        <time>2016-07-03T12:01:19Z</time>
      </trkpt>
      <trkpt lat="44.96873" lon="5.17082">
        <ele>546.65</ele>
        <time>2016-07-03T12:01:37Z</time>
      </trkpt>
      <trkpt lat="44.9686" lon="5.17076">
        <ele>549.05</ele>
        <time>2016-07-03T12:01:54Z</time>
      </trkpt>
      <trkpt lat="44.96848" lon="5.1707">
        <ele>551.45</ele>
        <time>2016-07-03T12:02:08Z</time>
      </trkpt>
      <trkpt lat="44.96836" lon="5.17062">
        <ele>553.38</ele>
        <time>2016-07-03T12:02:23Z</time>
      </trkpt>
      <trkpt lat="44.96823" lon="5.17057">
        <ele>556.26</ele>
        <time>2016-07-03T12:02:38Z</time>
      </trkpt>
      <trkpt lat="44.96811" lon="5.17051">
        <ele>557.7</ele>
        <time>2016-07-03T12:02:53Z</time>
      </trkpt>
      <trkpt lat="44.96799" lon="5.17044">
        <ele>559.62</ele>
        <time>2016-07-03T12:03:08Z</time>
      </trkpt>
      <trkpt lat="44.96785" lon="5.17036">
        <ele>561.55</ele>
        <time>2016-07-03T12:03:24Z</time>
      </trkpt>
      <trkpt lat="44.96773" lon="5.17028">
        <ele>562.51</ele>
        <time>2016-07-03T12:03:40Z</time>
      </trkpt>
      <trkpt lat="44.96762" lon="5.17019">
        <ele>565.39</ele>
        <time>2016-07-03T12:03:55Z</time>
      </trkpt>
      <trkpt lat="44.96755" lon="5.17003">
        <ele>567.32</ele>
        <time>2016-07-03T12:04:11Z</time>
      </trkpt>
      <trkpt lat="44.96746" lon="5.16992">
        <ele>570.2</ele>
        <time>2016-07-03T12:04:27Z</time>
      </trkpt>
      <trkpt lat="44.96738" lon="5.16981">
        <ele>573.56</ele>
        <time>2016-07-03T12:04:46Z</time>
      </trkpt>
      <trkpt lat="44.96735" lon="5.16979">
        <ele>573.08</ele>
        <time>2016-07-03T12:05:08Z</time>
      </trkpt>
      <trkpt lat="44.96733" lon="5.16984">
        <ele>573.08</ele>
        <time>2016-07-03T12:05:40Z</time>
      </trkpt>
      <trkpt lat="44.96736" lon="5.16984">
        <ele>573.56</ele>
        <time>2016-07-03T12:06:02Z</time>
      </trkpt>
      <trkpt lat="44.96736" lon="5.16986">
        <ele>573.56</ele>
        <time>2016-07-03T12:06:29Z</time>
      </trkpt>
      <trkpt lat="44.96735" lon="5.16985">
        <ele>573.56</ele>
        <time>2016-07-03T12:06:59Z</time>
      </trkpt>
      <trkpt lat="44.96731" lon="5.16975">
        <ele>574.53</ele>
        <time>2016-07-03T12:07:12Z</time>
      </trkpt>
      <trkpt lat="44.96722" lon="5.16961">
        <ele>577.41</ele>
        <time>2016-07-03T12:07:29Z</time>
      </trkpt>
      <trkpt lat="44.96713" lon="5.16942">
        <ele>579.81</ele>
        <time>2016-07-03T12:07:47Z</time>
      </trkpt>
      <trkpt lat="44.96705" lon="5.16927">
        <ele>581.73</ele>
        <time>2016-07-03T12:08:02Z</time>
      </trkpt>
      <trkpt lat="44.96696" lon="5.16913">
        <ele>584.14</ele>
        <time>2016-07-03T12:08:17Z</time>
      </trkpt>
      <trkpt lat="44.96687" lon="5.16902">
        <ele>584.62</ele>
        <time>2016-07-03T12:08:30Z</time>
      </trkpt>
      <trkpt lat="44.96676" lon="5.16893">
        <ele>586.54</ele>
        <time>2016-07-03T12:08:45Z</time>
      </trkpt>
      <trkpt lat="44.96668" lon="5.16881">
        <ele>587.98</ele>
        <time>2016-07-03T12:09:02Z</time>
      </trkpt>
      <trkpt lat="44.96667" lon="5.16883">
        <ele>588.46</ele>
        <time>2016-07-03T12:09:18Z</time>
      </trkpt>
      <trkpt lat="44.96666" lon="5.16882">
        <ele>587.98</ele>
        <time>2016-07-03T12:09:37Z</time>
      </trkpt>
      <trkpt lat="44.96673" lon="5.16878">
        <ele>589.91</ele>
        <time>2016-07-03T12:09:46Z</time>
      </trkpt>
      <trkpt lat="44.96675" lon="5.16879">
        <ele>589.91</ele>
        <time>2016-07-03T12:09:48Z</time>
      </trkpt>
      <trkpt lat="44.96688" lon="5.16876">
        <ele>593.27</ele>
        <time>2016-07-03T12:10:05Z</time>
      </trkpt>
      <trkpt lat="44.96692" lon="5.1687">
        <ele>596.15</ele>
        <time>2016-07-03T12:10:16Z</time>
      </trkpt>
      <trkpt lat="44.96697" lon="5.16874">
        <ele>598.08</ele>
        <time>2016-07-03T12:10:24Z</time>
      </trkpt>
      <trkpt lat="44.96706" lon="5.16881">
        <ele>600</ele>
        <time>2016-07-03T12:10:38Z</time>
      </trkpt>
      <trkpt lat="44.96711" lon="5.16879">
        <ele>603.36</ele>
        <time>2016-07-03T12:10:48Z</time>
      </trkpt>
      <trkpt lat="44.96715" lon="5.16883">
        <ele>603.85</ele>
        <time>2016-07-03T12:11:06Z</time>
      </trkpt>
      <trkpt lat="44.96722" lon="5.1689">
        <ele>606.25</ele>
        <time>2016-07-03T12:11:17Z</time>
      </trkpt>
      <trkpt lat="44.9673" lon="5.16896">
        <ele>608.65</ele>
        <time>2016-07-03T12:11:28Z</time>
      </trkpt>
      <trkpt lat="44.96739" lon="5.16903">
        <ele>610.09</ele>
        <time>2016-07-03T12:11:41Z</time>
      </trkpt>
      <trkpt lat="44.96746" lon="5.16904">
        <ele>613.46</ele>
        <time>2016-07-03T12:11:53Z</time>
      </trkpt>
      <trkpt lat="44.96754" lon="5.16904">
        <ele>616.34</ele>
        <time>2016-07-03T12:12:06Z</time>
      </trkpt>
      <trkpt lat="44.96756" lon="5.16899">
        <ele>617.3</ele>
        <time>2016-07-03T12:12:16Z</time>
      </trkpt>
      <trkpt lat="44.96755" lon="5.16894">
        <ele>618.26</ele>
        <time>2016-07-03T12:12:20Z</time>
      </trkpt>
      <trkpt lat="44.96761" lon="5.16881">
        <ele>619.23</ele>
        <time>2016-07-03T12:12:34Z</time>
      </trkpt>
      <trkpt lat="44.96762" lon="5.16879">
        <ele>619.71</ele>
        <time>2016-07-03T12:12:50Z</time>
      </trkpt>
      <trkpt lat="44.96761" lon="5.16881">
        <ele>619.71</ele>
        <time>2016-07-03T12:13:08Z</time>
      </trkpt>
      <trkpt lat="44.9676" lon="5.16883">
        <ele>619.71</ele>
        <time>2016-07-03T12:13:23Z</time>
      </trkpt>
      <trkpt lat="44.96763" lon="5.1688">
        <ele>619.23</ele>
        <time>2016-07-03T12:13:52Z</time>
      </trkpt>
      <trkpt lat="44.96768" lon="5.16874">
        <ele>620.19</ele>
        <time>2016-07-03T12:14:05Z</time>
      </trkpt>
      <trkpt lat="44.96768" lon="5.16875">
        <ele>620.19</ele>
        <time>2016-07-03T12:14:31Z</time>
      </trkpt>
      <trkpt lat="44.96781" lon="5.16874">
        <ele>622.11</ele>
        <time>2016-07-03T12:14:46Z</time>
      </trkpt>
      <trkpt lat="44.96797" lon="5.16875">
        <ele>624.03</ele>
        <time>2016-07-03T12:15:01Z</time>
      </trkpt>
      <trkpt lat="44.96806" lon="5.16879">
        <ele>626.92</ele>
        <time>2016-07-03T12:15:14Z</time>
      </trkpt>
      <trkpt lat="44.96808" lon="5.16885">
        <ele>630.28</ele>
        <time>2016-07-03T12:15:26Z</time>
      </trkpt>
      <trkpt lat="44.96808" lon="5.16888">
        <ele>631.72</ele>
        <time>2016-07-03T12:15:37Z</time>
      </trkpt>
      <trkpt lat="44.9681" lon="5.16888">
        <ele>631.72</ele>
        <time>2016-07-03T12:15:47Z</time>
      </trkpt>
      <trkpt lat="44.96817" lon="5.16895">
        <ele>634.13</ele>
        <time>2016-07-03T12:16:00Z</time>
      </trkpt>
      <trkpt lat="44.96819" lon="5.16897">
        <ele>634.61</ele>
        <time>2016-07-03T12:16:14Z</time>
      </trkpt>
      <trkpt lat="44.96818" lon="5.16897">
        <ele>635.09</ele>
        <time>2016-07-03T12:16:32Z</time>
      </trkpt>
      <trkpt lat="44.96818" lon="5.16902">
        <ele>637.49</ele>
        <time>2016-07-03T12:16:44Z</time>
      </trkpt>
      <trkpt lat="44.96821" lon="5.16908">
        <ele>638.93</ele>
        <time>2016-07-03T12:17:00Z</time>
      </trkpt>
      <trkpt lat="44.96827" lon="5.16909">
        <ele>638.45</ele>
        <time>2016-07-03T12:17:19Z</time>
      </trkpt>
      <trkpt lat="44.96827" lon="5.16915">
        <ele>638.93</ele>
        <time>2016-07-03T12:17:40Z</time>
      </trkpt>
      <trkpt lat="44.96836" lon="5.16919">
        <ele>639.89</ele>
        <time>2016-07-03T12:17:52Z</time>
      </trkpt>
      <trkpt lat="44.96843" lon="5.1692">
        <ele>639.89</ele>
        <time>2016-07-03T12:18:04Z</time>
      </trkpt>
      <trkpt lat="44.96851" lon="5.16922">
        <ele>642.3</ele>
        <time>2016-07-03T12:18:18Z</time>
      </trkpt>
      <trkpt lat="44.96852" lon="5.16923">
        <ele>641.34</ele>
        <time>2016-07-03T12:18:20Z</time>
      </trkpt>
      <trkpt lat="44.9686" lon="5.16936">
        <ele>642.78</ele>
        <time>2016-07-03T12:18:34Z</time>
      </trkpt>
      <trkpt lat="44.96862" lon="5.16939">
        <ele>642.78</ele>
        <time>2016-07-03T12:18:53Z</time>
      </trkpt>
      <trkpt lat="44.96862" lon="5.16942">
        <ele>642.78</ele>
        <time>2016-07-03T12:19:28Z</time>
      </trkpt>
      <trkpt lat="44.96859" lon="5.1694">
        <ele>644.22</ele>
        <time>2016-07-03T12:19:58Z</time>
      </trkpt>
      <trkpt lat="44.9686" lon="5.16936">
        <ele>644.7</ele>
        <time>2016-07-03T12:20:27Z</time>
      </trkpt>
      <trkpt lat="44.96862" lon="5.16939">
        <ele>643.26</ele>
        <time>2016-07-03T12:20:56Z</time>
      </trkpt>
      <trkpt lat="44.96861" lon="5.16937">
        <ele>644.22</ele>
        <time>2016-07-03T12:21:05Z</time>
      </trkpt>
      <trkpt lat="44.96861" lon="5.1694">
        <ele>644.7</ele>
        <time>2016-07-03T12:21:33Z</time>
      </trkpt>
      <trkpt lat="44.96862" lon="5.1694">
        <ele>643.74</ele>
        <time>2016-07-03T12:22:00Z</time>
      </trkpt>
      <trkpt lat="44.96862" lon="5.16943">
        <ele>643.74</ele>
        <time>2016-07-03T12:22:27Z</time>
      </trkpt>
      <trkpt lat="44.96863" lon="5.16941">
        <ele>643.26</ele>
        <time>2016-07-03T12:22:52Z</time>
      </trkpt>
      <trkpt lat="44.96862" lon="5.16941">
        <ele>643.26</ele>
        <time>2016-07-03T12:23:19Z</time>
      </trkpt>
      <trkpt lat="44.96863" lon="5.16938">
        <ele>643.74</ele>
        <time>2016-07-03T12:23:39Z</time>
      </trkpt>
      <trkpt lat="44.96861" lon="5.16939">
        <ele>643.74</ele>
        <time>2016-07-03T12:24:14Z</time>
      </trkpt>
      <trkpt lat="44.96863" lon="5.16943">
        <ele>645.18</ele>
        <time>2016-07-03T12:24:46Z</time>
      </trkpt>
      <trkpt lat="44.96859" lon="5.16931">
        <ele>644.22</ele>
        <time>2016-07-03T12:25:00Z</time>
      </trkpt>
      <trkpt lat="44.96857" lon="5.16927">
        <ele>643.74</ele>
        <time>2016-07-03T12:25:05Z</time>
      </trkpt>
      <trkpt lat="44.96853" lon="5.16917">
        <ele>643.26</ele>
        <time>2016-07-03T12:25:20Z</time>
      </trkpt>
      <trkpt lat="44.96853" lon="5.16919">
        <ele>643.26</ele>
        <time>2016-07-03T12:25:33Z</time>
      </trkpt>
      <trkpt lat="44.96853" lon="5.16918">
        <ele>643.26</ele>
        <time>2016-07-03T12:26:09Z</time>
      </trkpt>
      <trkpt lat="44.96854" lon="5.16917">
        <ele>643.26</ele>
        <time>2016-07-03T12:26:36Z</time>
      </trkpt>
      <trkpt lat="44.96852" lon="5.16916">
        <ele>643.26</ele>
        <time>2016-07-03T12:26:56Z</time>
      </trkpt>
      <trkpt lat="44.96855" lon="5.16915">
        <ele>642.78</ele>
        <time>2016-07-03T12:27:22Z</time>
      </trkpt>
      <trkpt lat="44.96854" lon="5.16917">
        <ele>644.22</ele>
        <time>2016-07-03T12:27:50Z</time>
      </trkpt>
      <trkpt lat="44.96853" lon="5.16918">
        <ele>643.74</ele>
        <time>2016-07-03T12:28:17Z</time>
      </trkpt>
      <trkpt lat="44.96853" lon="5.1692">
        <ele>643.26</ele>
        <time>2016-07-03T12:28:36Z</time>
      </trkpt>
      <trkpt lat="44.96854" lon="5.16928">
        <ele>643.26</ele>
        <time>2016-07-03T12:28:48Z</time>
      </trkpt>
      <trkpt lat="44.96858" lon="5.16934">
        <ele>643.74</ele>
        <time>2016-07-03T12:28:58Z</time>
      </trkpt>
      <trkpt lat="44.96861" lon="5.16939">
        <ele>644.22</ele>
        <time>2016-07-03T12:29:13Z</time>
      </trkpt>
      <trkpt lat="44.96861" lon="5.16939">
        <ele>644.7</ele>
        <time>2016-07-03T12:29:16Z</time>
      </trkpt>
      <trkpt lat="44.96862" lon="5.16937">
        <ele>643.26</ele>
        <time>2016-07-03T12:29:21Z</time>
      </trkpt>
      <trkpt lat="44.96863" lon="5.16933">
        <ele>644.22</ele>
        <time>2016-07-03T12:29:54Z</time>
      </trkpt>
      <trkpt lat="44.96864" lon="5.16932">
        <ele>645.18</ele>
        <time>2016-07-03T12:30:33Z</time>
      </trkpt>
      <trkpt lat="44.96864" lon="5.16932">
        <ele>644.22</ele>
        <time>2016-07-03T12:31:10Z</time>
      </trkpt>
      <trkpt lat="44.96863" lon="5.16933">
        <ele>644.7</ele>
        <time>2016-07-03T12:31:44Z</time>
      </trkpt>
      <trkpt lat="44.96863" lon="5.16932">
        <ele>644.7</ele>
        <time>2016-07-03T12:32:10Z</time>
      </trkpt>
      <trkpt lat="44.96863" lon="5.16932">
        <ele>642.78</ele>
        <time>2016-07-03T12:32:28Z</time>
      </trkpt>
      <trkpt lat="44.96863" lon="5.16932">
        <ele>644.22</ele>
        <time>2016-07-03T12:33:02Z</time>
      </trkpt>
      <trkpt lat="44.96863" lon="5.16932">
        <ele>645.66</ele>
        <time>2016-07-03T12:33:33Z</time>
      </trkpt>
      <trkpt lat="44.96863" lon="5.16932">
        <ele>643.74</ele>
        <time>2016-07-03T12:33:44Z</time>
      </trkpt>
      <trkpt lat="44.96863" lon="5.16932">
        <ele>644.7</ele>
        <time>2016-07-03T12:33:46Z</time>
      </trkpt>
      <trkpt lat="44.96863" lon="5.16932">
        <ele>645.18</ele>
        <time>2016-07-03T12:34:18Z</time>
      </trkpt>
      <trkpt lat="44.96864" lon="5.16931">
        <ele>644.7</ele>
        <time>2016-07-03T12:34:53Z</time>
      </trkpt>
      <trkpt lat="44.96864" lon="5.16931">
        <ele>645.66</ele>
        <time>2016-07-03T12:35:25Z</time>
      </trkpt>
      <trkpt lat="44.96864" lon="5.16931">
        <ele>645.18</ele>
        <time>2016-07-03T12:36:03Z</time>
      </trkpt>
      <trkpt lat="44.96863" lon="5.1693">
        <ele>645.18</ele>
        <time>2016-07-03T12:36:37Z</time>
      </trkpt>
      <trkpt lat="44.96863" lon="5.1693">
        <ele>645.66</ele>
        <time>2016-07-03T12:37:16Z</time>
      </trkpt>
      <trkpt lat="44.96864" lon="5.16931">
        <ele>646.14</ele>
        <time>2016-07-03T12:37:56Z</time>
      </trkpt>
      <trkpt lat="44.96864" lon="5.16931">
        <ele>645.66</ele>
        <time>2016-07-03T12:38:27Z</time>
      </trkpt>
      <trkpt lat="44.96863" lon="5.16931">
        <ele>645.18</ele>
        <time>2016-07-03T12:38:59Z</time>
      </trkpt>
      <trkpt lat="44.96863" lon="5.16931">
        <ele>646.14</ele>
        <time>2016-07-03T12:39:31Z</time>
      </trkpt>
      <trkpt lat="44.96863" lon="5.1693">
        <ele>645.18</ele>
        <time>2016-07-03T12:40:03Z</time>
      </trkpt>
      <trkpt lat="44.96863" lon="5.1693">
        <ele>646.62</ele>
        <time>2016-07-03T12:40:12Z</time>
      </trkpt>
      <trkpt lat="44.96863" lon="5.16931">
        <ele>645.66</ele>
        <time>2016-07-03T12:40:42Z</time>
      </trkpt>
      <trkpt lat="44.96863" lon="5.1693">
        <ele>645.66</ele>
        <time>2016-07-03T12:41:11Z</time>
      </trkpt>
      <trkpt lat="44.96863" lon="5.16931">
        <ele>645.66</ele>
        <time>2016-07-03T12:41:47Z</time>
      </trkpt>
      <trkpt lat="44.96863" lon="5.16931">
        <ele>646.62</ele>
        <time>2016-07-03T12:42:27Z</time>
      </trkpt>
      <trkpt lat="44.96863" lon="5.16931">
        <ele>647.1</ele>
        <time>2016-07-03T12:43:02Z</time>
      </trkpt>
      <trkpt lat="44.96863" lon="5.16931">
        <ele>647.1</ele>
        <time>2016-07-03T12:43:37Z</time>
      </trkpt>
      <trkpt lat="44.96862" lon="5.16931">
        <ele>646.62</ele>
        <time>2016-07-03T12:44:15Z</time>
      </trkpt>
      <trkpt lat="44.96862" lon="5.16932">
        <ele>647.1</ele>
        <time>2016-07-03T12:44:51Z</time>
      </trkpt>
      <trkpt lat="44.96863" lon="5.16931">
        <ele>647.1</ele>
        <time>2016-07-03T12:45:30Z</time>
      </trkpt>
      <trkpt lat="44.96864" lon="5.16932">
        <ele>648.07</ele>
        <time>2016-07-03T12:46:06Z</time>
      </trkpt>
      <trkpt lat="44.96863" lon="5.16931">
        <ele>646.62</ele>
        <time>2016-07-03T12:46:18Z</time>
      </trkpt>
      <trkpt lat="44.96864" lon="5.16933">
        <ele>647.59</ele>
        <time>2016-07-03T12:46:53Z</time>
      </trkpt>
      <trkpt lat="44.96863" lon="5.16929">
        <ele>647.1</ele>
        <time>2016-07-03T12:47:31Z</time>
      </trkpt>
      <trkpt lat="44.96863" lon="5.1693">
        <ele>647.1</ele>
        <time>2016-07-03T12:48:10Z</time>
      </trkpt>
      <trkpt lat="44.96863" lon="5.16931">
        <ele>647.59</ele>
        <time>2016-07-03T12:48:52Z</time>
      </trkpt>
      <trkpt lat="44.96863" lon="5.1693">
        <ele>647.59</ele>
        <time>2016-07-03T12:49:31Z</time>
      </trkpt>
      <trkpt lat="44.96864" lon="5.16932">
        <ele>648.07</ele>
        <time>2016-07-03T12:50:00Z</time>
      </trkpt>
      <trkpt lat="44.96864" lon="5.16931">
        <ele>647.59</ele>
        <time>2016-07-03T12:50:36Z</time>
      </trkpt>
      <trkpt lat="44.96864" lon="5.16933">
        <ele>648.07</ele>
        <time>2016-07-03T12:51:07Z</time>
      </trkpt>
      <trkpt lat="44.96863" lon="5.16934">
        <ele>649.03</ele>
        <time>2016-07-03T12:51:41Z</time>
      </trkpt>
      <trkpt lat="44.96864" lon="5.16934">
        <ele>649.03</ele>
        <time>2016-07-03T12:52:09Z</time>
      </trkpt>
      <trkpt lat="44.96863" lon="5.16935">
        <ele>650.47</ele>
        <time>2016-07-03T12:52:16Z</time>
      </trkpt>
      <trkpt lat="44.96863" lon="5.16935">
        <ele>649.03</ele>
        <time>2016-07-03T12:52:19Z</time>
      </trkpt>
      <trkpt lat="44.96862" lon="5.16934">
        <ele>648.55</ele>
        <time>2016-07-03T12:52:51Z</time>
      </trkpt>
      <trkpt lat="44.96862" lon="5.16934">
        <ele>648.55</ele>
        <time>2016-07-03T12:53:22Z</time>
      </trkpt>
      <trkpt lat="44.96863" lon="5.16933">
        <ele>649.03</ele>
        <time>2016-07-03T12:53:53Z</time>
      </trkpt>
      <trkpt lat="44.96863" lon="5.16934">
        <ele>648.07</ele>
        <time>2016-07-03T12:54:26Z</time>
      </trkpt>
      <trkpt lat="44.96863" lon="5.16933">
        <ele>649.51</ele>
        <time>2016-07-03T12:54:59Z</time>
      </trkpt>
      <trkpt lat="44.96863" lon="5.16933">
        <ele>649.03</ele>
        <time>2016-07-03T12:55:40Z</time>
      </trkpt>
      <trkpt lat="44.96864" lon="5.16934">
        <ele>649.03</ele>
        <time>2016-07-03T12:56:09Z</time>
      </trkpt>
      <trkpt lat="44.96864" lon="5.16933">
        <ele>648.55</ele>
        <time>2016-07-03T12:56:41Z</time>
      </trkpt>
      <trkpt lat="44.96864" lon="5.16934">
        <ele>649.03</ele>
        <time>2016-07-03T12:57:09Z</time>
      </trkpt>
      <trkpt lat="44.96864" lon="5.16933">
        <ele>649.03</ele>
        <time>2016-07-03T12:57:33Z</time>
      </trkpt>
      <trkpt lat="44.96864" lon="5.16933">
        <ele>649.03</ele>
        <time>2016-07-03T12:58:00Z</time>
      </trkpt>
      <trkpt lat="44.96864" lon="5.16933">
        <ele>649.51</ele>
        <time>2016-07-03T12:58:39Z</time>
      </trkpt>
      <trkpt lat="44.96864" lon="5.16933">
        <ele>649.99</ele>
        <time>2016-07-03T12:59:12Z</time>
      </trkpt>
      <trkpt lat="44.96864" lon="5.16933">
        <ele>649.99</ele>
        <time>2016-07-03T12:59:38Z</time>
      </trkpt>
      <trkpt lat="44.96864" lon="5.16933">
        <ele>649.51</ele>
        <time>2016-07-03T13:00:02Z</time>
      </trkpt>
      <trkpt lat="44.96863" lon="5.16931">
        <ele>650.95</ele>
        <time>2016-07-03T13:00:26Z</time>
      </trkpt>
      <trkpt lat="44.96863" lon="5.16931">
        <ele>651.43</ele>
        <time>2016-07-03T13:00:51Z</time>
      </trkpt>
      <trkpt lat="44.96863" lon="5.16932">
        <ele>650.47</ele>
        <time>2016-07-03T13:01:28Z</time>
      </trkpt>
      <trkpt lat="44.96863" lon="5.16932">
        <ele>649.51</ele>
        <time>2016-07-03T13:02:05Z</time>
      </trkpt>
      <trkpt lat="44.96863" lon="5.16931">
        <ele>649.51</ele>
        <time>2016-07-03T13:02:35Z</time>
      </trkpt>
      <trkpt lat="44.96863" lon="5.16931">
        <ele>649.51</ele>
        <time>2016-07-03T13:03:12Z</time>
      </trkpt>
      <trkpt lat="44.96863" lon="5.1693">
        <ele>649.51</ele>
        <time>2016-07-03T13:03:40Z</time>
      </trkpt>
      <trkpt lat="44.96863" lon="5.1693">
        <ele>649.99</ele>
        <time>2016-07-03T13:04:06Z</time>
      </trkpt>
      <trkpt lat="44.96863" lon="5.1693">
        <ele>649.99</ele>
        <time>2016-07-03T13:04:36Z</time>
      </trkpt>
      <trkpt lat="44.96863" lon="5.16931">
        <ele>650.47</ele>
        <time>2016-07-03T13:05:18Z</time>
      </trkpt>
      <trkpt lat="44.96863" lon="5.16932">
        <ele>650.95</ele>
        <time>2016-07-03T13:05:59Z</time>
      </trkpt>
      <trkpt lat="44.96863" lon="5.16932">
        <ele>650.47</ele>
        <time>2016-07-03T13:06:24Z</time>
      </trkpt>
      <trkpt lat="44.96862" lon="5.16933">
        <ele>650.47</ele>
        <time>2016-07-03T13:06:50Z</time>
      </trkpt>
      <trkpt lat="44.96863" lon="5.16932">
        <ele>650.47</ele>
        <time>2016-07-03T13:07:19Z</time>
      </trkpt>
      <trkpt lat="44.96862" lon="5.16931">
        <ele>650.47</ele>
        <time>2016-07-03T13:07:48Z</time>
      </trkpt>
      <trkpt lat="44.96862" lon="5.16931">
        <ele>649.51</ele>
        <time>2016-07-03T13:08:09Z</time>
      </trkpt>
      <trkpt lat="44.96862" lon="5.1693">
        <ele>649.99</ele>
        <time>2016-07-03T13:08:37Z</time>
      </trkpt>
      <trkpt lat="44.96861" lon="5.16929">
        <ele>650.47</ele>
        <time>2016-07-03T13:09:05Z</time>
      </trkpt>
      <trkpt lat="44.96861" lon="5.16929">
        <ele>650.47</ele>
        <time>2016-07-03T13:09:32Z</time>
      </trkpt>
      <trkpt lat="44.96863" lon="5.16932">
        <ele>655.28</ele>
        <time>2016-07-03T13:09:53Z</time>
      </trkpt>
      <trkpt lat="44.96863" lon="5.16932">
        <ele>652.39</ele>
        <time>2016-07-03T13:10:00Z</time>
      </trkpt>
      <trkpt lat="44.96857" lon="5.16925">
        <ele>649.99</ele>
        <time>2016-07-03T13:10:14Z</time>
      </trkpt>
      <trkpt lat="44.96854" lon="5.16921">
        <ele>650.95</ele>
        <time>2016-07-03T13:10:18Z</time>
      </trkpt>
      <trkpt lat="44.96852" lon="5.16915">
        <ele>650.47</ele>
        <time>2016-07-03T13:10:32Z</time>
      </trkpt>
      <trkpt lat="44.96847" lon="5.16914">
        <ele>649.51</ele>
        <time>2016-07-03T13:10:47Z</time>
      </trkpt>
      <trkpt lat="44.9684" lon="5.1691">
        <ele>648.55</ele>
        <time>2016-07-03T13:10:59Z</time>
      </trkpt>
      <trkpt lat="44.96835" lon="5.16908">
        <ele>648.55</ele>
        <time>2016-07-03T13:11:13Z</time>
      </trkpt>
      <trkpt lat="44.9683" lon="5.16904">
        <ele>645.18</ele>
        <time>2016-07-03T13:11:26Z</time>
      </trkpt>
      <trkpt lat="44.96827" lon="5.16902">
        <ele>644.22</ele>
        <time>2016-07-03T13:11:40Z</time>
      </trkpt>
      <trkpt lat="44.96824" lon="5.16899">
        <ele>643.74</ele>
        <time>2016-07-03T13:12:10Z</time>
      </trkpt>
      <trkpt lat="44.96815" lon="5.16892">
        <ele>640.86</ele>
        <time>2016-07-03T13:12:24Z</time>
      </trkpt>
      <trkpt lat="44.96812" lon="5.16886">
        <ele>639.89</ele>
        <time>2016-07-03T13:12:35Z</time>
      </trkpt>
      <trkpt lat="44.96809" lon="5.16881">
        <ele>637.01</ele>
        <time>2016-07-03T13:12:49Z</time>
      </trkpt>
      <trkpt lat="44.96807" lon="5.16879">
        <ele>635.57</ele>
        <time>2016-07-03T13:12:54Z</time>
      </trkpt>
      <trkpt lat="44.96805" lon="5.16879">
        <ele>634.61</ele>
        <time>2016-07-03T13:12:56Z</time>
      </trkpt>
      <trkpt lat="44.96792" lon="5.16874">
        <ele>632.2</ele>
        <time>2016-07-03T13:13:09Z</time>
      </trkpt>
      <trkpt lat="44.96787" lon="5.16873">
        <ele>631.72</ele>
        <time>2016-07-03T13:13:14Z</time>
      </trkpt>
      <trkpt lat="44.96781" lon="5.16877">
        <ele>631.72</ele>
        <time>2016-07-03T13:13:21Z</time>
      </trkpt>
      <trkpt lat="44.96771" lon="5.16875">
        <ele>630.76</ele>
        <time>2016-07-03T13:13:35Z</time>
      </trkpt>
      <trkpt lat="44.96768" lon="5.16879">
        <ele>630.76</ele>
        <time>2016-07-03T13:13:46Z</time>
      </trkpt>
      <trkpt lat="44.96758" lon="5.16887">
        <ele>628.84</ele>
        <time>2016-07-03T13:14:01Z</time>
      </trkpt>
      <trkpt lat="44.96757" lon="5.16899">
        <ele>626.92</ele>
        <time>2016-07-03T13:14:15Z</time>
      </trkpt>
      <trkpt lat="44.96756" lon="5.16907">
        <ele>626.92</ele>
        <time>2016-07-03T13:14:29Z</time>
      </trkpt>
      <trkpt lat="44.96749" lon="5.16901">
        <ele>623.55</ele>
        <time>2016-07-03T13:14:52Z</time>
      </trkpt>
      <trkpt lat="44.96741" lon="5.16901">
        <ele>621.15</ele>
        <time>2016-07-03T13:15:06Z</time>
      </trkpt>
      <trkpt lat="44.96732" lon="5.16893">
        <ele>618.26</ele>
        <time>2016-07-03T13:15:19Z</time>
      </trkpt>
      <trkpt lat="44.96722" lon="5.16886">
        <ele>614.9</ele>
        <time>2016-07-03T13:15:32Z</time>
      </trkpt>
      <trkpt lat="44.96721" lon="5.16885">
        <ele>615.38</ele>
        <time>2016-07-03T13:15:34Z</time>
      </trkpt>
      <trkpt lat="44.9671" lon="5.16878">
        <ele>613.46</ele>
        <time>2016-07-03T13:15:46Z</time>
      </trkpt>
      <trkpt lat="44.96701" lon="5.16874">
        <ele>610.09</ele>
        <time>2016-07-03T13:15:59Z</time>
      </trkpt>
      <trkpt lat="44.96698" lon="5.16875">
        <ele>608.65</ele>
        <time>2016-07-03T13:16:16Z</time>
      </trkpt>
      <trkpt lat="44.96691" lon="5.1687">
        <ele>606.73</ele>
        <time>2016-07-03T13:16:31Z</time>
      </trkpt>
      <trkpt lat="44.96686" lon="5.16873">
        <ele>603.85</ele>
        <time>2016-07-03T13:16:41Z</time>
      </trkpt>
      <trkpt lat="44.96684" lon="5.16874">
        <ele>603.36</ele>
        <time>2016-07-03T13:16:43Z</time>
      </trkpt>
      <trkpt lat="44.96671" lon="5.16875">
        <ele>600.48</ele>
        <time>2016-07-03T13:16:57Z</time>
      </trkpt>
      <trkpt lat="44.96669" lon="5.16885">
        <ele>598.08</ele>
        <time>2016-07-03T13:17:11Z</time>
      </trkpt>
      <trkpt lat="44.96681" lon="5.16899">
        <ele>595.67</ele>
        <time>2016-07-03T13:17:27Z</time>
      </trkpt>
      <trkpt lat="44.96687" lon="5.16907">
        <ele>594.71</ele>
        <time>2016-07-03T13:17:36Z</time>
      </trkpt>
      <trkpt lat="44.96702" lon="5.16929">
        <ele>591.35</ele>
        <time>2016-07-03T13:17:55Z</time>
      </trkpt>
      <trkpt lat="44.9671" lon="5.16943">
        <ele>589.91</ele>
        <time>2016-07-03T13:18:11Z</time>
      </trkpt>
      <trkpt lat="44.96718" lon="5.16958">
        <ele>587.02</ele>
        <time>2016-07-03T13:18:25Z</time>
      </trkpt>
      <trkpt lat="44.96726" lon="5.16971">
        <ele>584.62</ele>
        <time>2016-07-03T13:18:40Z</time>
      </trkpt>
      <trkpt lat="44.96734" lon="5.16982">
        <ele>583.18</ele>
        <time>2016-07-03T13:18:54Z</time>
      </trkpt>
      <trkpt lat="44.96741" lon="5.16992">
        <ele>579.81</ele>
        <time>2016-07-03T13:19:06Z</time>
      </trkpt>
      <trkpt lat="44.9675" lon="5.17004">
        <ele>576.93</ele>
        <time>2016-07-03T13:19:21Z</time>
      </trkpt>
      <trkpt lat="44.96758" lon="5.1702">
        <ele>574.53</ele>
        <time>2016-07-03T13:19:38Z</time>
      </trkpt>
      <trkpt lat="44.9676" lon="5.17029">
        <ele>575.49</ele>
        <time>2016-07-03T13:19:56Z</time>
      </trkpt>
      <trkpt lat="44.96761" lon="5.17031">
        <ele>575.01</ele>
        <time>2016-07-03T13:20:13Z</time>
      </trkpt>
      <trkpt lat="44.96767" lon="5.17034">
        <ele>573.08</ele>
        <time>2016-07-03T13:20:36Z</time>
      </trkpt>
      <trkpt lat="44.96769" lon="5.17035">
        <ele>572.6</ele>
        <time>2016-07-03T13:20:37Z</time>
      </trkpt>
      <trkpt lat="44.96773" lon="5.17037">
        <ele>571.64</ele>
        <time>2016-07-03T13:20:42Z</time>
      </trkpt>
      <trkpt lat="44.96787" lon="5.17044">
        <ele>569.72</ele>
        <time>2016-07-03T13:20:58Z</time>
      </trkpt>
      <trkpt lat="44.9679" lon="5.17045">
        <ele>570.2</ele>
        <time>2016-07-03T13:21:19Z</time>
      </trkpt>
      <trkpt lat="44.96787" lon="5.17047">
        <ele>568.76</ele>
        <time>2016-07-03T13:21:51Z</time>
      </trkpt>
      <trkpt lat="44.96788" lon="5.17046">
        <ele>570.2</ele>
        <time>2016-07-03T13:22:25Z</time>
      </trkpt>
      <trkpt lat="44.96799" lon="5.17051">
        <ele>568.76</ele>
        <time>2016-07-03T13:22:39Z</time>
      </trkpt>
      <trkpt lat="44.96811" lon="5.17057">
        <ele>565.87</ele>
        <time>2016-07-03T13:22:53Z</time>
      </trkpt>
      <trkpt lat="44.96821" lon="5.17063">
        <ele>563.47</ele>
        <time>2016-07-03T13:23:07Z</time>
      </trkpt>
      <trkpt lat="44.96836" lon="5.1707">
        <ele>560.59</ele>
        <time>2016-07-03T13:23:23Z</time>
      </trkpt>
      <trkpt lat="44.96847" lon="5.17075">
        <ele>557.7</ele>
        <time>2016-07-03T13:23:38Z</time>
      </trkpt>
      <trkpt lat="44.96864" lon="5.17081">
        <ele>555.78</ele>
        <time>2016-07-03T13:23:53Z</time>
      </trkpt>
      <trkpt lat="44.96876" lon="5.17086">
        <ele>553.38</ele>
        <time>2016-07-03T13:24:09Z</time>
      </trkpt>
      <trkpt lat="44.96892" lon="5.17096">
        <ele>550.01</ele>
        <time>2016-07-03T13:24:25Z</time>
      </trkpt>
      <trkpt lat="44.96903" lon="5.17104">
        <ele>548.57</ele>
        <time>2016-07-03T13:24:41Z</time>
      </trkpt>
      <trkpt lat="44.96916" lon="5.17109">
        <ele>546.17</ele>
        <time>2016-07-03T13:24:56Z</time>
      </trkpt>
      <trkpt lat="44.96933" lon="5.1712">
        <ele>544.72</ele>
        <time>2016-07-03T13:25:13Z</time>
      </trkpt>
      <trkpt lat="44.96949" lon="5.17125">
        <ele>543.76</ele>
        <time>2016-07-03T13:25:28Z</time>
      </trkpt>
      <trkpt lat="44.9696" lon="5.1713">
        <ele>543.76</ele>
        <time>2016-07-03T13:25:44Z</time>
      </trkpt>
      <trkpt lat="44.9697" lon="5.17135">
        <ele>542.8</ele>
        <time>2016-07-03T13:25:55Z</time>
      </trkpt>
      <trkpt lat="44.96983" lon="5.17146">
        <ele>542.32</ele>
        <time>2016-07-03T13:26:11Z</time>
      </trkpt>
      <trkpt lat="44.96999" lon="5.17154">
        <ele>541.84</ele>
        <time>2016-07-03T13:26:27Z</time>
      </trkpt>
      <trkpt lat="44.97006" lon="5.17153">
        <ele>541.36</ele>
        <time>2016-07-03T13:26:34Z</time>
      </trkpt>
      <trkpt lat="44.97008" lon="5.17151">
        <ele>540.88</ele>
        <time>2016-07-03T13:26:36Z</time>
      </trkpt>
      <trkpt lat="44.97011" lon="5.17149">
        <ele>539.92</ele>
        <time>2016-07-03T13:26:38Z</time>
      </trkpt>
      <trkpt lat="44.97027" lon="5.17147">
        <ele>538.48</ele>
        <time>2016-07-03T13:26:52Z</time>
      </trkpt>
      <trkpt lat="44.97033" lon="5.17149">
        <ele>538.48</ele>
        <time>2016-07-03T13:26:57Z</time>
      </trkpt>
      <trkpt lat="44.97044" lon="5.17143">
        <ele>537.99</ele>
        <time>2016-07-03T13:27:13Z</time>
      </trkpt>
      <trkpt lat="44.97044" lon="5.17133">
        <ele>538.48</ele>
        <time>2016-07-03T13:27:21Z</time>
      </trkpt>
      <trkpt lat="44.97039" lon="5.17123">
        <ele>537.03</ele>
        <time>2016-07-03T13:27:29Z</time>
      </trkpt>
      <trkpt lat="44.97033" lon="5.17115">
        <ele>533.19</ele>
        <time>2016-07-03T13:27:36Z</time>
      </trkpt>
      <trkpt lat="44.9703" lon="5.17111">
        <ele>530.3</ele>
        <time>2016-07-03T13:27:41Z</time>
      </trkpt>
      <trkpt lat="44.97026" lon="5.17098">
        <ele>529.34</ele>
        <time>2016-07-03T13:27:51Z</time>
      </trkpt>
      <trkpt lat="44.97026" lon="5.17096">
        <ele>529.34</ele>
        <time>2016-07-03T13:27:53Z</time>
      </trkpt>
      <trkpt lat="44.97027" lon="5.17074">
        <ele>525.5</ele>
        <time>2016-07-03T13:28:07Z</time>
      </trkpt>
      <trkpt lat="44.97027" lon="5.17073">
        <ele>525.5</ele>
        <time>2016-07-03T13:28:08Z</time>
      </trkpt>
      <trkpt lat="44.97026" lon="5.17067">
        <ele>524.06</ele>
        <time>2016-07-03T13:28:11Z</time>
      </trkpt>
      <trkpt lat="44.97026" lon="5.17047">
        <ele>521.65</ele>
        <time>2016-07-03T13:28:26Z</time>
      </trkpt>
      <trkpt lat="44.97027" lon="5.17039">
        <ele>521.65</ele>
        <time>2016-07-03T13:28:41Z</time>
      </trkpt>
      <trkpt lat="44.9703" lon="5.17005">
        <ele>520.21</ele>
        <time>2016-07-03T13:29:00Z</time>
      </trkpt>
      <trkpt lat="44.97034" lon="5.16979">
        <ele>516.85</ele>
        <time>2016-07-03T13:29:15Z</time>
      </trkpt>
      <trkpt lat="44.97034" lon="5.16981">
        <ele>516.37</ele>
        <time>2016-07-03T13:29:29Z</time>
      </trkpt>
      <trkpt lat="44.97035" lon="5.16962">
        <ele>514.92</ele>
        <time>2016-07-03T13:29:43Z</time>
      </trkpt>
      <trkpt lat="44.97036" lon="5.16946">
        <ele>514.44</ele>
        <time>2016-07-03T13:29:55Z</time>
      </trkpt>
      <trkpt lat="44.97037" lon="5.16944">
        <ele>514.44</ele>
        <time>2016-07-03T13:30:07Z</time>
      </trkpt>
      <trkpt lat="44.97039" lon="5.16927">
        <ele>512.04</ele>
        <time>2016-07-03T13:30:22Z</time>
      </trkpt>
      <trkpt lat="44.9704" lon="5.16932">
        <ele>511.56</ele>
        <time>2016-07-03T13:30:36Z</time>
      </trkpt>
      <trkpt lat="44.97043" lon="5.16939">
        <ele>510.6</ele>
        <time>2016-07-03T13:30:43Z</time>
      </trkpt>
      <trkpt lat="44.9705" lon="5.16954">
        <ele>506.75</ele>
        <time>2016-07-03T13:30:58Z</time>
      </trkpt>
      <trkpt lat="44.97053" lon="5.16962">
        <ele>505.31</ele>
        <time>2016-07-03T13:31:04Z</time>
      </trkpt>
      <trkpt lat="44.9706" lon="5.16986">
        <ele>502.43</ele>
        <time>2016-07-03T13:31:22Z</time>
      </trkpt>
      <trkpt lat="44.97064" lon="5.17007">
        <ele>500.02</ele>
        <time>2016-07-03T13:31:36Z</time>
      </trkpt>
      <trkpt lat="44.97068" lon="5.17024">
        <ele>498.1</ele>
        <time>2016-07-03T13:31:49Z</time>
      </trkpt>
      <trkpt lat="44.9707" lon="5.17039">
        <ele>496.18</ele>
        <time>2016-07-03T13:32:04Z</time>
      </trkpt>
      <trkpt lat="44.97076" lon="5.1705">
        <ele>492.81</ele>
        <time>2016-07-03T13:32:25Z</time>
      </trkpt>
      <trkpt lat="44.97083" lon="5.17037">
        <ele>489.93</ele>
        <time>2016-07-03T13:32:43Z</time>
      </trkpt>
      <trkpt lat="44.9709" lon="5.1702">
        <ele>486.56</ele>
        <time>2016-07-03T13:32:57Z</time>
      </trkpt>
      <trkpt lat="44.97095" lon="5.17008">
        <ele>483.2</ele>
        <time>2016-07-03T13:33:09Z</time>
      </trkpt>
      <trkpt lat="44.97104" lon="5.16989">
        <ele>481.28</ele>
        <time>2016-07-03T13:33:31Z</time>
      </trkpt>
      <trkpt lat="44.97113" lon="5.16966">
        <ele>477.43</ele>
        <time>2016-07-03T13:33:53Z</time>
      </trkpt>
      <trkpt lat="44.9712" lon="5.16948">
        <ele>474.55</ele>
        <time>2016-07-03T13:34:08Z</time>
      </trkpt>
      <trkpt lat="44.97128" lon="5.16934">
        <ele>473.11</ele>
        <time>2016-07-03T13:34:25Z</time>
      </trkpt>
      <trkpt lat="44.97134" lon="5.16912">
        <ele>472.63</ele>
        <time>2016-07-03T13:34:42Z</time>
      </trkpt>
      <trkpt lat="44.97143" lon="5.16893">
        <ele>469.26</ele>
        <time>2016-07-03T13:35:00Z</time>
      </trkpt>
      <trkpt lat="44.97144" lon="5.1689">
        <ele>469.26</ele>
        <time>2016-07-03T13:35:05Z</time>
      </trkpt>
      <trkpt lat="44.97159" lon="5.16861">
        <ele>465.9</ele>
        <time>2016-07-03T13:35:23Z</time>
      </trkpt>
      <trkpt lat="44.97162" lon="5.16855">
        <ele>461.57</ele>
        <time>2016-07-03T13:35:27Z</time>
      </trkpt>
      <trkpt lat="44.97163" lon="5.16854">
        <ele>466.86</ele>
        <time>2016-07-03T13:35:28Z</time>
      </trkpt>
      <trkpt lat="44.97165" lon="5.16851">
        <ele>463.97</ele>
        <time>2016-07-03T13:35:31Z</time>
      </trkpt>
      <trkpt lat="44.9718" lon="5.16834">
        <ele>461.09</ele>
        <time>2016-07-03T13:35:49Z</time>
      </trkpt>
      <trkpt lat="44.97192" lon="5.1682">
        <ele>459.17</ele>
        <time>2016-07-03T13:36:05Z</time>
      </trkpt>
      <trkpt lat="44.97196" lon="5.16817">
        <ele>459.65</ele>
        <time>2016-07-03T13:36:22Z</time>
      </trkpt>
      <trkpt lat="44.97199" lon="5.16811">
        <ele>458.69</ele>
        <time>2016-07-03T13:36:33Z</time>
      </trkpt>
      <trkpt lat="44.97211" lon="5.16804">
        <ele>458.21</ele>
        <time>2016-07-03T13:36:46Z</time>
      </trkpt>
      <trkpt lat="44.97227" lon="5.1679">
        <ele>456.28</ele>
        <time>2016-07-03T13:37:03Z</time>
      </trkpt>
      <trkpt lat="44.97246" lon="5.16788">
        <ele>454.84</ele>
        <time>2016-07-03T13:37:18Z</time>
      </trkpt>
      <trkpt lat="44.97252" lon="5.16787">
        <ele>454.84</ele>
        <time>2016-07-03T13:37:32Z</time>
      </trkpt>
    </trkseg>
  </trk>
</gpx>